Darstellungsparameter: Aktuell verwendete Einstellungen:
Skalierung der Graphiken ... ?
xyx+y,   Skalierungsfaktor:      Skalierung: Modus: x, Faktor: 1
Darstellungszeitraum ... ?
Vom - - bis: - -   Zeitraum: 08.03.2020 - 21.03.2020
Min/Max/Avg-Anzeige ... ?
Zeige MMA aktuell
Zeige MMA Monat
Zeige MMA alles
Zeige --A aktuell
Zeige --A Monat
Zeige --A alles
Keine MMA-Anzeige
MMA:
Keine MMA-Graphiken
MMA-Basis: 08.03.2020 - 21.03.2020
Quicknavigation für Darstellung... ?
Tage:      1T, 2T, 3T, 5T -1T -2T -3T -5T +1T +2T +3T +5T
Wochen: 1W, 2W, 3W -1W -2W -3W +1W +2W +3W
Monate: 1M, 3M, 6M -1M -3M -6M +1M +3M +6M
Jahre:    1J, 3J, 5J, 10J -1J -3J -5J -10J +1J +3J +5J +10J
Nutze für die Darstellung ... ?
Originaldaten oder Mittelwerte auf ...
Stundenbasis Tagesbasis Wochenbasis
Monatsbasis Jahresbasis      Datenbasis: Original-Daten
Darstellen als:
Statistik (Auto) Statistik J:M      Darstellung:
Zur Graphik,    zurück zur Übersicht aller Sensoren.
 
Tabellarische Datenbersicht: ?
 
Sensor: Nr:Datum:Temp:Feuchte:
Aussen-T/F 1 08-03-2020 00:08:18 6.5 C 35 %
2 08-03-2020 00:18:18 6.4 C 35 %
3 08-03-2020 00:28:18 6.8 C 35 %
4 08-03-2020 00:38:18 6.7 C 35 %
5 08-03-2020 00:48:18 7 C 34 %
6 08-03-2020 00:58:18 7.1 C 35 %
7 08-03-2020 01:08:17 7.1 C 34 %
8 08-03-2020 01:18:17 6.8 C 35 %
9 08-03-2020 01:28:17 6.9 C 35 %
10 08-03-2020 01:38:17 6.7 C 35 %
11 08-03-2020 01:49:17 6.9 C 35 %
12 08-03-2020 01:59:17 6.7 C 35 %
13 08-03-2020 02:09:17 6.8 C 35 %
14 08-03-2020 02:19:17 7 C 35 %
15 08-03-2020 02:29:17 6.9 C 35 %
16 08-03-2020 02:38:17 7.3 C 35 %
17 08-03-2020 02:48:17 7.2 C 35 %
18 08-03-2020 02:58:17 7 C 35 %
19 08-03-2020 03:08:18 7.1 C 35 %
20 08-03-2020 03:19:17 6.7 C 35 %
21 08-03-2020 03:29:17 6.4 C 36 %
22 08-03-2020 03:39:17 6.5 C 36 %
23 08-03-2020 03:48:18 6.6 C 36 %
24 08-03-2020 03:58:18 6.8 C 35 %
25 08-03-2020 04:08:18 7 C 35 %
Sensor: Nr:Datum:Temp:Feuchte:
Aussen-T/F 26 08-03-2020 04:19:17 7.1 C 35 %
27 08-03-2020 04:29:17 7 C 35 %
28 08-03-2020 04:39:17 7 C 35 %
29 08-03-2020 04:49:17 6.8 C 35 %
30 08-03-2020 04:59:17 6.9 C 35 %
31 08-03-2020 05:09:17 7 C 35 %
32 08-03-2020 05:19:17 6.8 C 35 %
33 08-03-2020 05:29:17 6.5 C 35 %
34 08-03-2020 05:39:17 6.8 C 35 %
35 08-03-2020 05:49:17 6.6 C 35 %
36 08-03-2020 05:59:17 6.4 C 35 %
37 08-03-2020 06:09:17 6.4 C 35 %
38 08-03-2020 06:19:17 5.9 C 37 %
39 08-03-2020 06:29:18 6.3 C 36 %
40 08-03-2020 06:39:18 6.6 C 36 %
41 08-03-2020 06:49:17 6.9 C 36 %
42 08-03-2020 06:59:17 7.3 C 35 %
43 08-03-2020 07:09:17 7.4 C 35 %
44 08-03-2020 07:19:17 7.7 C 35 %
45 08-03-2020 07:29:17 7.8 C 35 %
46 08-03-2020 07:39:17 7.9 C 35 %
47 08-03-2020 07:49:17 8 C 35 %
48 08-03-2020 07:59:17 8.2 C 34 %
49 08-03-2020 08:09:17 8.2 C 34 %
50 08-03-2020 08:19:17 8.4 C 34 %
Sensor: Nr:Datum:Temp:Feuchte:
Aussen-T/F 51 08-03-2020 08:29:17 8.6 C 34 %
52 08-03-2020 08:39:17 8.5 C 35 %
53 08-03-2020 08:49:17 8.6 C 34 %
54 08-03-2020 08:59:17 8.6 C 34 %
55 08-03-2020 09:09:17 8.6 C 34 %
56 08-03-2020 09:19:17 8.8 C 34 %
57 08-03-2020 09:29:18 9.2 C 33 %
58 08-03-2020 09:39:17 9.6 C 33 %
59 08-03-2020 09:49:17 10.3 C 32 %
60 08-03-2020 09:59:17 10.2 C 32 %
61 08-03-2020 10:09:17 9.9 C 33 %
62 08-03-2020 10:19:17 10.1 C 32 %
63 08-03-2020 10:29:17 10.1 C 32 %
64 08-03-2020 10:39:17 11.4 C 30 %
65 08-03-2020 10:49:17 11.2 C 30 %
66 08-03-2020 10:59:18 11.9 C 30 %
67 08-03-2020 11:09:17 11.9 C 28 %
68 08-03-2020 11:19:16 11.9 C 29 %
69 08-03-2020 11:29:16 12.1 C 27 %
70 08-03-2020 11:39:17 12.5 C 26 %
71 08-03-2020 11:49:16 12.5 C 26 %
72 08-03-2020 11:59:16 13.4 C 25 %
73 08-03-2020 12:09:17 12.8 C 25 %
74 08-03-2020 12:19:17 13.1 C 25 %
75 08-03-2020 12:29:17 13.5 C 23 %
Sensor: Nr:Datum:Temp:Feuchte:
Aussen-T/F 76 08-03-2020 12:39:17 13.2 C 24 %
77 08-03-2020 12:49:17 14.1 C 22 %
78 08-03-2020 12:59:18 13.2 C 22 %
79 08-03-2020 13:09:17 12.2 C 25 %
80 08-03-2020 13:19:16 12.3 C 25 %
81 08-03-2020 13:29:16 12.3 C 25 %
82 08-03-2020 13:39:16 12.7 C 25 %
83 08-03-2020 13:49:17 12.7 C 25 %
84 08-03-2020 13:59:17 12.5 C 25 %
85 08-03-2020 14:09:17 13 C 23 %
86 08-03-2020 14:19:16 12.8 C 25 %
87 08-03-2020 14:29:16 12.5 C 25 %
88 08-03-2020 14:39:16 12.8 C 25 %
89 08-03-2020 14:49:16 12.7 C 25 %
90 08-03-2020 14:59:16 12.3 C 25 %
91 08-03-2020 15:09:16 12.8 C 25 %
92 08-03-2020 15:19:17 12.5 C 25 %
93 08-03-2020 15:29:17 12.5 C 25 %
94 08-03-2020 15:39:17 12.1 C 25 %
95 08-03-2020 15:49:17 12 C 25 %
96 08-03-2020 15:59:17 12.1 C 25 %
97 08-03-2020 16:09:17 12.5 C 25 %
98 08-03-2020 16:19:17 12.4 C 25 %
99 08-03-2020 16:29:17 12.1 C 25 %
100 08-03-2020 16:39:17 12.2 C 26 %
Sensor: Nr:Datum:Temp:Feuchte:
Aussen-T/F 101 08-03-2020 16:49:17 12.2 C 26 %
102 08-03-2020 16:59:17 12 C 26 %
103 08-03-2020 17:09:17 12.6 C 25 %
104 08-03-2020 17:19:17 12.4 C 26 %
105 08-03-2020 17:29:17 12.3 C 26 %
106 08-03-2020 17:39:17 12 C 26 %
107 08-03-2020 17:49:16 11.5 C 28 %
108 08-03-2020 17:59:16 11.4 C 29 %
109 08-03-2020 18:09:17 11.1 C 30 %
110 08-03-2020 18:19:17 10.9 C 31 %
111 08-03-2020 18:29:18 10.7 C 31 %
112 08-03-2020 18:39:17 10.4 C 32 %
113 08-03-2020 18:49:16 10.2 C 32 %
114 08-03-2020 18:59:16 9.6 C 35 %
115 08-03-2020 19:09:17 9.9 C 35 %
116 08-03-2020 19:19:16 9.8 C 35 %
117 08-03-2020 19:29:16 9.6 C 36 %
118 08-03-2020 19:39:17 9.4 C 36 %
119 08-03-2020 19:49:16 9.5 C 36 %
120 08-03-2020 19:59:16 9.5 C 36 %
121 08-03-2020 20:09:16 9.4 C 36 %
122 08-03-2020 20:19:16 9.3 C 36 %
123 08-03-2020 20:29:16 9.3 C 37 %
124 08-03-2020 20:39:17 9.2 C 37 %
125 08-03-2020 20:49:16 9.2 C 37 %
Sensor: Nr:Datum:Temp:Feuchte:
Aussen-T/F 126 08-03-2020 20:59:16 9 C 37 %
127 08-03-2020 21:09:17 9 C 37 %
128 08-03-2020 21:19:17 9.1 C 37 %
129 08-03-2020 21:29:17 9.1 C 37 %
130 08-03-2020 21:39:17 9.3 C 37 %
131 08-03-2020 21:49:17 9.3 C 37 %
132 08-03-2020 21:59:17 9.3 C 37 %
133 08-03-2020 22:09:17 9.3 C 37 %
134 08-03-2020 22:19:16 9.3 C 37 %
135 08-03-2020 22:29:16 8.9 C 37 %
136 08-03-2020 22:39:17 9.2 C 37 %
137 08-03-2020 22:49:16 8.7 C 37 %
138 08-03-2020 22:59:16 9 C 37 %
139 08-03-2020 23:09:16 9.3 C 37 %
140 08-03-2020 23:19:16 7.9 C 39 %
141 08-03-2020 23:29:16 7.8 C 40 %
142 08-03-2020 23:39:16 7.9 C 40 %
143 08-03-2020 23:49:16 7.9 C 39 %
144 08-03-2020 23:59:16 7.6 C 40 %
145 09-03-2020 00:09:17 7.3 C 41 %
146 09-03-2020 00:19:16 7 C 41 %
147 09-03-2020 00:29:16 6.8 C 43 %
148 09-03-2020 00:39:16 6.8 C 44 %
149 09-03-2020 00:49:16 6.6 C 45 %
150 09-03-2020 00:59:16 6.8 C 43 %
Sensor: Nr:Datum:Temp:Feuchte:
Aussen-T/F 151 09-03-2020 01:09:16 6.9 C 42 %
152 09-03-2020 01:19:16 6.9 C 43 %
153 09-03-2020 01:29:16 6.7 C 45 %
154 09-03-2020 01:39:16 6.8 C 43 %
155 09-03-2020 01:49:16 6.9 C 42 %
156 09-03-2020 01:59:16 6.7 C 43 %
157 09-03-2020 02:09:16 6.6 C 43 %
158 09-03-2020 02:19:16 6.4 C 44 %
159 09-03-2020 02:29:16 6.3 C 45 %
160 09-03-2020 02:39:16 6.2 C 45 %
161 09-03-2020 02:49:17 6.4 C 45 %
162 09-03-2020 02:59:17 6.4 C 44 %
163 09-03-2020 03:09:17 6.1 C 44 %
164 09-03-2020 03:19:17 6.5 C 43 %
165 09-03-2020 03:29:17 6.7 C 42 %
166 09-03-2020 03:39:17 6.4 C 42 %
167 09-03-2020 03:49:17 6.2 C 43 %
168 09-03-2020 03:59:17 6 C 44 %
169 09-03-2020 04:09:17 5.7 C 45 %
170 09-03-2020 04:19:17 5.5 C 45 %
171 09-03-2020 04:29:17 6.1 C 44 %
172 09-03-2020 04:39:18 6.3 C 43 %
173 09-03-2020 04:49:17 6.2 C 43 %
174 09-03-2020 04:59:17 6.2 C 43 %
175 09-03-2020 05:09:18 6.2 C 43 %
Sensor: Nr:Datum:Temp:Feuchte:
Aussen-T/F 176 09-03-2020 05:19:17 6 C 43 %
177 09-03-2020 05:29:17 5.8 C 44 %
178 09-03-2020 05:39:17 5.6 C 44 %
179 09-03-2020 05:49:17 5.2 C 44 %
180 09-03-2020 05:59:17 5.3 C 43 %
181 09-03-2020 06:09:17 5 C 43 %
182 09-03-2020 06:19:17 5.2 C 43 %
183 09-03-2020 06:29:17 5.1 C 43 %
184 09-03-2020 06:39:18 5.4 C 42 %
185 09-03-2020 06:49:17 5.7 C 41 %
186 09-03-2020 06:59:18 5.7 C 41 %
187 09-03-2020 07:09:18 5 C 42 %
188 09-03-2020 07:19:18 4.7 C 44 %
189 09-03-2020 07:29:18 5.7 C 42 %
190 09-03-2020 07:39:17 5.8 C 41 %
191 09-03-2020 07:49:17 5.4 C 41 %
192 09-03-2020 07:59:17 5.4 C 42 %
193 09-03-2020 08:09:17 5.4 C 42 %
194 09-03-2020 08:19:17 5 C 43 %
195 09-03-2020 08:29:17 5.3 C 43 %
196 09-03-2020 08:39:18 6.1 C 41 %
197 09-03-2020 08:49:17 6.8 C 40 %
198 09-03-2020 08:59:17 7.3 C 38 %
199 09-03-2020 09:09:17 7.4 C 38 %
200 09-03-2020 09:19:17 7.7 C 37 %
Sensor: Nr:Datum:Temp:Feuchte:
Aussen-T/F 201 09-03-2020 09:29:17 8 C 37 %
202 09-03-2020 09:39:17 8.1 C 37 %
203 09-03-2020 09:49:17 8 C 37 %
204 09-03-2020 09:59:17 7.8 C 37 %
205 09-03-2020 10:09:17 8.3 C 36 %
206 09-03-2020 10:19:17 8.2 C 36 %
207 09-03-2020 10:29:17 8.5 C 36 %
208 09-03-2020 10:39:17 8.6 C 36 %
209 09-03-2020 10:49:17 8.5 C 36 %
210 09-03-2020 10:59:17 8.1 C 36 %
211 09-03-2020 11:09:17 8.1 C 36 %
212 09-03-2020 11:19:17 8.5 C 36 %
213 09-03-2020 11:29:17 9.7 C 34 %
214 09-03-2020 11:39:17 9.1 C 34 %
215 09-03-2020 11:49:17 10.1 C 33 %
216 09-03-2020 11:59:17 10.6 C 29 %
217 09-03-2020 12:09:18 10.9 C 27 %
218 09-03-2020 12:19:18 11.2 C 25 %
219 09-03-2020 12:29:18 10.1 C 26 %
220 09-03-2020 12:39:18 10.3 C 26 %
221 09-03-2020 12:49:17 11 C 25 %
222 09-03-2020 12:59:17 10.1 C 26 %
223 09-03-2020 13:09:17 11.6 C 26 %
224 09-03-2020 13:19:17 9.8 C 29 %
225 09-03-2020 13:29:17 9.5 C 31 %
Sensor: Nr:Datum:Temp:Feuchte:
Aussen-T/F 226 09-03-2020 13:39:17 10.5 C 30 %
227 09-03-2020 13:49:17 10.4 C 29 %
228 09-03-2020 13:59:17 10.5 C 29 %
229 09-03-2020 14:09:17 11.6 C 27 %
230 09-03-2020 14:19:17 11.5 C 26 %
231 09-03-2020 14:29:17 10.4 C 27 %
232 09-03-2020 14:39:17 11.6 C 26 %
233 09-03-2020 14:49:17 12.8 C 20 %
234 09-03-2020 14:59:17 13.6 C 20 %
235 09-03-2020 15:09:18 12.6 C 20 %
236 09-03-2020 15:19:18 13 C 20 %
237 09-03-2020 15:29:18 12.9 C 20 %
238 09-03-2020 15:39:18 14.4 C 20 %
239 09-03-2020 15:49:17 14 C 20 %
240 09-03-2020 15:59:17 12.5 C 20 %
241 09-03-2020 16:09:18 11.2 C 20 %
242 09-03-2020 16:19:17 10.5 C 22 %
243 09-03-2020 16:29:17 10.7 C 23 %
244 09-03-2020 16:39:17 13.3 C 20 %
245 09-03-2020 16:49:17 14.2 C 20 %
246 09-03-2020 16:59:18 14.1 C 20 %
247 09-03-2020 17:09:18 12.2 C 20 %
248 09-03-2020 17:19:17 10.1 C 20 %
249 09-03-2020 17:29:17 9.9 C 25 %
250 09-03-2020 17:39:18 9.8 C 25 %
Sensor: Nr:Datum:Temp:Feuchte:
Aussen-T/F 251 09-03-2020 17:49:17 9.7 C 27 %
252 09-03-2020 17:59:18 9.7 C 26 %
253 09-03-2020 18:09:18 9.5 C 27 %
254 09-03-2020 18:19:17 9.2 C 28 %
255 09-03-2020 18:29:17 8.9 C 30 %
256 09-03-2020 18:39:17 8.7 C 30 %
257 09-03-2020 18:49:17 8.1 C 30 %
258 09-03-2020 18:59:17 7.7 C 32 %
259 09-03-2020 19:09:18 7.5 C 33 %
260 09-03-2020 19:19:17 7.4 C 33 %
261 09-03-2020 19:29:17 7.6 C 33 %
262 09-03-2020 19:39:17 7.4 C 34 %
263 09-03-2020 19:49:18 7.3 C 33 %
264 09-03-2020 19:59:18 7.2 C 34 %
265 09-03-2020 20:09:17 6.5 C 36 %
266 09-03-2020 20:19:17 6.9 C 35 %
267 09-03-2020 20:29:17 6.5 C 36 %
268 09-03-2020 20:39:18 6.5 C 36 %
269 09-03-2020 20:49:18 6.7 C 36 %
270 09-03-2020 20:59:18 6.8 C 35 %
271 09-03-2020 21:09:17 5.9 C 37 %
272 09-03-2020 21:19:17 5.6 C 38 %
273 09-03-2020 21:29:17 5.5 C 38 %
274 09-03-2020 21:39:17 5.4 C 38 %
275 09-03-2020 21:49:18 5.4 C 38 %
Sensor: Nr:Datum:Temp:Feuchte:
Aussen-T/F 276 09-03-2020 21:59:18 5.6 C 38 %
277 09-03-2020 22:09:18 5.4 C 38 %
278 09-03-2020 22:19:17 5.6 C 38 %
279 09-03-2020 22:29:17 5.8 C 38 %
280 09-03-2020 22:39:17 5.8 C 38 %
281 09-03-2020 22:49:17 5.4 C 38 %
282 09-03-2020 22:59:17 5.1 C 39 %
283 09-03-2020 23:09:18 5.1 C 39 %
284 09-03-2020 23:19:17 5.2 C 39 %
285 09-03-2020 23:29:17 5 C 39 %
286 09-03-2020 23:39:17 4.6 C 40 %
287 09-03-2020 23:49:17 4.6 C 41 %
288 09-03-2020 23:59:17 4.5 C 41 %
289 10-03-2020 00:09:17 4.6 C 41 %
290 10-03-2020 00:19:18 4.7 C 41 %
291 10-03-2020 00:29:18 5.1 C 40 %
292 10-03-2020 00:39:18 5.5 C 40 %
293 10-03-2020 00:49:18 5.5 C 40 %
294 10-03-2020 00:59:18 5.8 C 39 %
295 10-03-2020 01:09:18 5.8 C 39 %
296 10-03-2020 01:19:17 5.9 C 39 %
297 10-03-2020 01:29:18 6 C 38 %
298 10-03-2020 01:39:18 6.3 C 38 %
299 10-03-2020 01:49:17 6.7 C 37 %
300 10-03-2020 01:59:17 6.6 C 37 %
Sensor: Nr:Datum:Temp:Feuchte:
Aussen-T/F 301 10-03-2020 02:09:18 6.7 C 37 %
302 10-03-2020 02:19:17 6.6 C 37 %
303 10-03-2020 02:29:18 6.7 C 37 %
304 10-03-2020 02:39:18 6.8 C 37 %
305 10-03-2020 02:49:17 6.9 C 37 %
306 10-03-2020 02:59:17 7.1 C 37 %
307 10-03-2020 03:09:18 6.6 C 38 %
308 10-03-2020 03:19:18 6.5 C 38 %
309 10-03-2020 03:29:18 6.3 C 39 %
310 10-03-2020 03:39:18 6.2 C 39 %
311 10-03-2020 03:49:17 6 C 40 %
312 10-03-2020 03:59:17 6 C 40 %
313 10-03-2020 04:09:17 5.8 C 40 %
314 10-03-2020 04:19:17 5.8 C 40 %
315 10-03-2020 04:29:17 5.6 C 41 %
316 10-03-2020 04:39:17 5.9 C 40 %
317 10-03-2020 04:49:17 5.6 C 41 %
318 10-03-2020 04:59:17 5.5 C 41 %
319 10-03-2020 05:09:17 5.5 C 41 %
320 10-03-2020 05:19:17 5.2 C 41 %
321 10-03-2020 05:29:18 5.2 C 41 %
322 10-03-2020 05:39:18 5.1 C 42 %
323 10-03-2020 05:49:18 5.1 C 42 %
324 10-03-2020 05:59:18 5 C 42 %
325 10-03-2020 06:09:17 4.9 C 43 %
Sensor: Nr:Datum:Temp:Feuchte:
Aussen-T/F 326 10-03-2020 06:19:17 5 C 42 %
327 10-03-2020 06:29:17 4.9 C 43 %
328 10-03-2020 06:39:18 5 C 44 %
329 10-03-2020 06:49:17 5.1 C 43 %
330 10-03-2020 06:59:17 5 C 43 %
331 10-03-2020 07:09:18 5.1 C 42 %
332 10-03-2020 07:19:18 5.3 C 42 %
333 10-03-2020 07:29:18 5.8 C 41 %
334 10-03-2020 07:39:18 5.8 C 42 %
335 10-03-2020 07:49:18 5.7 C 41 %
336 10-03-2020 07:59:18 5.9 C 41 %
337 10-03-2020 08:09:18 6 C 41 %
338 10-03-2020 08:19:18 6 C 41 %
339 10-03-2020 08:29:18 6.3 C 41 %
340 10-03-2020 08:39:18 6.5 C 40 %
341 10-03-2020 08:49:18 6.3 C 41 %
342 10-03-2020 08:59:18 6.5 C 41 %
343 10-03-2020 09:09:17 6.6 C 41 %
344 10-03-2020 09:19:17 6.6 C 41 %
345 10-03-2020 09:29:17 6.7 C 42 %
346 10-03-2020 09:39:17 6.8 C 42 %
347 10-03-2020 09:49:17 6.9 C 42 %
348 10-03-2020 09:59:17 7.1 C 41 %
349 10-03-2020 10:09:18 7.2 C 41 %
350 10-03-2020 10:19:18 7.3 C 41 %
Sensor: Nr:Datum:Temp:Feuchte:
Aussen-T/F 351 10-03-2020 10:29:18 7.4 C 41 %
352 10-03-2020 10:39:18 7.5 C 41 %
353 10-03-2020 10:49:18 7.8 C 41 %
354 10-03-2020 10:59:18 7.9 C 41 %
355 10-03-2020 11:09:18 8.1 C 41 %
356 10-03-2020 11:19:18 8.2 C 40 %
357 10-03-2020 11:29:18 8.4 C 40 %
358 10-03-2020 11:39:18 8.5 C 41 %
359 10-03-2020 11:49:17 8.7 C 41 %
360 10-03-2020 11:59:17 8.9 C 41 %
361 10-03-2020 12:09:17 8.9 C 40 %
362 10-03-2020 12:19:17 8.9 C 41 %
363 10-03-2020 12:29:18 9 C 41 %
364 10-03-2020 12:39:18 9.1 C 41 %
365 10-03-2020 12:49:17 9.1 C 41 %
366 10-03-2020 12:59:17 9.3 C 41 %
367 10-03-2020 13:09:18 9.4 C 40 %
368 10-03-2020 13:19:17 9.5 C 41 %
369 10-03-2020 13:29:18 9.5 C 41 %
370 10-03-2020 13:39:18 9.5 C 41 %
371 10-03-2020 13:49:17 9.7 C 41 %
372 10-03-2020 13:59:18 9.8 C 41 %
373 10-03-2020 14:09:18 9.9 C 41 %
374 10-03-2020 14:19:18 10.2 C 40 %
375 10-03-2020 14:29:18 10.5 C 40 %
Sensor: Nr:Datum:Temp:Feuchte:
Aussen-T/F 376 10-03-2020 14:39:18 10.8 C 40 %
377 10-03-2020 14:49:17 10.9 C 40 %
378 10-03-2020 14:59:17 11.3 C 38 %
379 10-03-2020 15:09:18 11.3 C 38 %
380 10-03-2020 15:19:18 11.4 C 38 %
381 10-03-2020 15:29:18 11.8 C 38 %
382 10-03-2020 15:39:18 12.3 C 37 %
383 10-03-2020 15:49:17 12.3 C 36 %
384 10-03-2020 15:59:18 12.5 C 37 %
385 10-03-2020 16:09:18 13 C 35 %
386 10-03-2020 16:19:18 12.6 C 36 %
387 10-03-2020 16:29:18 12.5 C 37 %
388 10-03-2020 16:39:18 12.4 C 37 %
389 10-03-2020 16:49:17 12.5 C 37 %
390 10-03-2020 16:59:18 12.5 C 37 %
391 10-03-2020 17:09:18 12.7 C 37 %
392 10-03-2020 17:19:17 12.6 C 37 %
393 10-03-2020 17:29:18 12.7 C 37 %
394 10-03-2020 17:39:18 12.6 C 37 %
395 10-03-2020 17:49:17 12.5 C 37 %
396 10-03-2020 17:59:18 12.5 C 38 %
397 10-03-2020 18:09:18 12.3 C 38 %
398 10-03-2020 18:19:17 12.3 C 38 %
399 10-03-2020 18:29:18 12.3 C 38 %
400 10-03-2020 18:39:18 12.5 C 38 %
Sensor: Nr:Datum:Temp:Feuchte:
Aussen-T/F 401 10-03-2020 18:49:17 12.4 C 38 %
402 10-03-2020 18:59:17 12.3 C 38 %
403 10-03-2020 19:09:18 12.5 C 38 %
404 10-03-2020 19:19:17 12.3 C 38 %
405 10-03-2020 19:29:17 12.4 C 38 %
406 10-03-2020 19:39:17 12.5 C 38 %
407 10-03-2020 19:49:17 12.5 C 38 %
408 10-03-2020 19:59:17 12.5 C 38 %
409 10-03-2020 20:09:17 12.5 C 38 %
410 10-03-2020 20:19:17 12.7 C 38 %
411 10-03-2020 20:29:18 12.8 C 38 %
412 10-03-2020 20:39:18 12.8 C 38 %
413 10-03-2020 20:49:17 12.9 C 38 %
414 10-03-2020 20:59:17 13.1 C 37 %
415 10-03-2020 21:09:18 12.8 C 38 %
416 10-03-2020 21:19:17 13.2 C 37 %
417 10-03-2020 21:29:18 13.2 C 37 %
418 10-03-2020 21:39:18 13.2 C 37 %
419 10-03-2020 21:49:17 13.2 C 37 %
420 10-03-2020 21:59:18 13.1 C 37 %
421 10-03-2020 22:09:18 12.8 C 39 %
422 10-03-2020 22:19:18 12.5 C 40 %
423 10-03-2020 22:29:18 12.5 C 40 %
424 10-03-2020 22:39:18 12.7 C 40 %
425 10-03-2020 22:49:17 12.5 C 40 %
Sensor: Nr:Datum:Temp:Feuchte:
Aussen-T/F 426 10-03-2020 22:59:17 12.5 C 40 %
427 10-03-2020 23:09:18 12.8 C 40 %
428 10-03-2020 23:19:18 12.8 C 39 %
429 10-03-2020 23:29:18 12.8 C 39 %
430 10-03-2020 23:39:18 12.8 C 39 %
431 10-03-2020 23:49:17 12.9 C 39 %
432 10-03-2020 23:59:17 13.1 C 37 %
433 11-03-2020 00:09:17 13.5 C 36 %
434 11-03-2020 00:19:17 13.5 C 36 %
435 11-03-2020 00:29:17 13.6 C 36 %
436 11-03-2020 00:39:18 13.7 C 36 %
437 11-03-2020 00:49:17 13.7 C 36 %
438 11-03-2020 00:59:17 13.7 C 36 %
439 11-03-2020 01:09:17 13.5 C 36 %
440 11-03-2020 01:19:17 13.4 C 37 %
441 11-03-2020 01:29:17 13.4 C 37 %
442 11-03-2020 01:39:17 13.3 C 37 %
443 11-03-2020 01:49:17 13 C 38 %
444 11-03-2020 01:59:17 12.9 C 39 %
445 11-03-2020 02:09:17 13.2 C 38 %
446 11-03-2020 02:19:17 13.1 C 38 %
447 11-03-2020 02:29:17 13.1 C 38 %
448 11-03-2020 02:39:17 13.2 C 37 %
449 11-03-2020 02:49:17 13.4 C 37 %
450 11-03-2020 02:59:17 13.5 C 37 %
Sensor: Nr:Datum:Temp:Feuchte:
Aussen-T/F 451 11-03-2020 03:09:17 13.1 C 37 %
452 11-03-2020 03:19:18 13 C 38 %
453 11-03-2020 03:29:18 13.2 C 37 %
454 11-03-2020 03:39:18 13.4 C 37 %
455 11-03-2020 03:49:17 13.5 C 37 %
456 11-03-2020 03:59:18 13.4 C 37 %
457 11-03-2020 04:09:18 13.4 C 37 %
458 11-03-2020 04:19:18 13.4 C 37 %
459 11-03-2020 04:29:18 13.4 C 37 %
460 11-03-2020 04:39:17 13.4 C 37 %
461 11-03-2020 04:49:17 13.5 C 36 %
462 11-03-2020 04:59:17 13.4 C 37 %
463 11-03-2020 05:09:17 13.1 C 37 %
464 11-03-2020 05:19:17 13.1 C 37 %
465 11-03-2020 05:29:17 13.1 C 37 %
466 11-03-2020 05:39:17 13.1 C 37 %
467 11-03-2020 05:49:18 13 C 37 %
468 11-03-2020 05:59:18 12.9 C 38 %
469 11-03-2020 06:09:18 13.1 C 37 %
470 11-03-2020 06:19:17 13.2 C 37 %
471 11-03-2020 06:29:17 13.2 C 36 %
472 11-03-2020 06:39:18 13.2 C 36 %
473 11-03-2020 06:49:17 13.6 C 36 %
474 11-03-2020 06:59:17 13.4 C 36 %
475 11-03-2020 07:09:17 13.2 C 36 %
Sensor: Nr:Datum:Temp:Feuchte:
Aussen-T/F 476 11-03-2020 07:19:17 13.1 C 36 %
477 11-03-2020 07:29:17 13.1 C 36 %
478 11-03-2020 07:39:17 13.1 C 36 %
479 11-03-2020 07:49:17 13.1 C 36 %
480 11-03-2020 07:59:18 12.9 C 37 %
481 11-03-2020 08:09:18 12.8 C 37 %
482 11-03-2020 08:19:18 12.6 C 37 %
483 11-03-2020 08:29:18 12.6 C 37 %
484 11-03-2020 08:39:18 12.7 C 37 %
485 11-03-2020 08:49:18 12.8 C 37 %
486 11-03-2020 08:59:18 12.7 C 37 %
487 11-03-2020 09:09:18 13 C 36 %
488 11-03-2020 09:19:18 13.2 C 36 %
489 11-03-2020 09:29:18 13.6 C 36 %
490 11-03-2020 09:39:18 13.8 C 36 %
491 11-03-2020 09:49:18 14 C 35 %
492 11-03-2020 09:59:18 13.9 C 35 %
493 11-03-2020 10:09:18 13.7 C 36 %
494 11-03-2020 10:19:17 13.8 C 36 %
495 11-03-2020 10:29:17 14 C 35 %
496 11-03-2020 10:39:18 14.3 C 35 %
497 11-03-2020 10:49:18 14.4 C 35 %
498 11-03-2020 10:59:18 14.5 C 35 %
499 11-03-2020 11:09:17 14.9 C 35 %
500 11-03-2020 11:19:17 14.6 C 35 %
Sensor: Nr:Datum:Temp:Feuchte:
Aussen-T/F 501 11-03-2020 11:29:17 15.8 C 33 %
502 11-03-2020 11:39:17 15.8 C 33 %
503 11-03-2020 11:49:17 15.6 C 33 %
504 11-03-2020 11:59:17 15.9 C 33 %
505 11-03-2020 12:09:18 15.9 C 33 %
506 11-03-2020 12:19:18 16.4 C 32 %
507 11-03-2020 12:29:18 16.5 C 32 %
508 11-03-2020 12:39:18 16.3 C 32 %
509 11-03-2020 12:49:18 16.5 C 32 %
510 11-03-2020 12:59:18 16.3 C 32 %
511 11-03-2020 13:09:17 16 C 32 %
512 11-03-2020 13:19:17 17 C 31 %
513 11-03-2020 13:29:17 16.8 C 31 %
514 11-03-2020 13:39:17 17.7 C 31 %
515 11-03-2020 13:49:17 15.8 C 32 %
516 11-03-2020 13:59:17 16.1 C 31 %
517 11-03-2020 14:09:17 16.3 C 31 %
518 11-03-2020 14:19:17 16.1 C 31 %
519 11-03-2020 14:29:17 16.6 C 31 %
520 11-03-2020 14:39:17 15.7 C 31 %
521 11-03-2020 14:49:17 16.2 C 31 %
522 11-03-2020 14:59:17 15.8 C 31 %
523 11-03-2020 15:09:17 16.5 C 31 %
524 11-03-2020 15:19:17 15.6 C 32 %
525 11-03-2020 15:29:18 16.4 C 31 %
Sensor: Nr:Datum:Temp:Feuchte:
Aussen-T/F 526 11-03-2020 15:39:18 17.5 C 30 %
527 11-03-2020 15:49:17 15.1 C 32 %
528 11-03-2020 15:59:17 15.6 C 33 %
529 11-03-2020 16:09:18 15 C 33 %
530 11-03-2020 16:19:18 14.7 C 35 %
531 11-03-2020 16:29:18 15.1 C 34 %
532 11-03-2020 16:39:17 14.5 C 35 %
533 11-03-2020 16:49:18 14.5 C 35 %
534 11-03-2020 16:59:18 14.5 C 34 %
535 11-03-2020 17:09:18 14.1 C 35 %
536 11-03-2020 17:19:18 14 C 35 %
537 11-03-2020 17:29:18 13.2 C 38 %
538 11-03-2020 17:39:17 13.2 C 38 %
539 11-03-2020 17:49:18 13.2 C 38 %
540 11-03-2020 17:59:18 13.4 C 37 %
541 11-03-2020 18:09:18 13.5 C 37 %
542 11-03-2020 18:19:17 13.5 C 36 %
543 11-03-2020 18:29:17 13.3 C 36 %
544 11-03-2020 18:39:17 13.4 C 36 %
545 11-03-2020 18:49:17 13.5 C 36 %
546 11-03-2020 18:59:17 13.4 C 36 %
547 11-03-2020 19:09:17 13.2 C 37 %
548 11-03-2020 19:19:17 13.1 C 37 %
549 11-03-2020 19:29:17 13.1 C 37 %
550 11-03-2020 19:39:18 13.4 C 36 %
Sensor: Nr:Datum:Temp:Feuchte:
Aussen-T/F 551 11-03-2020 19:49:17 13.3 C 36 %
552 11-03-2020 19:59:17 13.2 C 36 %
553 11-03-2020 20:09:17 13.4 C 36 %
554 11-03-2020 20:19:17 13.6 C 36 %
555 11-03-2020 20:29:18 13.6 C 36 %
556 11-03-2020 20:39:18 13.6 C 36 %
557 11-03-2020 20:49:17 13.5 C 36 %
558 11-03-2020 20:59:17 13.3 C 36 %
559 11-03-2020 21:09:18 13.2 C 36 %
560 11-03-2020 21:19:17 13.4 C 36 %
561 11-03-2020 21:29:17 13.5 C 36 %
562 11-03-2020 21:39:18 13.7 C 36 %
563 11-03-2020 21:49:17 14 C 35 %
564 11-03-2020 21:59:17 14 C 35 %
565 11-03-2020 22:09:18 14.1 C 34 %
566 11-03-2020 22:19:18 14 C 34 %
567 11-03-2020 22:29:18 13.9 C 35 %
568 11-03-2020 22:39:17 13.9 C 35 %
569 11-03-2020 22:49:18 13.8 C 35 %
570 11-03-2020 22:59:18 13.8 C 35 %
571 11-03-2020 23:09:18 13.8 C 34 %
572 11-03-2020 23:19:18 13.9 C 34 %
573 11-03-2020 23:29:18 13.8 C 34 %
574 11-03-2020 23:39:17 13.8 C 34 %
575 11-03-2020 23:49:17 13.8 C 34 %
Sensor: Nr:Datum:Temp:Feuchte:
Aussen-T/F 576 11-03-2020 23:59:17 13.7 C 34 %
577 12-03-2020 00:09:17 13.6 C 34 %
578 12-03-2020 00:19:17 13.6 C 34 %
579 12-03-2020 00:29:17 13.6 C 34 %
580 12-03-2020 00:39:18 13.7 C 34 %
581 12-03-2020 00:49:17 13.8 C 34 %
582 12-03-2020 00:59:17 13.9 C 34 %
583 12-03-2020 01:09:18 13.9 C 34 %
584 12-03-2020 01:19:17 13.8 C 34 %
585 12-03-2020 01:29:17 13.9 C 34 %
586 12-03-2020 01:39:18 13.8 C 34 %
587 12-03-2020 01:49:17 13.7 C 34 %
588 12-03-2020 01:59:17 13.8 C 34 %
589 12-03-2020 02:09:18 13.7 C 34 %
590 12-03-2020 02:19:17 13.7 C 34 %
591 12-03-2020 02:29:18 13.6 C 34 %
592 12-03-2020 02:39:18 13.6 C 33 %
593 12-03-2020 02:49:18 13.6 C 33 %
594 12-03-2020 02:59:18 13.5 C 33 %
595 12-03-2020 03:09:18 13.5 C 33 %
596 12-03-2020 03:19:18 13.5 C 32 %
597 12-03-2020 03:29:18 13.5 C 32 %
598 12-03-2020 03:39:17 13.4 C 32 %
599 12-03-2020 03:49:17 13.2 C 32 %
600 12-03-2020 03:59:17 13.1 C 32 %
Sensor: Nr:Datum:Temp:Feuchte:
Aussen-T/F 601 12-03-2020 04:09:17 13.1 C 32 %
602 12-03-2020 04:19:17 13.1 C 32 %
603 12-03-2020 04:29:17 13 C 32 %
604 12-03-2020 04:39:17 13 C 32 %
605 12-03-2020 04:49:17 13 C 32 %
606 12-03-2020 04:59:17 13 C 32 %
607 12-03-2020 05:09:17 12.7 C 33 %
608 12-03-2020 05:19:17 12.7 C 33 %
609 12-03-2020 05:29:17 12.6 C 34 %
610 12-03-2020 05:39:18 12.5 C 34 %
611 12-03-2020 05:49:17 12.5 C 34 %
612 12-03-2020 05:59:17 12.3 C 34 %
613 12-03-2020 06:09:18 12.2 C 34 %
614 12-03-2020 06:19:18 12.1 C 34 %
615 12-03-2020 06:29:18 12 C 34 %
616 12-03-2020 06:39:18 12 C 35 %
617 12-03-2020 06:49:17 12 C 35 %
618 12-03-2020 06:59:17 11.9 C 35 %
619 12-03-2020 07:09:18 11.9 C 35 %
620 12-03-2020 07:19:18 12 C 35 %
621 12-03-2020 07:29:18 12 C 35 %
622 12-03-2020 07:39:18 12 C 35 %
623 12-03-2020 07:49:17 11.2 C 38 %
624 12-03-2020 07:59:17 11 C 39 %
625 12-03-2020 08:09:18 10.8 C 41 %
Sensor: Nr:Datum:Temp:Feuchte:
Aussen-T/F 626 12-03-2020 08:19:18 10.7 C 42 %
627 12-03-2020 08:29:18 10.4 C 40 %
628 12-03-2020 08:39:18 10.1 C 39 %
629 12-03-2020 08:49:17 10.4 C 38 %
630 12-03-2020 08:59:17 10.2 C 38 %
631 12-03-2020 09:09:18 10.4 C 38 %
632 12-03-2020 09:19:17 10.5 C 37 %
633 12-03-2020 09:29:17 10.9 C 36 %
634 12-03-2020 09:39:17 10.8 C 36 %
635 12-03-2020 09:49:18 11 C 36 %
636 12-03-2020 09:59:18 11.5 C 35 %
637 12-03-2020 10:09:18 11.7 C 34 %
638 12-03-2020 10:19:17 11.5 C 34 %
639 12-03-2020 10:29:17 11.5 C 34 %
640 12-03-2020 10:39:17 11.8 C 33 %
641 12-03-2020 10:49:17 11.3 C 33 %
642 12-03-2020 10:59:17 11.3 C 32 %
643 12-03-2020 11:09:18 11.6 C 28 %
644 12-03-2020 11:19:17 11.5 C 27 %
645 12-03-2020 11:29:17 11.7 C 26 %
646 12-03-2020 11:39:17 11.9 C 23 %
647 12-03-2020 11:49:18 11.9 C 20 %
648 12-03-2020 11:59:18 12.3 C 20 %
649 12-03-2020 12:09:18 12.2 C 20 %
650 12-03-2020 12:19:18 12.4 C 20 %
Sensor: Nr:Datum:Temp:Feuchte:
Aussen-T/F 651 12-03-2020 12:29:18 12.8 C 20 %
652 12-03-2020 12:39:17 12.4 C 20 %
653 12-03-2020 12:49:17 12.1 C 20 %
654 12-03-2020 12:59:18 12 C 20 %
655 12-03-2020 13:09:18 12.2 C 20 %
656 12-03-2020 13:19:17 12.3 C 20 %
657 12-03-2020 13:29:17 12.3 C 20 %
658 12-03-2020 13:39:17 12.7 C 20 %
659 12-03-2020 13:49:17 12.5 C 20 %
660 12-03-2020 13:59:17 12.4 C 20 %
661 12-03-2020 14:09:17 12.2 C 20 %
662 12-03-2020 14:19:17 12.2 C 20 %
663 12-03-2020 14:29:18 12.2 C 20 %
664 12-03-2020 14:39:18 13.4 C 20 %
665 12-03-2020 14:49:17 13 C 20 %
666 12-03-2020 14:59:17 11.8 C 20 %
667 12-03-2020 15:09:17 11.9 C 20 %
668 12-03-2020 15:19:17 11.8 C 20 %
669 12-03-2020 15:29:18 11.9 C 20 %
670 12-03-2020 15:39:18 11.8 C 20 %
671 12-03-2020 15:49:17 11.7 C 20 %
672 12-03-2020 15:59:18 11.6 C 20 %
673 12-03-2020 16:09:18 11.5 C 20 %
674 12-03-2020 16:19:18 11.7 C 20 %
675 12-03-2020 16:29:18 11.7 C 20 %
Sensor: Nr:Datum:Temp:Feuchte:
Aussen-T/F 676 12-03-2020 16:39:18 12.4 C 20 %
677 12-03-2020 16:49:17 11.8 C 20 %
678 12-03-2020 16:59:17 11.5 C 20 %
679 12-03-2020 17:09:17 11.5 C 20 %
680 12-03-2020 17:19:17 11.5 C 20 %
681 12-03-2020 17:29:17 11.2 C 20 %
682 12-03-2020 17:39:18 10.9 C 20 %
683 12-03-2020 17:49:17 11 C 20 %
684 12-03-2020 17:59:18 10.8 C 22 %
685 12-03-2020 18:09:18 10.3 C 25 %
686 12-03-2020 18:19:18 9.8 C 27 %
687 12-03-2020 18:29:18 9.3 C 30 %
688 12-03-2020 18:39:17 8.7 C 31 %
689 12-03-2020 18:49:17 7.9 C 33 %
690 12-03-2020 18:59:17 7.6 C 35 %
691 12-03-2020 19:09:17 7.5 C 34 %
692 12-03-2020 19:19:17 7 C 35 %
693 12-03-2020 19:29:17 6.6 C 36 %
694 12-03-2020 19:39:17 6.5 C 36 %
695 12-03-2020 19:49:17 7.1 C 35 %
696 12-03-2020 19:59:17 6.8 C 35 %
697 12-03-2020 20:09:17 7.6 C 35 %
698 12-03-2020 20:19:17 7.3 C 35 %
699 12-03-2020 20:29:17 6.8 C 35 %
700 12-03-2020 20:39:17 6.8 C 36 %
Sensor: Nr:Datum:Temp:Feuchte:
Aussen-T/F 701 12-03-2020 20:49:17 6.4 C 36 %
702 12-03-2020 20:59:17 6.7 C 36 %
703 12-03-2020 21:09:17 6.3 C 36 %
704 12-03-2020 21:19:17 7.2 C 35 %
705 12-03-2020 21:29:17 7.6 C 35 %
706 12-03-2020 21:39:18 7.4 C 35 %
707 12-03-2020 21:49:17 7.4 C 35 %
708 12-03-2020 21:59:17 7.6 C 35 %
709 12-03-2020 22:09:18 7.6 C 35 %
710 12-03-2020 22:19:18 7.1 C 35 %
711 12-03-2020 22:29:18 7.2 C 35 %
712 12-03-2020 22:39:18 7.5 C 35 %
713 12-03-2020 22:49:17 7.6 C 35 %
714 12-03-2020 22:59:17 7.3 C 35 %
715 12-03-2020 23:09:17 7.2 C 35 %
716 12-03-2020 23:19:17 7 C 35 %
717 12-03-2020 23:29:18 6.2 C 35 %
718 12-03-2020 23:39:18 6.7 C 34 %
719 12-03-2020 23:49:17 6.5 C 34 %
720 12-03-2020 23:59:17 6.4 C 32 %
721 13-03-2020 00:09:17 6.5 C 32 %
722 13-03-2020 00:19:17 6.5 C 32 %
723 13-03-2020 00:29:17 6.1 C 32 %
724 13-03-2020 00:39:17 6.2 C 32 %
725 13-03-2020 00:49:17 6 C 32 %
Sensor: Nr:Datum:Temp:Feuchte:
Aussen-T/F 726 13-03-2020 00:59:17 5.9 C 33 %
727 13-03-2020 01:09:17 5.4 C 33 %
728 13-03-2020 01:19:17 5.4 C 33 %
729 13-03-2020 01:29:17 5.1 C 34 %
730 13-03-2020 01:39:17 5.2 C 34 %
731 13-03-2020 01:49:17 5.2 C 33 %
732 13-03-2020 01:59:17 5.2 C 33 %
733 13-03-2020 02:09:17 4.8 C 35 %
734 13-03-2020 02:19:17 5 C 34 %
735 13-03-2020 02:29:17 5.1 C 34 %
736 13-03-2020 02:39:18 5.1 C 34 %
737 13-03-2020 02:49:17 5.1 C 34 %
738 13-03-2020 02:59:17 5.1 C 34 %
739 13-03-2020 03:09:17 5 C 34 %
740 13-03-2020 03:19:17 5.2 C 34 %
741 13-03-2020 03:29:17 5.2 C 34 %
742 13-03-2020 03:39:18 5.1 C 34 %
743 13-03-2020 03:49:17 5.1 C 34 %
744 13-03-2020 03:59:17 5.2 C 34 %
745 13-03-2020 04:09:17 5 C 34 %
746 13-03-2020 04:19:17 4.9 C 35 %
747 13-03-2020 04:29:17 5.1 C 35 %
748 13-03-2020 04:39:17 5.1 C 35 %
749 13-03-2020 04:49:17 5 C 34 %
750 13-03-2020 04:59:17 5.2 C 34 %
Sensor: Nr:Datum:Temp:Feuchte:
Aussen-T/F 751 13-03-2020 05:09:17 5.2 C 34 %
752 13-03-2020 05:19:17 5.6 C 34 %
753 13-03-2020 05:29:17 5.4 C 34 %
754 13-03-2020 05:39:17 5.4 C 34 %
755 13-03-2020 05:49:18 5.4 C 34 %
756 13-03-2020 05:59:18 5.4 C 34 %
757 13-03-2020 06:09:18 5.6 C 34 %
758 13-03-2020 06:19:17 5.7 C 34 %
759 13-03-2020 06:29:17 5.4 C 34 %
760 13-03-2020 06:39:17 5.4 C 35 %
761 13-03-2020 06:49:17 5.3 C 34 %
762 13-03-2020 06:59:17 5.4 C 35 %
763 13-03-2020 07:09:17 5.3 C 35 %
764 13-03-2020 07:19:17 5.4 C 35 %
765 13-03-2020 07:29:17 5.6 C 35 %
766 13-03-2020 07:39:17 5.7 C 35 %
767 13-03-2020 07:49:18 5.7 C 35 %
768 13-03-2020 07:59:18 5.7 C 35 %
769 13-03-2020 08:09:17 5.8 C 35 %
770 13-03-2020 08:19:17 6 C 35 %
771 13-03-2020 08:29:17 5.9 C 35 %
772 13-03-2020 08:39:18 6 C 35 %
773 13-03-2020 08:49:17 6.2 C 35 %
774 13-03-2020 08:59:17 6.4 C 34 %
775 13-03-2020 09:09:17 6.5 C 35 %
Sensor: Nr:Datum:Temp:Feuchte:
Aussen-T/F 776 13-03-2020 09:19:17 6.9 C 34 %
777 13-03-2020 09:29:17 7.1 C 33 %
778 13-03-2020 09:39:18 7.1 C 33 %
779 13-03-2020 09:49:17 6.6 C 34 %
780 13-03-2020 09:59:17 7.1 C 33 %
781 13-03-2020 10:09:18 7.5 C 33 %
782 13-03-2020 10:19:17 8.5 C 32 %
783 13-03-2020 10:29:17 8.1 C 32 %
784 13-03-2020 10:39:18 8 C 32 %
785 13-03-2020 10:49:17 7.6 C 33 %
786 13-03-2020 10:59:17 7.4 C 35 %
787 13-03-2020 11:09:17 8.9 C 33 %
788 13-03-2020 11:19:17 9.1 C 31 %
789 13-03-2020 11:29:17 8 C 32 %
790 13-03-2020 11:39:17 7.3 C 35 %
791 13-03-2020 11:49:18 7.4 C 35 %
792 13-03-2020 11:59:18 8.2 C 33 %
793 13-03-2020 12:09:18 8.9 C 32 %
794 13-03-2020 12:19:18 9.7 C 29 %
795 13-03-2020 12:29:18 9 C 30 %
796 13-03-2020 12:39:18 9.6 C 30 %
797 13-03-2020 12:49:18 9 C 31 %
798 13-03-2020 12:59:18 8.8 C 31 %
799 13-03-2020 13:09:18 8.4 C 32 %
800 13-03-2020 13:19:18 8.6 C 33 %
Sensor: Nr:Datum:Temp:Feuchte:
Aussen-T/F 801 13-03-2020 13:29:18 9.5 C 31 %
802 13-03-2020 13:39:18 9.9 C 30 %
803 13-03-2020 13:49:17 9.7 C 30 %
804 13-03-2020 13:59:17 9.6 C 30 %
805 13-03-2020 14:09:18 9.3 C 30 %
806 13-03-2020 14:19:18 9.4 C 30 %
807 13-03-2020 14:29:18 8.9 C 32 %
808 13-03-2020 14:39:18 9.5 C 31 %
809 13-03-2020 14:49:18 10.3 C 28 %
810 13-03-2020 14:59:18 10.1 C 28 %
811 13-03-2020 15:09:18 9.5 C 29 %
812 13-03-2020 15:19:17 9.3 C 29 %
813 13-03-2020 15:29:17 10.1 C 27 %
814 13-03-2020 15:39:18 10.4 C 26 %
815 13-03-2020 15:49:18 10.4 C 26 %
816 13-03-2020 15:59:18 10.1 C 27 %
817 13-03-2020 16:09:18 10 C 27 %
818 13-03-2020 16:19:17 9.8 C 27 %
819 13-03-2020 16:29:17 9.1 C 29 %
820 13-03-2020 16:39:17 9 C 30 %
821 13-03-2020 16:49:17 10 C 27 %
822 13-03-2020 16:59:17 9.3 C 30 %
823 13-03-2020 17:09:17 9.1 C 30 %
824 13-03-2020 17:19:18 9.1 C 30 %
825 13-03-2020 17:29:18 9.3 C 30 %
Sensor: Nr:Datum:Temp:Feuchte:
Aussen-T/F 826 13-03-2020 17:39:17 9.4 C 29 %
827 13-03-2020 17:49:18 9.5 C 30 %
828 13-03-2020 17:59:18 9.1 C 31 %
829 13-03-2020 18:09:18 8.7 C 31 %
830 13-03-2020 18:19:17 8.6 C 31 %
831 13-03-2020 18:29:17 8.4 C 31 %
832 13-03-2020 18:39:17 8.2 C 31 %
833 13-03-2020 18:49:17 8.1 C 32 %
834 13-03-2020 18:59:17 8 C 32 %
835 13-03-2020 19:09:17 7.8 C 33 %
836 13-03-2020 19:19:17 7.3 C 35 %
837 13-03-2020 19:29:17 7.3 C 35 %
838 13-03-2020 19:39:18 7.3 C 35 %
839 13-03-2020 19:49:17 7.3 C 35 %
840 13-03-2020 19:59:18 7 C 35 %
841 13-03-2020 20:09:18 6.7 C 36 %
842 13-03-2020 20:19:17 6.7 C 36 %
843 13-03-2020 20:29:17 6.9 C 36 %
844 13-03-2020 20:39:17 6.4 C 36 %
845 13-03-2020 20:49:17 6.3 C 37 %
846 13-03-2020 20:59:17 6.2 C 37 %
847 13-03-2020 21:09:18 5.8 C 38 %
848 13-03-2020 21:19:18 5.8 C 38 %
849 13-03-2020 21:29:18 5.8 C 38 %
850 13-03-2020 21:39:18 6.2 C 37 %
Sensor: Nr:Datum:Temp:Feuchte:
Aussen-T/F 851 13-03-2020 21:49:17 5.7 C 38 %
852 13-03-2020 21:59:17 5.8 C 38 %
853 13-03-2020 22:09:18 5.4 C 39 %
854 13-03-2020 22:19:17 5.6 C 39 %
855 13-03-2020 22:29:18 5.4 C 39 %
856 13-03-2020 22:39:18 5.5 C 40 %
857 13-03-2020 22:49:17 5.7 C 39 %
858 13-03-2020 22:59:17 5.8 C 39 %
859 13-03-2020 23:09:18 5.6 C 39 %
860 13-03-2020 23:19:17 5.6 C 39 %
861 13-03-2020 23:29:17 5.5 C 40 %
862 13-03-2020 23:39:17 5.4 C 40 %
863 13-03-2020 23:49:17 5.4 C 40 %
864 13-03-2020 23:59:17 4.8 C 41 %
865 14-03-2020 00:09:17 4.8 C 41 %
866 14-03-2020 00:19:18 4.6 C 41 %
867 14-03-2020 00:29:18 4.4 C 41 %
868 14-03-2020 00:39:18 3.7 C 42 %
869 14-03-2020 00:49:17 3.5 C 44 %
870 14-03-2020 00:59:17 3 C 43 %
871 14-03-2020 01:09:18 2.6 C 45 %
872 14-03-2020 01:19:17 2.4 C 46 %
873 14-03-2020 01:29:18 2 C 45 %
874 14-03-2020 01:39:18 2 C 46 %
875 14-03-2020 01:49:17 2.4 C 48 %
Sensor: Nr:Datum:Temp:Feuchte:
Aussen-T/F 876 14-03-2020 01:59:18 2.8 C 49 %
877 14-03-2020 02:09:18 3.3 C 47 %
878 14-03-2020 02:19:18 3.6 C 46 %
879 14-03-2020 02:29:18 3.3 C 45 %
880 14-03-2020 02:39:18 3 C 45 %
881 14-03-2020 02:49:18 2.8 C 45 %
882 14-03-2020 02:59:18 2.3 C 46 %
883 14-03-2020 03:09:18 2.2 C 46 %
884 14-03-2020 03:19:17 1.5 C 47 %
885 14-03-2020 03:29:17 1.3 C 47 %
886 14-03-2020 03:39:17 1.4 C 48 %
887 14-03-2020 03:49:18 1.5 C 48 %
888 14-03-2020 03:59:18 1.5 C 49 %
889 14-03-2020 04:09:17 1.7 C 49 %
890 14-03-2020 04:19:17 1.6 C 48 %
891 14-03-2020 04:29:17 1.6 C 49 %
892 14-03-2020 04:39:17 1.5 C 48 %
893 14-03-2020 04:49:17 1.3 C 48 %
894 14-03-2020 04:59:17 1.3 C 48 %
895 14-03-2020 05:09:17 1.3 C 49 %
896 14-03-2020 05:19:17 1.1 C 48 %
897 14-03-2020 05:29:17 0.8 C 49 %
898 14-03-2020 05:39:18 0.9 C 50 %
899 14-03-2020 05:49:17 1.3 C 49 %
900 14-03-2020 05:59:17 0.5 C 49 %
Sensor: Nr:Datum:Temp:Feuchte:
Aussen-T/F 901 14-03-2020 06:09:18 0.3 C 49 %
902 14-03-2020 06:19:18 0.6 C 50 %
903 14-03-2020 06:29:18 0.4 C 49 %
904 14-03-2020 06:39:18 0.4 C 50 %
905 14-03-2020 06:49:17 0.8 C 50 %
906 14-03-2020 06:59:17 0.8 C 50 %
907 14-03-2020 07:09:17 0.7 C 50 %
908 14-03-2020 07:19:17 0.8 C 50 %
909 14-03-2020 07:29:17 0.6 C 49 %
910 14-03-2020 07:39:18 0.6 C 49 %
911 14-03-2020 07:49:17 0.8 C 49 %
912 14-03-2020 07:59:17 0.8 C 50 %
913 14-03-2020 08:09:17 1 C 48 %
914 14-03-2020 08:19:17 1.4 C 49 %
915 14-03-2020 08:29:17 1.7 C 49 %
916 14-03-2020 08:39:18 1.9 C 49 %
917 14-03-2020 08:49:17 2.2 C 48 %
918 14-03-2020 08:59:17 2.5 C 48 %
919 14-03-2020 09:09:17 2.8 C 48 %
920 14-03-2020 09:19:17 3.4 C 46 %
921 14-03-2020 09:29:17 3.7 C 45 %
922 14-03-2020 09:39:18 4.1 C 43 %
923 14-03-2020 09:49:17 4.5 C 43 %
924 14-03-2020 09:59:17 5 C 41 %
925 14-03-2020 10:09:18 5.7 C 41 %
Sensor: Nr:Datum:Temp:Feuchte:
Aussen-T/F 926 14-03-2020 10:19:18 6 C 39 %
927 14-03-2020 10:29:18 6.8 C 40 %
928 14-03-2020 10:39:18 7.7 C 38 %
929 14-03-2020 10:49:17 7.7 C 37 %
930 14-03-2020 10:59:17 8.4 C 36 %
931 14-03-2020 11:09:18 9 C 35 %
932 14-03-2020 11:19:18 10.4 C 34 %
933 14-03-2020 11:29:18 11 C 31 %
934 14-03-2020 11:39:18 10.4 C 31 %
935 14-03-2020 11:49:17 10.1 C 32 %
936 14-03-2020 11:59:17 11.3 C 31 %
937 14-03-2020 12:09:18 13 C 27 %
938 14-03-2020 12:19:17 12.4 C 27 %
939 14-03-2020 12:29:18 12 C 27 %
940 14-03-2020 12:39:18 11.3 C 28 %
941 14-03-2020 12:49:17 11.5 C 28 %
942 14-03-2020 12:59:17 13.1 C 26 %
943 14-03-2020 13:09:18 12.9 C 25 %
944 14-03-2020 13:19:17 13 C 22 %
945 14-03-2020 13:29:17 13.3 C 23 %
946 14-03-2020 13:39:17 12.5 C 22 %
947 14-03-2020 13:49:17 12.4 C 22 %
948 14-03-2020 13:59:17 13.8 C 21 %
949 14-03-2020 14:09:18 12.3 C 22 %
950 14-03-2020 14:19:17 12.5 C 21 %
Sensor: Nr:Datum:Temp:Feuchte:
Aussen-T/F 951 14-03-2020 14:29:17 14 C 20 %
952 14-03-2020 14:39:17 13.7 C 20 %
953 14-03-2020 14:49:18 12.3 C 20 %
954 14-03-2020 14:59:18 11.6 C 23 %
955 14-03-2020 15:09:18 11.4 C 22 %
956 14-03-2020 15:19:17 12.1 C 21 %
957 14-03-2020 15:29:17 12.1 C 20 %
958 14-03-2020 15:39:18 11.7 C 21 %
959 14-03-2020 15:49:17 12 C 20 %
960 14-03-2020 15:59:17 11.8 C 21 %
961 14-03-2020 16:09:18 11.2 C 23 %
962 14-03-2020 16:19:17 10.6 C 25 %
963 14-03-2020 16:29:17 10.4 C 26 %
964 14-03-2020 16:39:18 9.9 C 26 %
965 14-03-2020 16:49:18 10.1 C 26 %
966 14-03-2020 16:59:18 9.8 C 27 %
967 14-03-2020 17:09:18 10.3 C 26 %
968 14-03-2020 17:19:17 10.3 C 26 %
969 14-03-2020 17:29:17 10.7 C 26 %
970 14-03-2020 17:39:17 9.6 C 27 %
971 14-03-2020 17:49:17 9.3 C 28 %
972 14-03-2020 17:59:17 8.6 C 30 %
973 14-03-2020 18:09:17 8.1 C 31 %
974 14-03-2020 18:19:17 7.3 C 33 %
975 14-03-2020 18:29:17 7.1 C 33 %
Sensor: Nr:Datum:Temp:Feuchte:
Aussen-T/F 976 14-03-2020 18:39:17 6.3 C 36 %
977 14-03-2020 18:49:17 5.9 C 37 %
978 14-03-2020 18:59:17 5.9 C 38 %
979 14-03-2020 19:09:17 5.3 C 38 %
980 14-03-2020 19:19:17 5.5 C 39 %
981 14-03-2020 19:29:17 5.1 C 39 %
982 14-03-2020 19:39:17 5.6 C 39 %
983 14-03-2020 19:49:17 5.2 C 39 %
984 14-03-2020 19:59:17 5.3 C 39 %
985 14-03-2020 20:09:18 5.3 C 39 %
986 14-03-2020 20:19:18 5.3 C 39 %
987 14-03-2020 20:29:18 5.3 C 39 %
988 14-03-2020 20:39:18 5.6 C 39 %
989 14-03-2020 20:49:17 5.5 C 39 %
990 14-03-2020 20:59:18 5.7 C 39 %
991 14-03-2020 21:09:18 5.7 C 39 %
992 14-03-2020 21:19:18 5.7 C 39 %
993 14-03-2020 21:29:18 5.6 C 38 %
994 14-03-2020 21:39:17 5.1 C 39 %
995 14-03-2020 21:49:18 5.2 C 39 %
996 14-03-2020 21:59:18 5 C 39 %
997 14-03-2020 22:09:18 5 C 39 %
998 14-03-2020 22:19:17 5 C 39 %
999 14-03-2020 22:29:17 5 C 39 %
1000 14-03-2020 22:39:18 5.1 C 39 %
Sensor: Nr:Datum:Temp:Feuchte:
Aussen-T/F 1001 14-03-2020 22:49:18 4.8 C 40 %
1002 14-03-2020 22:59:18 5.1 C 39 %
1003 14-03-2020 23:09:17 5.5 C 39 %
1004 14-03-2020 23:19:17 5.7 C 39 %
1005 14-03-2020 23:29:17 5.6 C 40 %
1006 14-03-2020 23:39:17 5.6 C 39 %
1007 14-03-2020 23:49:18 5.8 C 40 %
1008 14-03-2020 23:59:18 5.8 C 40 %
1009 15-03-2020 00:09:18 5.9 C 39 %
1010 15-03-2020 00:19:17 5.8 C 39 %
1011 15-03-2020 00:29:17 6.1 C 37 %
1012 15-03-2020 00:39:18 6 C 38 %
1013 15-03-2020 00:49:18 5.6 C 39 %
1014 15-03-2020 00:59:18 5.3 C 39 %
1015 15-03-2020 01:09:17 5.1 C 40 %
1016 15-03-2020 01:19:18 5.1 C 39 %
1017 15-03-2020 01:29:18 5.5 C 39 %
1018 15-03-2020 01:39:17 5.2 C 40 %
1019 15-03-2020 01:49:17 5.2 C 40 %
1020 15-03-2020 01:59:17 5.2 C 40 %
1021 15-03-2020 02:09:17 5.1 C 40 %
1022 15-03-2020 02:19:17 5.1 C 40 %
1023 15-03-2020 02:29:17 4.8 C 40 %
1024 15-03-2020 02:39:18 4.5 C 40 %
1025 15-03-2020 02:49:17 4.9 C 40 %
Sensor: Nr:Datum:Temp:Feuchte:
Aussen-T/F 1026 15-03-2020 02:59:17 5 C 40 %
1027 15-03-2020 03:09:17 4.8 C 40 %
1028 15-03-2020 03:19:17 4.2 C 40 %
1029 15-03-2020 03:29:17 4 C 40 %
1030 15-03-2020 03:39:18 4 C 40 %
1031 15-03-2020 03:49:17 3.8 C 41 %
1032 15-03-2020 03:59:17 3.7 C 42 %
1033 15-03-2020 04:09:18 3.7 C 41 %
1034 15-03-2020 04:19:18 3.9 C 41 %
1035 15-03-2020 04:29:18 3.7 C 41 %
1036 15-03-2020 04:39:18 3.8 C 41 %
1037 15-03-2020 04:49:17 3.7 C 41 %
1038 15-03-2020 04:59:18 3.5 C 41 %
1039 15-03-2020 05:09:18 3.5 C 41 %
1040 15-03-2020 05:19:17 3.3 C 41 %
1041 15-03-2020 05:29:18 3.2 C 41 %
1042 15-03-2020 05:39:18 3 C 41 %
1043 15-03-2020 05:49:17 3.1 C 41 %
1044 15-03-2020 05:59:17 3.1 C 41 %
1045 15-03-2020 06:09:18 3.1 C 41 %
1046 15-03-2020 06:19:17 3.1 C 41 %
1047 15-03-2020 06:29:17 2.9 C 43 %
1048 15-03-2020 06:39:18 3.3 C 41 %
1049 15-03-2020 06:49:18 3.6 C 41 %
1050 15-03-2020 06:59:18 3.3 C 41 %
Sensor: Nr:Datum:Temp:Feuchte:
Aussen-T/F 1051 15-03-2020 07:09:18 3 C 42 %
1052 15-03-2020 07:19:18 3.1 C 42 %
1053 15-03-2020 07:29:18 3.6 C 41 %
1054 15-03-2020 07:39:18 3.6 C 41 %
1055 15-03-2020 07:49:18 3.5 C 41 %
1056 15-03-2020 07:59:18 4 C 41 %
1057 15-03-2020 08:09:18 4.8 C 40 %
1058 15-03-2020 08:19:18 5.4 C 39 %
1059 15-03-2020 08:29:18 5.7 C 39 %
1060 15-03-2020 08:39:18 5.9 C 38 %
1061 15-03-2020 08:49:17 6.4 C 38 %
1062 15-03-2020 08:59:17 6.7 C 38 %
1063 15-03-2020 09:09:18 6.8 C 37 %
1064 15-03-2020 09:19:18 6.9 C 38 %
1065 15-03-2020 09:29:18 7.1 C 37 %
1066 15-03-2020 09:39:18 7.8 C 36 %
1067 15-03-2020 09:49:18 9.2 C 33 %
1068 15-03-2020 09:59:18 9.9 C 32 %
1069 15-03-2020 10:09:18 9.9 C 31 %
1070 15-03-2020 10:19:18 9.8 C 32 %
1071 15-03-2020 10:29:18 10 C 32 %
1072 15-03-2020 10:39:18 10.8 C 31 %
1073 15-03-2020 10:49:17 11.8 C 29 %
1074 15-03-2020 10:59:17 12.5 C 27 %
1075 15-03-2020 11:09:17 13.4 C 25 %
Sensor: Nr:Datum:Temp:Feuchte:
Aussen-T/F 1076 15-03-2020 11:19:17 14.7 C 23 %
1077 15-03-2020 11:29:17 16 C 20 %
1078 15-03-2020 11:39:18 15.5 C 20 %
1079 15-03-2020 11:49:17 14.9 C 20 %
1080 15-03-2020 11:59:18 15.2 C 20 %
1081 15-03-2020 12:09:18 14.5 C 20 %
1082 15-03-2020 12:19:18 14.1 C 20 %
1083 15-03-2020 12:29:18 14.4 C 20 %
1084 15-03-2020 12:39:18 14.7 C 20 %
1085 15-03-2020 12:49:17 15.2 C 20 %
1086 15-03-2020 12:59:17 15.4 C 20 %
1087 15-03-2020 13:09:18 14.8 C 20 %
1088 15-03-2020 13:19:17 17 C 20 %
1089 15-03-2020 13:29:17 18.6 C 20 %
1090 15-03-2020 13:39:18 17.4 C 20 %
1091 15-03-2020 13:49:17 16.7 C 20 %
1092 15-03-2020 13:59:17 16.2 C 20 %
1093 15-03-2020 14:09:17 15.5 C 20 %
1094 15-03-2020 14:19:17 16.5 C 20 %
1095 15-03-2020 14:29:17 16.3 C 20 %
1096 15-03-2020 14:39:18 16.6 C 20 %
1097 15-03-2020 14:49:17 16.2 C 20 %
1098 15-03-2020 14:59:17 16 C 20 %
1099 15-03-2020 15:09:17 17.4 C 20 %
1100 15-03-2020 15:19:17 20.3 C 20 %
Sensor: Nr:Datum:Temp:Feuchte:
Aussen-T/F 1101 15-03-2020 15:29:18 20.4 C 20 %
1102 15-03-2020 15:39:18 19.4 C 20 %
1103 15-03-2020 15:49:17 20.7 C 20 %
1104 15-03-2020 15:59:17 19.9 C 20 %
1105 15-03-2020 16:09:17 21.2 C 20 %
1106 15-03-2020 16:19:17 20.2 C 20 %
1107 15-03-2020 16:29:17 20.5 C 20 %
1108 15-03-2020 16:39:17 19.7 C 20 %
1109 15-03-2020 16:49:18 18.1 C 20 %
1110 15-03-2020 16:59:18 16.9 C 20 %
1111 15-03-2020 17:09:18 16 C 20 %
1112 15-03-2020 17:19:18 15.5 C 20 %
1113 15-03-2020 17:29:18 15.5 C 20 %
1114 15-03-2020 17:39:18 14.9 C 20 %
1115 15-03-2020 17:49:18 13.8 C 20 %
1116 15-03-2020 17:59:18 12.6 C 23 %
1117 15-03-2020 18:09:18 12.1 C 25 %
1118 15-03-2020 18:19:18 11.7 C 26 %
1119 15-03-2020 18:29:18 11.1 C 27 %
1120 15-03-2020 18:39:18 10.6 C 28 %
1121 15-03-2020 18:49:17 10.4 C 28 %
1122 15-03-2020 18:59:17 10 C 28 %
1123 15-03-2020 19:09:18 9.6 C 30 %
1124 15-03-2020 19:19:18 9.4 C 30 %
1125 15-03-2020 19:29:18 9.2 C 31 %
Sensor: Nr:Datum:Temp:Feuchte:
Aussen-T/F 1126 15-03-2020 19:39:18 9.1 C 30 %
1127 15-03-2020 19:49:17 9 C 31 %
1128 15-03-2020 19:59:17 8.9 C 31 %
1129 15-03-2020 20:09:18 8.6 C 31 %
1130 15-03-2020 20:19:17 8.5 C 32 %
1131 15-03-2020 20:29:17 8.2 C 32 %
1132 15-03-2020 20:39:18 8.2 C 32 %
1133 15-03-2020 20:49:18 8 C 32 %
1134 15-03-2020 20:59:18 7.4 C 34 %
1135 15-03-2020 21:09:18 7.1 C 35 %
1136 15-03-2020 21:19:17 7 C 35 %
1137 15-03-2020 21:29:17 7.4 C 35 %
1138 15-03-2020 21:39:17 7.5 C 35 %
1139 15-03-2020 21:49:17 7.1 C 35 %
1140 15-03-2020 21:59:17 6.3 C 36 %
1141 15-03-2020 22:09:17 5.8 C 37 %
1142 15-03-2020 22:19:17 5.4 C 37 %
1143 15-03-2020 22:29:18 5 C 38 %
1144 15-03-2020 22:39:17 4.7 C 40 %
1145 15-03-2020 22:49:17 4.7 C 40 %
1146 15-03-2020 22:59:17 4.7 C 40 %
1147 15-03-2020 23:09:17 4.7 C 40 %
1148 15-03-2020 23:19:17 4.6 C 40 %
1149 15-03-2020 23:29:17 4.5 C 40 %
1150 15-03-2020 23:39:17 4.5 C 40 %
Sensor: Nr:Datum:Temp:Feuchte:
Aussen-T/F 1151 15-03-2020 23:49:17 4.3 C 40 %
1152 15-03-2020 23:59:17 4.1 C 40 %
1153 16-03-2020 00:09:17 4 C 40 %
1154 16-03-2020 00:19:17 3.8 C 41 %
1155 16-03-2020 00:29:17 3.4 C 41 %
1156 16-03-2020 00:39:17 3.4 C 42 %
1157 16-03-2020 00:49:17 3.3 C 42 %
1158 16-03-2020 00:59:17 3.3 C 42 %
1159 16-03-2020 01:09:18 2.9 C 43 %
1160 16-03-2020 01:19:17 3 C 43 %
1161 16-03-2020 01:29:17 3 C 42 %
1162 16-03-2020 01:39:17 3.2 C 42 %
1163 16-03-2020 01:49:18 2.8 C 43 %
1164 16-03-2020 01:59:18 2.6 C 44 %
1165 16-03-2020 02:09:17 2.7 C 45 %
1166 16-03-2020 02:19:17 2.7 C 44 %
1167 16-03-2020 02:29:17 2.4 C 44 %
1168 16-03-2020 02:39:17 2.6 C 45 %
1169 16-03-2020 02:49:17 2.8 C 45 %
1170 16-03-2020 02:59:17 2.8 C 44 %
1171 16-03-2020 03:09:18 2.2 C 44 %
1172 16-03-2020 03:19:17 2.3 C 44 %
1173 16-03-2020 03:29:17 2.2 C 45 %
1174 16-03-2020 03:39:17 1.8 C 45 %
1175 16-03-2020 03:49:18 2 C 46 %
Sensor: Nr:Datum:Temp:Feuchte:
Aussen-T/F 1176 16-03-2020 03:59:18 1.8 C 46 %
1177 16-03-2020 04:09:18 1.6 C 46 %
1178 16-03-2020 04:19:18 1.7 C 46 %
1179 16-03-2020 04:29:18 2 C 46 %
1180 16-03-2020 04:39:18 1.5 C 46 %
1181 16-03-2020 04:49:17 1.7 C 46 %
1182 16-03-2020 04:59:18 1.9 C 46 %
1183 16-03-2020 05:09:18 1.7 C 46 %
1184 16-03-2020 05:19:18 1.7 C 46 %
1185 16-03-2020 05:29:18 1.4 C 46 %
1186 16-03-2020 05:39:18 1.3 C 46 %
1187 16-03-2020 05:49:17 1.2 C 46 %
1188 16-03-2020 05:59:17 1.3 C 47 %
1189 16-03-2020 06:09:18 1.1 C 47 %
1190 16-03-2020 06:19:17 0.6 C 48 %
1191 16-03-2020 06:29:17 0.6 C 48 %
1192 16-03-2020 06:39:17 0.6 C 48 %
1193 16-03-2020 06:49:17 0.6 C 48 %
1194 16-03-2020 06:59:17 0.9 C 49 %
1195 16-03-2020 07:09:17 1.2 C 49 %
1196 16-03-2020 07:19:17 1.1 C 47 %
1197 16-03-2020 07:29:17 1 C 47 %
1198 16-03-2020 07:39:17 1.4 C 49 %
1199 16-03-2020 07:49:17 1.4 C 48 %
1200 16-03-2020 07:59:17 1.7 C 48 %
Sensor: Nr:Datum:Temp:Feuchte:
Aussen-T/F 1201 16-03-2020 08:09:18 2 C 47 %
1202 16-03-2020 08:19:17 2.3 C 47 %
1203 16-03-2020 08:29:18 2.4 C 46 %
1204 16-03-2020 08:39:18 2.4 C 46 %
1205 16-03-2020 08:49:17 2.6 C 46 %
1206 16-03-2020 08:59:17 2.9 C 47 %
1207 16-03-2020 09:09:18 3.4 C 46 %
1208 16-03-2020 09:19:18 3.7 C 45 %
1209 16-03-2020 09:29:18 4 C 45 %
1210 16-03-2020 09:39:18 4.6 C 44 %
1211 16-03-2020 09:49:18 5 C 43 %
1212 16-03-2020 09:59:18 5.6 C 42 %
1213 16-03-2020 10:09:18 6.6 C 41 %
1214 16-03-2020 10:19:18 7.3 C 40 %
1215 16-03-2020 10:29:18 8.3 C 39 %
1216 16-03-2020 10:39:17 9.3 C 38 %
1217 16-03-2020 10:49:18 10.4 C 37 %
1218 16-03-2020 10:59:18 12.4 C 34 %
1219 16-03-2020 11:09:17 13.3 C 32 %
1220 16-03-2020 11:19:17 14.3 C 30 %
1221 16-03-2020 11:29:17 15.4 C 27 %
1222 16-03-2020 11:39:18 15.7 C 26 %
1223 16-03-2020 11:49:17 15.6 C 25 %
1224 16-03-2020 11:59:17 16.1 C 25 %
1225 16-03-2020 12:09:17 16.5 C 25 %
Sensor: Nr:Datum:Temp:Feuchte:
Aussen-T/F 1226 16-03-2020 12:19:17 16.8 C 25 %
1227 16-03-2020 12:29:17 16.4 C 24 %
1228 16-03-2020 12:39:17 16.9 C 24 %
1229 16-03-2020 12:49:17 18.3 C 21 %
1230 16-03-2020 12:59:17 18.7 C 20 %
1231 16-03-2020 13:09:17 22.3 C 20 %
1232 16-03-2020 13:19:17 21.2 C 20 %
1233 16-03-2020 13:29:17 21.1 C 20 %
1234 16-03-2020 13:39:17 20.6 C 20 %
1235 16-03-2020 13:49:17 21.1 C 20 %
1236 16-03-2020 13:59:17 19.7 C 20 %
1237 16-03-2020 14:09:17 18.7 C 20 %
1238 16-03-2020 14:19:17 19.7 C 20 %
1239 16-03-2020 14:29:17 19.7 C 20 %
1240 16-03-2020 14:39:17 20 C 20 %
1241 16-03-2020 14:49:17 19.2 C 20 %
1242 16-03-2020 14:59:17 20.8 C 20 %
1243 16-03-2020 15:09:17 20 C 20 %
1244 16-03-2020 15:19:17 19.1 C 20 %
1245 16-03-2020 15:29:17 18.8 C 20 %
1246 16-03-2020 15:39:18 18.8 C 20 %
1247 16-03-2020 15:49:17 19 C 20 %
1248 16-03-2020 15:59:17 19 C 20 %
1249 16-03-2020 16:09:18 18.7 C 20 %
1250 16-03-2020 16:19:18 19 C 20 %
Sensor: Nr:Datum:Temp:Feuchte:
Aussen-T/F 1251 16-03-2020 16:29:18 21.4 C 20 %
1252 16-03-2020 16:39:17 20.8 C 20 %
1253 16-03-2020 16:49:17 20.2 C 20 %
1254 16-03-2020 16:59:17 19.4 C 20 %
1255 16-03-2020 17:09:17 18.4 C 20 %
1256 16-03-2020 17:19:17 17.9 C 20 %
1257 16-03-2020 17:29:18 17.7 C 20 %
1258 16-03-2020 17:39:18 17.5 C 20 %
1259 16-03-2020 17:49:17 16.8 C 21 %
1260 16-03-2020 17:59:18 16 C 23 %
1261 16-03-2020 18:09:18 15 C 26 %
1262 16-03-2020 18:19:18 14.3 C 27 %
1263 16-03-2020 18:29:18 13.7 C 29 %
1264 16-03-2020 18:39:18 13.1 C 30 %
1265 16-03-2020 18:49:18 12.7 C 31 %
1266 16-03-2020 18:59:18 12.4 C 32 %
1267 16-03-2020 19:09:18 12.1 C 32 %
1268 16-03-2020 19:19:18 12.2 C 32 %
1269 16-03-2020 19:29:18 12.2 C 32 %
1270 16-03-2020 19:39:18 11.9 C 34 %
1271 16-03-2020 19:49:17 11.5 C 34 %
1272 16-03-2020 19:59:18 11 C 35 %
1273 16-03-2020 20:09:18 10.7 C 36 %
1274 16-03-2020 20:19:18 11.4 C 35 %
1275 16-03-2020 20:29:18 10.8 C 36 %
Sensor: Nr:Datum:Temp:Feuchte:
Aussen-T/F 1276 16-03-2020 20:39:18 10.3 C 36 %
1277 16-03-2020 20:49:18 9.5 C 38 %
1278 16-03-2020 20:59:18 10.8 C 37 %
1279 16-03-2020 21:09:18 10.1 C 37 %
1280 16-03-2020 21:19:17 10.3 C 38 %
1281 16-03-2020 21:29:17 9.9 C 38 %
1282 16-03-2020 21:39:17 9.7 C 38 %
1283 16-03-2020 21:49:18 10.2 C 37 %
1284 16-03-2020 21:59:18 9.9 C 38 %
1285 16-03-2020 22:09:18 9.7 C 38 %
1286 16-03-2020 22:19:18 9.5 C 38 %
1287 16-03-2020 22:29:18 9.5 C 39 %
1288 16-03-2020 22:39:18 9.2 C 38 %
1289 16-03-2020 22:49:18 8.9 C 39 %
1290 16-03-2020 22:59:18 9.1 C 39 %
1291 16-03-2020 23:09:18 9.4 C 39 %
1292 16-03-2020 23:19:17 9.4 C 39 %
1293 16-03-2020 23:29:17 9.4 C 39 %
1294 16-03-2020 23:39:17 9.5 C 39 %
1295 16-03-2020 23:49:17 9.5 C 40 %
1296 16-03-2020 23:59:17 9.5 C 39 %
1297 17-03-2020 00:09:17 9.3 C 39 %
1298 17-03-2020 00:19:17 9.7 C 40 %
1299 17-03-2020 00:29:17 9.5 C 39 %
1300 17-03-2020 00:39:18 9.3 C 39 %
Sensor: Nr:Datum:Temp:Feuchte:
Aussen-T/F 1301 17-03-2020 00:49:18 9.1 C 40 %
1302 17-03-2020 00:59:18 9 C 40 %
1303 17-03-2020 01:09:18 9.3 C 40 %
1304 17-03-2020 01:19:17 9.2 C 40 %
1305 17-03-2020 01:29:17 8.9 C 40 %
1306 17-03-2020 01:39:17 8.7 C 41 %
1307 17-03-2020 01:49:18 8.8 C 41 %
1308 17-03-2020 01:59:18 8.8 C 41 %
1309 17-03-2020 02:09:18 8.7 C 41 %
1310 17-03-2020 02:19:17 8.7 C 41 %
1311 17-03-2020 02:29:17 8.7 C 41 %
1312 17-03-2020 02:39:17 8.9 C 41 %
1313 17-03-2020 02:49:17 8.9 C 41 %
1314 17-03-2020 02:59:17 8.8 C 41 %
1315 17-03-2020 03:09:18 8.6 C 41 %
1316 17-03-2020 03:19:18 8.6 C 41 %
1317 17-03-2020 03:29:18 8.4 C 41 %
1318 17-03-2020 03:39:17 8.3 C 41 %
1319 17-03-2020 03:49:18 8.1 C 42 %
1320 17-03-2020 03:59:18 8 C 41 %
1321 17-03-2020 04:09:18 8.9 C 42 %
1322 17-03-2020 04:19:18 9.2 C 40 %
1323 17-03-2020 04:29:18 9.3 C 40 %
1324 17-03-2020 04:39:17 9 C 40 %
1325 17-03-2020 04:49:18 9 C 40 %
Sensor: Nr:Datum:Temp:Feuchte:
Aussen-T/F 1326 17-03-2020 04:59:18 8.6 C 41 %
1327 17-03-2020 05:09:17 8.9 C 41 %
1328 17-03-2020 05:19:17 9 C 40 %
1329 17-03-2020 05:29:17 8.6 C 41 %
1330 17-03-2020 05:39:17 8.3 C 41 %
1331 17-03-2020 05:49:17 8.2 C 41 %
1332 17-03-2020 05:59:18 8.2 C 41 %
1333 17-03-2020 06:09:18 8.1 C 41 %
1334 17-03-2020 06:19:18 8.1 C 41 %
1335 17-03-2020 06:29:18 8 C 41 %
1336 17-03-2020 06:39:18 8.2 C 41 %
1337 17-03-2020 06:49:18 8.1 C 41 %
1338 17-03-2020 06:59:18 8.2 C 41 %
1339 17-03-2020 07:09:17 8.8 C 40 %
1340 17-03-2020 07:19:17 9 C 40 %
1341 17-03-2020 07:29:17 9.5 C 39 %
1342 17-03-2020 07:39:17 9.6 C 39 %
1343 17-03-2020 07:49:18 9.6 C 39 %
1344 17-03-2020 07:59:18 9.8 C 38 %
1345 17-03-2020 08:09:18 10.1 C 37 %
1346 17-03-2020 08:19:17 10 C 37 %
1347 17-03-2020 08:29:17 9.8 C 38 %
1348 17-03-2020 08:39:17 9.9 C 38 %
1349 17-03-2020 08:49:17 9.9 C 38 %
1350 17-03-2020 08:59:17 10 C 37 %
Sensor: Nr:Datum:Temp:Feuchte:
Aussen-T/F 1351 17-03-2020 09:09:17 10.2 C 37 %
1352 17-03-2020 09:19:18 10.4 C 37 %
1353 17-03-2020 09:29:18 10.4 C 37 %
1354 17-03-2020 09:39:18 10.6 C 37 %
1355 17-03-2020 09:49:17 10.6 C 37 %
1356 17-03-2020 09:59:17 10.7 C 37 %
1357 17-03-2020 10:09:17 10.7 C 37 %
1358 17-03-2020 10:19:17 10.9 C 36 %
1359 17-03-2020 10:29:17 11 C 35 %
1360 17-03-2020 10:39:17 11.7 C 35 %
1361 17-03-2020 10:49:17 12.4 C 33 %
1362 17-03-2020 10:59:17 12.9 C 33 %
1363 17-03-2020 11:09:17 13.1 C 32 %
1364 17-03-2020 11:19:17 13.3 C 31 %
1365 17-03-2020 11:29:17 13.3 C 31 %
1366 17-03-2020 11:39:17 14.7 C 30 %
1367 17-03-2020 11:49:17 14.1 C 29 %
1368 17-03-2020 11:59:17 15.4 C 28 %
1369 17-03-2020 12:09:17 14.5 C 29 %
1370 17-03-2020 12:19:18 14.6 C 27 %
1371 17-03-2020 12:29:18 15.2 C 26 %
1372 17-03-2020 12:39:18 16.5 C 26 %
1373 17-03-2020 12:49:18 16.6 C 24 %
1374 17-03-2020 12:59:18 19.3 C 20 %
1375 17-03-2020 13:09:17 18.8 C 20 %
Sensor: Nr:Datum:Temp:Feuchte:
Aussen-T/F 1376 17-03-2020 13:19:17 20.4 C 20 %
1377 17-03-2020 13:29:17 19.5 C 20 %
1378 17-03-2020 13:39:17 18.5 C 20 %
1379 17-03-2020 13:49:18 18.8 C 20 %
1380 17-03-2020 13:59:18 19.3 C 20 %
1381 17-03-2020 14:09:17 18.3 C 20 %
1382 17-03-2020 14:19:17 18.5 C 20 %
1383 17-03-2020 14:29:17 17.9 C 20 %
1384 17-03-2020 14:39:18 17.1 C 20 %
1385 17-03-2020 14:49:18 20.5 C 20 %
1386 17-03-2020 14:59:18 22.2 C 20 %
1387 17-03-2020 15:09:17 22.5 C 20 %
1388 17-03-2020 15:19:17 22.1 C 20 %
1389 17-03-2020 15:29:17 23.8 C 20 %
1390 17-03-2020 15:39:18 23.6 C 20 %
1391 17-03-2020 15:49:17 23.8 C 20 %
1392 17-03-2020 15:59:17 23.9 C 20 %
1393 17-03-2020 16:09:18 23.3 C 20 %
1394 17-03-2020 16:19:18 21.8 C 20 %
1395 17-03-2020 16:29:18 23.2 C 20 %
1396 17-03-2020 16:39:17 21.4 C 20 %
1397 17-03-2020 16:49:17 22.3 C 20 %
1398 17-03-2020 16:59:17 20.1 C 20 %
1399 17-03-2020 17:09:17 18.7 C 20 %
1400 17-03-2020 17:19:18 17.7 C 20 %
Sensor: Nr:Datum:Temp:Feuchte:
Aussen-T/F 1401 17-03-2020 17:29:18 17.3 C 20 %
1402 17-03-2020 17:39:18 16.8 C 20 %
1403 17-03-2020 17:49:17 16.1 C 22 %
1404 17-03-2020 17:59:18 15.3 C 24 %
1405 17-03-2020 18:09:18 14.1 C 27 %
1406 17-03-2020 18:19:17 13.5 C 28 %
1407 17-03-2020 18:29:17 13.2 C 29 %
1408 17-03-2020 18:39:18 12.8 C 30 %
1409 17-03-2020 18:49:18 12.4 C 31 %
1410 17-03-2020 18:59:18 12 C 31 %
1411 17-03-2020 19:09:18 11.9 C 32 %
1412 17-03-2020 19:19:17 11.8 C 32 %
1413 17-03-2020 19:29:17 11.1 C 33 %
1414 17-03-2020 19:39:17 11 C 34 %
1415 17-03-2020 19:49:17 10.4 C 35 %
1416 17-03-2020 19:59:17 10.2 C 35 %
1417 17-03-2020 20:09:17 9.9 C 36 %
1418 17-03-2020 20:19:17 10.1 C 36 %
1419 17-03-2020 20:29:17 10.7 C 35 %
1420 17-03-2020 20:39:18 10.4 C 35 %
1421 17-03-2020 20:49:18 9.6 C 37 %
1422 17-03-2020 20:59:18 9.5 C 37 %
1423 17-03-2020 21:09:18 9 C 37 %
1424 17-03-2020 21:19:17 8.4 C 39 %
1425 17-03-2020 21:29:17 8.4 C 39 %
Sensor: Nr:Datum:Temp:Feuchte:
Aussen-T/F 1426 17-03-2020 21:39:17 8.1 C 39 %
1427 17-03-2020 21:49:18 8 C 40 %
1428 17-03-2020 21:59:18 7.6 C 40 %
1429 17-03-2020 22:09:18 7.3 C 40 %
1430 17-03-2020 22:19:18 7.2 C 41 %
1431 17-03-2020 22:29:18 7 C 41 %
1432 17-03-2020 22:39:17 6.9 C 41 %
1433 17-03-2020 22:49:17 6.7 C 42 %
1434 17-03-2020 22:59:17 6.5 C 42 %
1435 17-03-2020 23:09:17 6.4 C 42 %
1436 17-03-2020 23:19:17 6.3 C 42 %
1437 17-03-2020 23:29:17 6.1 C 42 %
1438 17-03-2020 23:39:18 6.1 C 42 %
1439 17-03-2020 23:49:18 6.2 C 43 %
1440 17-03-2020 23:59:18 6.3 C 43 %
1441 18-03-2020 00:09:17 5.9 C 43 %
1442 18-03-2020 00:19:17 5.8 C 44 %
1443 18-03-2020 00:29:17 5.9 C 44 %
1444 18-03-2020 00:39:17 5.8 C 44 %
1445 18-03-2020 00:49:17 6 C 44 %
1446 18-03-2020 00:59:17 6 C 43 %
1447 18-03-2020 01:09:17 5.7 C 44 %
1448 18-03-2020 01:19:17 5.6 C 44 %
1449 18-03-2020 01:29:17 5.3 C 44 %
1450 18-03-2020 01:39:17 5.6 C 45 %
Sensor: Nr:Datum:Temp:Feuchte:
Aussen-T/F 1451 18-03-2020 01:49:17 5.3 C 45 %
1452 18-03-2020 01:59:17 5.6 C 46 %
1453 18-03-2020 02:09:17 5.1 C 44 %
1454 18-03-2020 02:19:17 4.8 C 45 %
1455 18-03-2020 02:29:17 4.8 C 45 %
1456 18-03-2020 02:39:17 4.6 C 46 %
1457 18-03-2020 02:49:18 4.3 C 46 %
1458 18-03-2020 02:59:18 4.3 C 46 %
1459 18-03-2020 03:09:18 4.2 C 46 %
1460 18-03-2020 03:19:17 4.2 C 46 %
1461 18-03-2020 03:29:17 4.1 C 46 %
1462 18-03-2020 03:39:17 4 C 46 %
1463 18-03-2020 03:49:17 3.8 C 47 %
1464 18-03-2020 03:59:17 3.8 C 47 %
1465 18-03-2020 04:09:17 3.8 C 47 %
1466 18-03-2020 04:19:18 3.8 C 47 %
1467 18-03-2020 04:29:18 3.7 C 47 %
1468 18-03-2020 04:39:18 3.7 C 47 %
1469 18-03-2020 04:49:18 3.6 C 47 %
1470 18-03-2020 04:59:18 3.6 C 47 %
1471 18-03-2020 05:09:18 3.7 C 48 %
1472 18-03-2020 05:19:18 3.8 C 48 %
1473 18-03-2020 05:29:18 3.3 C 47 %
1474 18-03-2020 05:39:18 3.2 C 47 %
1475 18-03-2020 05:49:18 3.3 C 47 %
Sensor: Nr:Datum:Temp:Feuchte:
Aussen-T/F 1476 18-03-2020 05:59:18 3.1 C 47 %
1477 18-03-2020 06:09:18 2.9 C 48 %
1478 18-03-2020 06:19:17 3.3 C 47 %
1479 18-03-2020 06:29:18 3.1 C 47 %
1480 18-03-2020 06:39:18 3.1 C 47 %
1481 18-03-2020 06:49:17 3.1 C 47 %
1482 18-03-2020 06:59:18 3.6 C 47 %
1483 18-03-2020 07:09:18 3.5 C 47 %
1484 18-03-2020 07:19:17 3.4 C 47 %
1485 18-03-2020 07:29:17 3.7 C 47 %
1486 18-03-2020 07:39:17 3.9 C 47 %
1487 18-03-2020 07:49:18 4 C 46 %
1488 18-03-2020 07:59:18 4.9 C 46 %
1489 18-03-2020 08:09:18 4.6 C 46 %
1490 18-03-2020 08:19:18 4.5 C 46 %
1491 18-03-2020 08:29:18 4.7 C 46 %
1492 18-03-2020 08:39:17 5 C 45 %
1493 18-03-2020 08:49:18 5.3 C 46 %
1494 18-03-2020 08:59:18 5.6 C 46 %
1495 18-03-2020 09:09:17 6.7 C 45 %
1496 18-03-2020 09:19:17 7.1 C 45 %
1497 18-03-2020 09:29:17 8.5 C 45 %
1498 18-03-2020 09:39:17 9.7 C 41 %
1499 18-03-2020 09:49:18 10.5 C 40 %
1500 18-03-2020 09:59:18 11 C 38 %
Sensor: Nr:Datum:Temp:Feuchte:
Aussen-T/F 1501 18-03-2020 10:09:18 11.1 C 38 %
1502 18-03-2020 10:19:18 11.6 C 38 %
1503 18-03-2020 10:29:18 11.6 C 37 %
1504 18-03-2020 10:39:18 11.7 C 38 %
1505 18-03-2020 10:49:18 12 C 36 %
1506 18-03-2020 10:59:18 12.2 C 35 %
1507 18-03-2020 11:09:18 12.7 C 35 %
1508 18-03-2020 11:19:18 12.8 C 34 %
1509 18-03-2020 11:29:18 13.3 C 34 %
1510 18-03-2020 11:39:18 13.9 C 33 %
1511 18-03-2020 11:49:17 14.7 C 32 %
1512 18-03-2020 11:59:17 15.3 C 30 %
1513 18-03-2020 12:09:18 15.8 C 30 %
1514 18-03-2020 12:19:17 16.6 C 29 %
1515 18-03-2020 12:29:18 17 C 27 %
1516 18-03-2020 12:39:18 17.8 C 26 %
1517 18-03-2020 12:49:17 19.1 C 25 %
1518 18-03-2020 12:59:17 19.8 C 20 %
1519 18-03-2020 13:09:17 21 C 20 %
1520 18-03-2020 13:19:17 21.2 C 20 %
1521 18-03-2020 13:29:17 19.5 C 20 %
1522 18-03-2020 13:39:18 17.7 C 20 %
1523 18-03-2020 13:49:17 16.6 C 22 %
1524 18-03-2020 13:59:17 16 C 22 %
1525 18-03-2020 14:09:17 17.6 C 21 %
Sensor: Nr:Datum:Temp:Feuchte:
Aussen-T/F 1526 18-03-2020 14:19:17 16.7 C 20 %
1527 18-03-2020 14:29:17 17.9 C 20 %
1528 18-03-2020 14:39:18 18.5 C 20 %
1529 18-03-2020 14:49:17 17.4 C 20 %
1530 18-03-2020 14:59:17 17.4 C 20 %
1531 18-03-2020 15:09:17 20.6 C 20 %
1532 18-03-2020 15:19:18 17.9 C 20 %
1533 18-03-2020 15:29:18 18.2 C 20 %
1534 18-03-2020 15:39:18 17.7 C 20 %
1535 18-03-2020 15:49:17 16.9 C 20 %
1536 18-03-2020 15:59:17 16.7 C 21 %
1537 18-03-2020 16:09:17 16.4 C 21 %
1538 18-03-2020 16:19:17 16.4 C 22 %
1539 18-03-2020 16:29:17 16.4 C 20 %
1540 18-03-2020 16:39:17 16.5 C 20 %
1541 18-03-2020 16:49:18 16.2 C 21 %
1542 18-03-2020 16:59:18 16.1 C 21 %
1543 18-03-2020 17:09:17 16 C 21 %
1544 18-03-2020 17:19:17 16 C 21 %
1545 18-03-2020 17:29:17 15.7 C 22 %
1546 18-03-2020 17:39:18 16 C 20 %
1547 18-03-2020 17:49:17 16.3 C 20 %
1548 18-03-2020 17:59:17 15.8 C 22 %
1549 18-03-2020 18:09:17 15.4 C 22 %
1550 18-03-2020 18:19:17 14.7 C 26 %
Sensor: Nr:Datum:Temp:Feuchte:
Aussen-T/F 1551 18-03-2020 18:29:17 13.7 C 26 %
1552 18-03-2020 18:39:17 13.3 C 28 %
1553 18-03-2020 18:49:17 12.7 C 30 %
1554 18-03-2020 18:59:17 12 C 31 %
1555 18-03-2020 19:09:17 11.7 C 32 %
1556 18-03-2020 19:19:18 11.5 C 32 %
1557 18-03-2020 19:29:18 10.5 C 34 %
1558 18-03-2020 19:39:18 10.9 C 34 %
1559 18-03-2020 19:49:18 11.1 C 34 %
1560 18-03-2020 19:59:18 10.9 C 35 %
1561 18-03-2020 20:09:18 10.6 C 35 %
1562 18-03-2020 20:19:17 10.4 C 35 %
1563 18-03-2020 20:29:17 10.4 C 35 %
1564 18-03-2020 20:39:18 10 C 36 %
1565 18-03-2020 20:49:17 9.7 C 37 %
1566 18-03-2020 20:59:17 9.7 C 37 %
1567 18-03-2020 21:09:18 9.7 C 37 %
1568 18-03-2020 21:19:17 9.6 C 37 %
1569 18-03-2020 21:29:17 9.4 C 37 %
1570 18-03-2020 21:39:17 9 C 37 %
1571 18-03-2020 21:49:17 8.7 C 38 %
1572 18-03-2020 21:59:17 8.4 C 39 %
1573 18-03-2020 22:09:17 8.2 C 39 %
1574 18-03-2020 22:19:17 8.1 C 40 %
1575 18-03-2020 22:29:17 8 C 40 %
Sensor: Nr:Datum:Temp:Feuchte:
Aussen-T/F 1576 18-03-2020 22:39:17 8 C 40 %
1577 18-03-2020 22:49:17 8.1 C 40 %
1578 18-03-2020 22:59:17 8.2 C 40 %
1579 18-03-2020 23:09:18 8.3 C 40 %
1580 18-03-2020 23:19:17 8.1 C 40 %
1581 18-03-2020 23:29:17 8 C 40 %
1582 18-03-2020 23:39:18 8 C 40 %
1583 18-03-2020 23:49:18 8.4 C 40 %
1584 18-03-2020 23:59:18 8.9 C 40 %
1585 19-03-2020 00:09:17 8.9 C 39 %
1586 19-03-2020 00:19:18 8.9 C 38 %
1587 19-03-2020 00:29:18 9 C 38 %
1588 19-03-2020 00:39:18 9 C 38 %
1589 19-03-2020 00:49:17 9.1 C 38 %
1590 19-03-2020 00:59:17 9.1 C 38 %
1591 19-03-2020 01:09:18 9 C 38 %
1592 19-03-2020 01:19:17 9.1 C 38 %
1593 19-03-2020 01:29:17 9 C 38 %
1594 19-03-2020 01:39:17 9 C 38 %
1595 19-03-2020 01:49:17 8.9 C 38 %
1596 19-03-2020 01:59:17 8.8 C 39 %
1597 19-03-2020 02:09:18 8.7 C 39 %
1598 19-03-2020 02:19:17 8.7 C 39 %
1599 19-03-2020 02:29:17 8.6 C 39 %
1600 19-03-2020 02:39:17 8.5 C 39 %
Sensor: Nr:Datum:Temp:Feuchte:
Aussen-T/F 1601 19-03-2020 02:49:18 8.5 C 39 %
1602 19-03-2020 02:59:18 8.5 C 39 %
1603 19-03-2020 03:09:18 8.5 C 39 %
1604 19-03-2020 03:19:18 8.6 C 39 %
1605 19-03-2020 03:29:18 8.5 C 39 %
1606 19-03-2020 03:39:17 8.5 C 39 %
1607 19-03-2020 03:49:18 8.4 C 39 %
1608 19-03-2020 03:59:18 8.4 C 40 %
1609 19-03-2020 04:09:18 8.4 C 40 %
1610 19-03-2020 04:19:17 8.5 C 40 %
1611 19-03-2020 04:29:17 8.5 C 39 %
1612 19-03-2020 04:39:17 8.5 C 39 %
1613 19-03-2020 04:49:18 8.5 C 39 %
1614 19-03-2020 04:59:18 8.5 C 39 %
1615 19-03-2020 05:09:18 8.6 C 39 %
1616 19-03-2020 05:19:18 8.9 C 38 %
1617 19-03-2020 05:29:18 8.7 C 39 %
1618 19-03-2020 05:39:18 8.6 C 39 %
1619 19-03-2020 05:49:17 8.5 C 39 %
1620 19-03-2020 05:59:18 8.4 C 39 %
1621 19-03-2020 06:09:18 8.4 C 39 %
1622 19-03-2020 06:19:17 8.3 C 40 %
1623 19-03-2020 06:29:17 8.2 C 39 %
1624 19-03-2020 06:39:17 8.1 C 40 %
1625 19-03-2020 06:49:17 8.1 C 40 %
Sensor: Nr:Datum:Temp:Feuchte:
Aussen-T/F 1626 19-03-2020 06:59:17 8.2 C 40 %
1627 19-03-2020 07:09:17 8.2 C 40 %
1628 19-03-2020 07:19:17 8.5 C 40 %
1629 19-03-2020 07:29:17 8.7 C 39 %
1630 19-03-2020 07:39:18 8.9 C 39 %
1631 19-03-2020 07:49:18 9.1 C 38 %
1632 19-03-2020 07:59:18 9.4 C 38 %
1633 19-03-2020 08:09:18 9.7 C 38 %
1634 19-03-2020 08:19:17 9.9 C 37 %
1635 19-03-2020 08:29:17 9.9 C 37 %
1636 19-03-2020 08:39:17 10.5 C 36 %
1637 19-03-2020 08:49:18 10.4 C 36 %
1638 19-03-2020 08:59:18 10.2 C 36 %
1639 19-03-2020 09:09:17 11.2 C 35 %
1640 19-03-2020 09:19:17 11.7 C 35 %
1641 19-03-2020 09:29:17 11.5 C 35 %
1642 19-03-2020 09:39:18 11.8 C 35 %
1643 19-03-2020 09:49:17 11.6 C 35 %
1644 19-03-2020 09:59:17 12.4 C 33 %
1645 19-03-2020 10:09:18 12.3 C 32 %
1646 19-03-2020 10:19:18 13.1 C 31 %
1647 19-03-2020 10:29:18 13.5 C 30 %
1648 19-03-2020 10:39:17 13.9 C 31 %
1649 19-03-2020 10:49:17 14.2 C 30 %
1650 19-03-2020 10:59:17 15.4 C 29 %
Sensor: Nr:Datum:Temp:Feuchte:
Aussen-T/F 1651 19-03-2020 11:09:17 15.5 C 29 %
1652 19-03-2020 11:19:17 16.4 C 26 %
1653 19-03-2020 11:29:17 17.7 C 26 %
1654 19-03-2020 11:39:17 18.5 C 24 %
1655 19-03-2020 11:49:17 15.8 C 26 %
1656 19-03-2020 11:59:17 15 C 28 %
1657 19-03-2020 12:09:17 15.2 C 28 %
1658 19-03-2020 12:19:17 15.5 C 28 %
1659 19-03-2020 12:29:17 16.8 C 26 %
1660 19-03-2020 12:39:18 18.1 C 22 %
1661 19-03-2020 12:49:17 18.6 C 20 %
1662 19-03-2020 12:59:17 17.9 C 20 %
1663 19-03-2020 13:09:18 20.4 C 20 %
1664 19-03-2020 13:19:18 25.8 C 20 %
1665 19-03-2020 13:29:18 25.6 C 20 %
1666 19-03-2020 13:39:18 19.7 C 20 %
1667 19-03-2020 13:49:17 18.8 C 20 %
1668 19-03-2020 13:59:17 18.2 C 20 %
1669 19-03-2020 14:09:17 18.7 C 20 %
1670 19-03-2020 14:19:17 18.9 C 20 %
1671 19-03-2020 14:29:17 18.8 C 20 %
1672 19-03-2020 14:39:17 18.9 C 20 %
1673 19-03-2020 14:49:17 19.3 C 20 %
1674 19-03-2020 14:59:17 19.1 C 20 %
1675 19-03-2020 15:09:18 18.5 C 20 %
Sensor: Nr:Datum:Temp:Feuchte:
Aussen-T/F 1676 19-03-2020 15:19:18 19.1 C 20 %
1677 19-03-2020 15:29:18 19.3 C 20 %
1678 19-03-2020 15:39:18 19.8 C 20 %
1679 19-03-2020 15:49:17 21.8 C 20 %
1680 19-03-2020 15:59:18 19.5 C 20 %
1681 19-03-2020 16:09:18 19.1 C 20 %
1682 19-03-2020 16:20:17 19.1 C 20 %
1683 19-03-2020 16:29:17 19.1 C 20 %
1684 19-03-2020 16:39:17 19.1 C 20 %
1685 19-03-2020 16:49:17 19.1 C 20 %
1686 19-03-2020 16:59:17 18.4 C 20 %
1687 19-03-2020 17:09:18 17.6 C 20 %
1688 19-03-2020 17:19:18 17.3 C 20 %
1689 19-03-2020 17:29:18 17 C 20 %
1690 19-03-2020 17:39:18 16.8 C 20 %
1691 19-03-2020 17:49:18 16.9 C 20 %
1692 19-03-2020 17:59:18 16.7 C 20 %
1693 19-03-2020 18:09:18 16.3 C 20 %
1694 19-03-2020 18:20:17 15.7 C 23 %
1695 19-03-2020 18:30:17 13.9 C 29 %
1696 19-03-2020 18:40:17 13.5 C 30 %
1697 19-03-2020 18:50:17 12.8 C 31 %
1698 19-03-2020 18:59:18 12.7 C 31 %
1699 19-03-2020 19:09:18 12.3 C 31 %
1700 19-03-2020 19:20:17 12.2 C 31 %
Sensor: Nr:Datum:Temp:Feuchte:
Aussen-T/F 1701 19-03-2020 19:30:17 11.9 C 32 %
1702 19-03-2020 19:40:17 11.7 C 32 %
1703 19-03-2020 19:50:17 11.7 C 33 %
1704 19-03-2020 19:59:17 11.7 C 33 %
1705 19-03-2020 20:09:17 11.7 C 33 %
1706 19-03-2020 20:29:17 11.5 C 34 %
1707 19-03-2020 20:29:17 11.6 C 34 %
1708 19-03-2020 20:39:17 12 C 33 %
1709 19-03-2020 20:49:17 11.8 C 34 %
1710 19-03-2020 20:59:17 11.5 C 35 %
1711 19-03-2020 21:09:18 12 C 33 %
1712 19-03-2020 21:20:17 11.4 C 35 %
1713 19-03-2020 21:30:17 11.3 C 35 %
1714 19-03-2020 21:40:17 10.3 C 36 %
1715 19-03-2020 21:50:17 10.7 C 36 %
1716 19-03-2020 21:59:18 10.6 C 36 %
1717 19-03-2020 22:09:18 10.1 C 37 %
1718 19-03-2020 22:19:18 9.7 C 38 %
1719 19-03-2020 22:29:18 9.8 C 38 %
1720 19-03-2020 22:39:18 9.5 C 39 %
1721 19-03-2020 22:49:18 9.4 C 39 %
1722 19-03-2020 22:59:18 9.5 C 38 %
1723 19-03-2020 23:09:18 9.5 C 38 %
1724 19-03-2020 23:20:17 9.4 C 39 %
1725 19-03-2020 23:30:17 9.2 C 39 %
Sensor: Nr:Datum:Temp:Feuchte:
Aussen-T/F 1726 19-03-2020 23:40:17 9.6 C 38 %
1727 19-03-2020 23:50:17 9.1 C 39 %
1728 19-03-2020 23:59:18 8.7 C 40 %
1729 20-03-2020 00:09:18 8.6 C 40 %
1730 20-03-2020 00:19:18 9.3 C 39 %
1731 20-03-2020 00:29:18 9.1 C 39 %
1732 20-03-2020 00:39:18 9 C 39 %
1733 20-03-2020 00:59:17 8.8 C 40 %
1734 20-03-2020 01:00:18 8.8 C 40 %
1735 20-03-2020 01:10:18 8.7 C 40 %
1736 20-03-2020 01:20:17 8.7 C 40 %
1737 20-03-2020 01:30:18 8.6 C 40 %
1738 20-03-2020 01:40:18 8.4 C 40 %
1739 20-03-2020 01:50:17 8.5 C 40 %
1740 20-03-2020 02:00:18 8.3 C 40 %
1741 20-03-2020 02:10:18 7.9 C 40 %
1742 20-03-2020 02:20:17 7.6 C 41 %
1743 20-03-2020 02:30:17 7.4 C 41 %
1744 20-03-2020 02:40:17 7.4 C 41 %
1745 20-03-2020 02:50:17 7.1 C 41 %
1746 20-03-2020 03:00:17 7.1 C 42 %
1747 20-03-2020 03:10:17 7.1 C 42 %
1748 20-03-2020 03:20:17 7.1 C 42 %
1749 20-03-2020 03:30:18 7.2 C 42 %
1750 20-03-2020 03:40:18 7.3 C 42 %
Sensor: Nr:Datum:Temp:Feuchte:
Aussen-T/F 1751 20-03-2020 03:50:17 7.5 C 42 %
1752 20-03-2020 04:00:18 7.5 C 42 %
1753 20-03-2020 04:10:18 7.7 C 42 %
1754 20-03-2020 04:20:18 7.6 C 41 %
1755 20-03-2020 04:30:18 7.4 C 42 %
1756 20-03-2020 04:40:18 7.2 C 42 %
1757 20-03-2020 04:50:17 7 C 42 %
1758 20-03-2020 05:00:18 6.9 C 43 %
1759 20-03-2020 05:10:18 6.8 C 43 %
1760 20-03-2020 05:20:17 6.5 C 43 %
1761 20-03-2020 05:30:17 6.2 C 43 %
1762 20-03-2020 05:40:17 5.9 C 44 %
1763 20-03-2020 05:50:17 5.6 C 44 %
1764 20-03-2020 06:00:17 5.4 C 45 %
1765 20-03-2020 06:10:17 5.2 C 45 %
1766 20-03-2020 06:20:17 5 C 45 %
1767 20-03-2020 06:30:17 5.1 C 46 %
1768 20-03-2020 06:40:17 5 C 46 %
1769 20-03-2020 06:50:17 5 C 46 %
1770 20-03-2020 07:00:17 5.1 C 46 %
1771 20-03-2020 07:10:17 5.3 C 46 %
1772 20-03-2020 07:20:17 5.5 C 46 %
1773 20-03-2020 07:30:17 5.6 C 46 %
1774 20-03-2020 07:40:17 5.7 C 46 %
1775 20-03-2020 07:50:18 5.8 C 46 %
Sensor: Nr:Datum:Temp:Feuchte:
Aussen-T/F 1776 20-03-2020 08:00:17 6.3 C 46 %
1777 20-03-2020 08:10:17 6.9 C 45 %
1778 20-03-2020 08:20:17 7.2 C 43 %
1779 20-03-2020 08:30:17 7.1 C 43 %
1780 20-03-2020 08:40:17 7.1 C 43 %
1781 20-03-2020 08:50:17 7.3 C 43 %
1782 20-03-2020 09:00:17 8 C 43 %
1783 20-03-2020 09:10:17 8.2 C 42 %
1784 20-03-2020 09:20:17 9.6 C 42 %
1785 20-03-2020 09:30:17 10 C 40 %
1786 20-03-2020 09:40:17 10.2 C 40 %
1787 20-03-2020 09:50:17 10.5 C 39 %
1788 20-03-2020 10:00:18 10.8 C 39 %
1789 20-03-2020 10:10:18 11.2 C 38 %
1790 20-03-2020 10:20:18 11.1 C 37 %
1791 20-03-2020 10:30:18 11 C 37 %
1792 20-03-2020 10:40:18 11.5 C 37 %
1793 20-03-2020 10:50:18 12.6 C 36 %
1794 20-03-2020 11:00:17 13.1 C 35 %
1795 20-03-2020 11:10:18 13.1 C 35 %
1796 20-03-2020 11:20:18 14.2 C 33 %
1797 20-03-2020 11:30:18 14.5 C 32 %
1798 20-03-2020 11:40:18 15.3 C 31 %
1799 20-03-2020 11:50:18 14.6 C 32 %
1800 20-03-2020 12:00:17 15.6 C 31 %
Sensor: Nr:Datum:Temp:Feuchte:
Aussen-T/F 1801 20-03-2020 12:10:17 15.4 C 30 %
1802 20-03-2020 12:20:17 15.6 C 30 %
1803 20-03-2020 12:30:18 14.4 C 31 %
1804 20-03-2020 12:40:18 14.9 C 31 %
1805 20-03-2020 12:50:18 14.9 C 31 %
1806 20-03-2020 13:00:18 14.9 C 31 %
1807 20-03-2020 13:10:18 14.9 C 31 %
1808 20-03-2020 13:20:18 14.9 C 31 %
1809 20-03-2020 13:30:18 14.9 C 31 %
1810 20-03-2020 13:40:18 14.9 C 31 %
1811 20-03-2020 13:50:17 16.4 C 26 %
1812 20-03-2020 14:00:17 16.2 C 27 %
1813 20-03-2020 14:10:17 16.6 C 26 %
1814 20-03-2020 14:20:17 16.2 C 27 %
1815 20-03-2020 14:30:18 17.4 C 26 %
1816 20-03-2020 14:40:18 17.3 C 26 %
1817 20-03-2020 14:50:18 17.9 C 25 %
1818 20-03-2020 15:00:17 17.9 C 25 %
1819 20-03-2020 15:10:17 18.1 C 25 %
1820 20-03-2020 15:20:17 17 C 25 %
1821 20-03-2020 15:30:18 17.9 C 25 %
1822 20-03-2020 15:40:18 18.5 C 25 %
1823 20-03-2020 15:50:18 17 C 25 %
1824 20-03-2020 16:00:17 16.2 C 26 %
1825 20-03-2020 16:10:17 16.1 C 26 %
Sensor: Nr:Datum:Temp:Feuchte:
Aussen-T/F 1826 20-03-2020 16:20:17 15.5 C 26 %
1827 20-03-2020 16:30:18 15.8 C 26 %
1828 20-03-2020 16:40:18 15.3 C 26 %
1829 20-03-2020 16:50:18 17 C 25 %
1830 20-03-2020 17:00:18 16.1 C 26 %
1831 20-03-2020 17:10:18 15.2 C 27 %
1832 20-03-2020 17:20:18 14.3 C 28 %
1833 20-03-2020 17:30:18 13.9 C 30 %
1834 20-03-2020 17:40:18 12.8 C 31 %
1835 20-03-2020 17:50:17 12.5 C 31 %
1836 20-03-2020 18:00:17 12.4 C 32 %
1837 20-03-2020 18:10:17 11.9 C 33 %
1838 20-03-2020 18:20:17 11.8 C 34 %
1839 20-03-2020 18:30:17 11.6 C 34 %
1840 20-03-2020 18:40:17 11.6 C 34 %
1841 20-03-2020 18:50:18 11.5 C 34 %
1842 20-03-2020 19:00:17 11.5 C 34 %
1843 20-03-2020 19:10:17 11.3 C 34 %
1844 20-03-2020 19:20:17 11.1 C 34 %
1845 20-03-2020 19:30:17 11 C 35 %
1846 20-03-2020 19:40:17 10.7 C 35 %
1847 20-03-2020 19:50:17 10.6 C 35 %
1848 20-03-2020 20:00:17 10.4 C 35 %
1849 20-03-2020 20:10:17 10.2 C 35 %
1850 20-03-2020 20:20:17 10.3 C 35 %
Sensor: Nr:Datum:Temp:Feuchte:
Aussen-T/F 1851 20-03-2020 20:30:17 10.3 C 35 %
1852 20-03-2020 20:40:17 10.2 C 35 %
1853 20-03-2020 20:50:18 10.3 C 35 %
1854 20-03-2020 21:00:18 10.1 C 35 %
1855 20-03-2020 21:10:18 9.9 C 35 %
1856 20-03-2020 21:20:17 9.5 C 35 %
1857 20-03-2020 21:30:17 9.2 C 35 %
1858 20-03-2020 21:40:17 9.1 C 35 %
1859 20-03-2020 21:50:17 8.7 C 36 %
1860 20-03-2020 22:00:17 8.5 C 36 %
1861 20-03-2020 22:10:17 8.4 C 36 %
1862 20-03-2020 22:20:18 8.3 C 36 %
1863 20-03-2020 22:30:17 8.2 C 36 %
1864 20-03-2020 22:40:18 8.1 C 36 %
1865 20-03-2020 22:50:17 8.1 C 36 %
1866 20-03-2020 23:00:18 8 C 35 %
1867 20-03-2020 23:10:18 7.9 C 36 %
1868 20-03-2020 23:20:17 7.9 C 36 %
1869 20-03-2020 23:30:18 7.9 C 35 %
1870 20-03-2020 23:40:18 7.8 C 35 %
1871 20-03-2020 23:50:18 7.7 C 35 %
1872 21-03-2020 00:00:17 7.6 C 34 %
1873 21-03-2020 00:10:17 7.6 C 34 %
1874 21-03-2020 00:20:17 7.4 C 34 %
1875 21-03-2020 00:30:17 7.3 C 34 %
Sensor: Nr:Datum:Temp:Feuchte:
Aussen-T/F 1876 21-03-2020 00:40:17 7.3 C 34 %
1877 21-03-2020 00:50:17 7.3 C 34 %
1878 21-03-2020 01:00:17 7.2 C 33 %
1879 21-03-2020 01:10:17 7.1 C 33 %
1880 21-03-2020 01:20:17 6.8 C 35 %
1881 21-03-2020 01:30:18 6.5 C 35 %
1882 21-03-2020 01:40:18 6.2 C 36 %
1883 21-03-2020 01:50:17 5.9 C 38 %
1884 21-03-2020 02:00:18 5.6 C 39 %
1885 21-03-2020 02:10:18 5.3 C 40 %
1886 21-03-2020 02:20:17 5.1 C 41 %
1887 21-03-2020 02:30:18 4.9 C 43 %
1888 21-03-2020 02:40:18 4.9 C 43 %
1889 21-03-2020 02:50:18 4.6 C 43 %
1890 21-03-2020 03:00:17 4.5 C 43 %
1891 21-03-2020 03:10:17 4.4 C 44 %
1892 21-03-2020 03:20:17 4.5 C 45 %
1893 21-03-2020 03:30:18 4.5 C 45 %
1894 21-03-2020 03:40:18 4.4 C 45 %
1895 21-03-2020 03:50:17 4.4 C 45 %
1896 21-03-2020 04:00:18 4.3 C 45 %
1897 21-03-2020 04:10:18 4.2 C 45 %
1898 21-03-2020 04:20:17 4.1 C 45 %
1899 21-03-2020 04:30:18 4.1 C 45 %
1900 21-03-2020 04:40:18 4 C 45 %
Sensor: Nr:Datum:Temp:Feuchte:
Aussen-T/F 1901 21-03-2020 04:50:18 3.9 C 46 %
1902 21-03-2020 05:00:18 3.9 C 46 %
1903 21-03-2020 05:10:18 4 C 46 %
1904 21-03-2020 05:20:18 3.9 C 47 %
1905 21-03-2020 05:30:18 3.9 C 47 %
1906 21-03-2020 05:40:18 3.9 C 47 %
1907 21-03-2020 05:50:17 4 C 46 %
1908 21-03-2020 06:00:18 4 C 47 %
1909 21-03-2020 06:10:18 3.9 C 47 %
1910 21-03-2020 06:20:17 4 C 47 %
1911 21-03-2020 06:30:18 4 C 47 %
1912 21-03-2020 06:40:18 4 C 47 %
1913 21-03-2020 06:50:17 4 C 47 %
1914 21-03-2020 07:00:17 4.1 C 47 %
1915 21-03-2020 07:10:18 4.1 C 47 %
1916 21-03-2020 07:20:18 4.1 C 47 %
1917 21-03-2020 07:30:18 4.2 C 47 %
1918 21-03-2020 07:40:18 4.3 C 47 %
1919 21-03-2020 07:50:17 4.3 C 47 %
1920 21-03-2020 08:00:18 4.4 C 47 %
1921 21-03-2020 08:10:18 4.5 C 47 %
1922 21-03-2020 08:20:17 4.5 C 46 %
1923 21-03-2020 08:30:17 4.6 C 46 %
1924 21-03-2020 08:40:17 4.7 C 46 %
1925 21-03-2020 08:50:18 4.8 C 46 %
Sensor: Nr:Datum:Temp:Feuchte:
Aussen-T/F 1926 21-03-2020 09:00:18 4.7 C 46 %
1927 21-03-2020 09:10:18 4.6 C 45 %
1928 21-03-2020 09:20:18 5.2 C 43 %
1929 21-03-2020 09:30:18 5.6 C 42 %
1930 21-03-2020 09:40:18 5.8 C 41 %
1931 21-03-2020 09:50:17 6 C 41 %
1932 21-03-2020 10:00:17 6.2 C 41 %
1933 21-03-2020 10:10:18 6.4 C 39 %
1934 21-03-2020 10:20:18 6.5 C 40 %
1935 21-03-2020 10:30:18 6.7 C 39 %
1936 21-03-2020 10:40:18 6.7 C 38 %
1937 21-03-2020 10:50:17 6.4 C 39 %
1938 21-03-2020 11:00:17 6.5 C 37 %
1939 21-03-2020 11:10:18 7.1 C 36 %
1940 21-03-2020 11:20:18 7.3 C 36 %
1941 21-03-2020 11:30:18 8.1 C 34 %
1942 21-03-2020 11:40:18 8 C 34 %
1943 21-03-2020 11:50:18 8.3 C 32 %
1944 21-03-2020 12:00:18 7.8 C 32 %
1945 21-03-2020 12:10:18 7.6 C 33 %
1946 21-03-2020 12:20:17 7.9 C 31 %
1947 21-03-2020 12:30:17 8.7 C 32 %
1948 21-03-2020 12:40:17 8.2 C 30 %
1949 21-03-2020 12:50:17 7.8 C 31 %
1950 21-03-2020 13:00:17 7.9 C 30 %
Sensor: Nr:Datum:Temp:Feuchte:
Aussen-T/F 1951 21-03-2020 13:10:17 8.7 C 30 %
1952 21-03-2020 13:20:18 8.9 C 28 %
1953 21-03-2020 13:30:18 8.5 C 28 %
1954 21-03-2020 13:40:18 8.2 C 27 %
1955 21-03-2020 13:50:17 8.4 C 27 %
1956 21-03-2020 14:00:18 8.6 C 27 %
1957 21-03-2020 14:10:18 9.1 C 26 %
1958 21-03-2020 14:20:18 8.7 C 27 %
1959 21-03-2020 14:30:18 9.1 C 25 %
1960 21-03-2020 14:40:18 11.1 C 24 %
1961 21-03-2020 14:50:17 9.8 C 23 %
1962 21-03-2020 15:00:18 11 C 20 %
1963 21-03-2020 15:10:18 10.1 C 20 %
1964 21-03-2020 15:20:17 11.2 C 20 %
1965 21-03-2020 15:30:17 11.7 C 20 %
1966 21-03-2020 15:40:17 9.4 C 20 %
1967 21-03-2020 15:50:17 8.6 C 20 %
1968 21-03-2020 16:00:18 9.4 C 20 %
1969 21-03-2020 16:10:18 9.5 C 20 %
1970 21-03-2020 16:20:17 12.1 C 20 %
1971 21-03-2020 16:30:17 12 C 20 %
1972 21-03-2020 16:40:17 13.3 C 20 %
1973 21-03-2020 16:50:17 10.9 C 20 %
1974 21-03-2020 17:00:17 9.2 C 20 %
1975 21-03-2020 17:10:17 8.9 C 20 %
Sensor: Nr:Datum:Temp:Feuchte:
Aussen-T/F 1976 21-03-2020 17:20:17 8.3 C 20 %
1977 21-03-2020 17:30:18 7.8 C 20 %
1978 21-03-2020 17:40:18 7.8 C 20 %
1979 21-03-2020 17:50:17 7.5 C 20 %
1980 21-03-2020 18:00:17 7 C 20 %
1981 21-03-2020 18:10:17 6.9 C 20 %
1982 21-03-2020 18:20:17 6.6 C 21 %
1983 21-03-2020 18:30:17 6.4 C 23 %
1984 21-03-2020 18:40:17 5.9 C 25 %
1985 21-03-2020 18:50:17 5.5 C 27 %
1986 21-03-2020 19:00:17 5.5 C 26 %
1987 21-03-2020 19:10:17 5.1 C 28 %
1988 21-03-2020 19:20:17 4.7 C 30 %
1989 21-03-2020 19:30:18 4.4 C 31 %
1990 21-03-2020 19:40:18 4.5 C 30 %
1991 21-03-2020 19:50:17 4.4 C 29 %
1992 21-03-2020 20:00:18 4.1 C 30 %
1993 21-03-2020 20:10:18 3.7 C 31 %
1994 21-03-2020 20:20:18 3.2 C 33 %
1995 21-03-2020 20:30:18 3.7 C 32 %
1996 21-03-2020 20:40:18 3.9 C 30 %
1997 21-03-2020 20:50:17 3.6 C 31 %
1998 21-03-2020 21:00:18 3.3 C 32 %
1999 21-03-2020 21:10:18 3 C 32 %
2000 21-03-2020 21:20:18 3.4 C 32 %
Sensor: Nr:Datum:Temp:Feuchte:
Aussen-T/F 2001 21-03-2020 21:30:18 3.1 C 31 %
2002 21-03-2020 21:40:18 2.9 C 32 %
2003 21-03-2020 21:50:17 2.6 C 33 %
2004 21-03-2020 22:00:17 1.9 C 36 %
2005 21-03-2020 22:10:17 2.3 C 34 %
2006 21-03-2020 22:20:17 3 C 32 %
2007 21-03-2020 22:30:18 2.7 C 32 %
2008 21-03-2020 22:40:18 2.3 C 33 %
2009 21-03-2020 22:50:18 2.7 C 32 %
2010 21-03-2020 23:00:18 2 C 34 %
2011 21-03-2020 23:10:18 2.2 C 33 %
2012 21-03-2020 23:20:18 1.6 C 35 %
2013 21-03-2020 23:30:18 1.7 C 35 %
2014 21-03-2020 23:40:18 1.8 C 35 %
2015 21-03-2020 23:50:17 1.7 C 35 %
Sensor: Nr:Datum:Temp:Feuchte:
G-T/H 1 08-03-2020 00:08:18 9.6 C 74 %
2 08-03-2020 00:18:18 9.6 C 74 %
3 08-03-2020 00:28:18 9.6 C 74 %
4 08-03-2020 00:38:18 9.6 C 74 %
5 08-03-2020 00:48:18 9.6 C 74 %
6 08-03-2020 00:58:18 9.6 C 74 %
7 08-03-2020 01:08:17 9.6 C 74 %
8 08-03-2020 01:18:17 9.6 C 74 %
9 08-03-2020 01:28:17 9.6 C 75 %
10 08-03-2020 01:38:17 9.6 C 74 %
11 08-03-2020 01:49:17 9.6 C 75 %
12 08-03-2020 01:59:17 9.6 C 75 %
13 08-03-2020 02:09:17 9.6 C 75 %
14 08-03-2020 02:19:17 9.6 C 75 %
15 08-03-2020 02:29:17 9.6 C 75 %
16 08-03-2020 02:38:17 9.6 C 75 %
17 08-03-2020 02:48:17 9.6 C 75 %
18 08-03-2020 02:58:17 9.6 C 75 %
19 08-03-2020 03:08:18 9.6 C 75 %
20 08-03-2020 03:19:17 9.6 C 75 %
21 08-03-2020 03:29:17 9.6 C 75 %
22 08-03-2020 03:39:17 9.6 C 75 %
23 08-03-2020 03:48:18 9.6 C 75 %
24 08-03-2020 03:58:18 9.6 C 75 %
25 08-03-2020 04:08:18 9.6 C 75 %
Sensor: Nr:Datum:Temp:Feuchte:
G-T/H 26 08-03-2020 04:19:17 9.6 C 75 %
27 08-03-2020 04:29:17 9.6 C 75 %
28 08-03-2020 04:39:17 9.6 C 75 %
29 08-03-2020 04:49:17 9.6 C 75 %
30 08-03-2020 04:59:17 9.6 C 75 %
31 08-03-2020 05:09:17 9.6 C 75 %
32 08-03-2020 05:19:17 9.6 C 75 %
33 08-03-2020 05:29:17 9.6 C 75 %
34 08-03-2020 05:39:17 9.6 C 75 %
35 08-03-2020 05:49:17 9.6 C 75 %
36 08-03-2020 05:59:17 9.6 C 75 %
37 08-03-2020 06:09:17 9.6 C 75 %
38 08-03-2020 06:19:17 9.6 C 75 %
39 08-03-2020 06:29:18 9.6 C 75 %
40 08-03-2020 06:39:18 9.6 C 75 %
41 08-03-2020 06:49:17 9.6 C 75 %
42 08-03-2020 06:59:17 9.6 C 75 %
43 08-03-2020 07:09:17 9.6 C 75 %
44 08-03-2020 07:19:17 9.6 C 75 %
45 08-03-2020 07:29:17 9.6 C 75 %
46 08-03-2020 07:39:17 9.6 C 75 %
47 08-03-2020 07:49:17 9.6 C 75 %
48 08-03-2020 07:59:17 9.6 C 75 %
49 08-03-2020 08:09:17 9.6 C 75 %
50 08-03-2020 08:19:17 9.6 C 75 %
Sensor: Nr:Datum:Temp:Feuchte:
G-T/H 51 08-03-2020 08:29:17 9.6 C 75 %
52 08-03-2020 08:39:17 9.6 C 75 %
53 08-03-2020 08:49:17 9.6 C 75 %
54 08-03-2020 08:59:17 9.6 C 75 %
55 08-03-2020 09:09:17 9.6 C 75 %
56 08-03-2020 09:19:17 9.6 C 75 %
57 08-03-2020 09:29:18 9.6 C 75 %
58 08-03-2020 09:39:17 9.6 C 75 %
59 08-03-2020 09:49:17 9.6 C 75 %
60 08-03-2020 09:59:17 9.6 C 75 %
61 08-03-2020 10:09:17 9.6 C 75 %
62 08-03-2020 10:19:17 9.7 C 75 %
63 08-03-2020 10:29:17 9.7 C 75 %
64 08-03-2020 10:39:17 9.7 C 75 %
65 08-03-2020 10:49:17 9.7 C 75 %
66 08-03-2020 10:59:18 9.7 C 75 %
67 08-03-2020 11:09:17 9.7 C 75 %
68 08-03-2020 11:19:16 9.7 C 75 %
69 08-03-2020 11:29:16 9.7 C 75 %
70 08-03-2020 11:39:17 9.7 C 75 %
71 08-03-2020 11:49:16 9.8 C 75 %
72 08-03-2020 11:59:16 9.8 C 75 %
73 08-03-2020 12:09:17 9.8 C 75 %
74 08-03-2020 12:19:17 9.8 C 75 %
75 08-03-2020 12:29:17 9.9 C 75 %
Sensor: Nr:Datum:Temp:Feuchte:
G-T/H 76 08-03-2020 12:39:17 9.8 C 75 %
77 08-03-2020 12:49:17 9.9 C 75 %
78 08-03-2020 12:59:18 9.9 C 75 %
79 08-03-2020 13:09:17 9.9 C 75 %
80 08-03-2020 13:19:16 10 C 74 %
81 08-03-2020 13:29:16 10 C 74 %
82 08-03-2020 13:39:16 10 C 74 %
83 08-03-2020 13:49:17 10 C 74 %
84 08-03-2020 13:59:17 10 C 74 %
85 08-03-2020 14:09:17 10 C 74 %
86 08-03-2020 14:19:16 10.1 C 74 %
87 08-03-2020 14:29:16 10.1 C 74 %
88 08-03-2020 14:39:16 10.1 C 74 %
89 08-03-2020 14:49:16 10.1 C 74 %
90 08-03-2020 14:59:16 10.1 C 74 %
91 08-03-2020 15:09:16 10.1 C 74 %
92 08-03-2020 15:19:17 10.2 C 74 %
93 08-03-2020 15:29:17 10.2 C 74 %
94 08-03-2020 15:39:17 10.2 C 74 %
95 08-03-2020 15:49:17 10.2 C 74 %
96 08-03-2020 15:59:17 10.2 C 74 %
97 08-03-2020 16:09:17 10.2 C 74 %
98 08-03-2020 16:19:17 10.2 C 74 %
99 08-03-2020 16:29:17 10.3 C 74 %
100 08-03-2020 16:39:17 10.3 C 74 %
Sensor: Nr:Datum:Temp:Feuchte:
G-T/H 101 08-03-2020 16:49:17 10.3 C 74 %
102 08-03-2020 16:59:17 10.4 C 74 %
103 08-03-2020 17:09:17 10.4 C 74 %
104 08-03-2020 17:19:17 10.4 C 74 %
105 08-03-2020 17:29:17 10.4 C 74 %
106 08-03-2020 17:39:17 10.4 C 74 %
107 08-03-2020 17:49:16 10.4 C 74 %
108 08-03-2020 17:59:16 10.5 C 74 %
109 08-03-2020 18:09:17 10.5 C 74 %
110 08-03-2020 18:19:17 10.4 C 75 %
111 08-03-2020 18:29:18 10.5 C 75 %
112 08-03-2020 18:39:17 10.5 C 75 %
113 08-03-2020 18:49:16 10.5 C 75 %
114 08-03-2020 18:59:16 10.5 C 75 %
115 08-03-2020 19:09:17 10.5 C 75 %
116 08-03-2020 19:19:16 10.5 C 75 %
117 08-03-2020 19:29:16 10.5 C 75 %
118 08-03-2020 19:39:17 10.5 C 75 %
119 08-03-2020 19:49:16 10.6 C 75 %
120 08-03-2020 19:59:16 10.6 C 75 %
121 08-03-2020 20:09:16 10.6 C 75 %
122 08-03-2020 20:19:16 10.6 C 75 %
123 08-03-2020 20:29:16 10.6 C 75 %
124 08-03-2020 20:39:17 10.6 C 75 %
125 08-03-2020 20:49:16 10.6 C 75 %
Sensor: Nr:Datum:Temp:Feuchte:
G-T/H 126 08-03-2020 20:59:16 10.6 C 75 %
127 08-03-2020 21:09:17 10.7 C 75 %
128 08-03-2020 21:19:17 10.7 C 75 %
129 08-03-2020 21:29:17 10.6 C 75 %
130 08-03-2020 21:39:17 10.6 C 75 %
131 08-03-2020 21:49:17 10.7 C 75 %
132 08-03-2020 21:59:17 10.7 C 75 %
133 08-03-2020 22:09:17 10.7 C 75 %
134 08-03-2020 22:19:16 10.7 C 75 %
135 08-03-2020 22:29:16 10.7 C 75 %
136 08-03-2020 22:39:17 10.7 C 75 %
137 08-03-2020 22:49:16 10.7 C 75 %
138 08-03-2020 22:59:16 10.7 C 75 %
139 08-03-2020 23:09:16 10.7 C 75 %
140 08-03-2020 23:19:16 10.7 C 75 %
141 08-03-2020 23:29:16 10.7 C 75 %
142 08-03-2020 23:39:16 10.7 C 75 %
143 08-03-2020 23:49:16 10.7 C 75 %
144 08-03-2020 23:59:16 10.7 C 75 %
145 09-03-2020 00:09:17 10.7 C 75 %
146 09-03-2020 00:19:16 10.7 C 75 %
147 09-03-2020 00:29:16 10.7 C 75 %
148 09-03-2020 00:39:16 10.7 C 75 %
149 09-03-2020 00:49:16 10.7 C 75 %
150 09-03-2020 00:59:16 10.7 C 75 %
Sensor: Nr:Datum:Temp:Feuchte:
G-T/H 151 09-03-2020 01:09:16 10.7 C 75 %
152 09-03-2020 01:19:16 10.7 C 75 %
153 09-03-2020 01:29:16 10.7 C 75 %
154 09-03-2020 01:39:16 10.7 C 75 %
155 09-03-2020 01:49:16 10.7 C 75 %
156 09-03-2020 01:59:16 10.7 C 75 %
157 09-03-2020 02:09:16 10.7 C 75 %
158 09-03-2020 02:19:16 10.7 C 75 %
159 09-03-2020 02:29:16 10.7 C 75 %
160 09-03-2020 02:39:16 10.7 C 75 %
161 09-03-2020 02:49:17 10.7 C 75 %
162 09-03-2020 02:59:17 10.7 C 75 %
163 09-03-2020 03:09:17 10.7 C 75 %
164 09-03-2020 03:19:17 10.7 C 75 %
165 09-03-2020 03:29:17 10.7 C 75 %
166 09-03-2020 03:39:17 10.7 C 75 %
167 09-03-2020 03:49:17 10.7 C 75 %
168 09-03-2020 03:59:17 10.7 C 75 %
169 09-03-2020 04:09:17 10.7 C 75 %
170 09-03-2020 04:19:17 10.7 C 75 %
171 09-03-2020 04:29:17 10.7 C 75 %
172 09-03-2020 04:39:18 10.7 C 75 %
173 09-03-2020 04:49:17 10.7 C 75 %
174 09-03-2020 04:59:17 10.7 C 75 %
175 09-03-2020 05:09:18 10.7 C 75 %
Sensor: Nr:Datum:Temp:Feuchte:
G-T/H 176 09-03-2020 05:19:17 10.7 C 75 %
177 09-03-2020 05:29:17 10.7 C 75 %
178 09-03-2020 05:39:17 10.7 C 75 %
179 09-03-2020 05:49:17 10.6 C 75 %
180 09-03-2020 05:59:17 10.6 C 75 %
181 09-03-2020 06:09:17 10.6 C 75 %
182 09-03-2020 06:19:17 10.6 C 75 %
183 09-03-2020 06:29:17 10.6 C 75 %
184 09-03-2020 06:39:18 10.6 C 75 %
185 09-03-2020 06:49:17 10.6 C 75 %
186 09-03-2020 06:59:18 10.6 C 75 %
187 09-03-2020 07:09:18 10.6 C 75 %
188 09-03-2020 07:19:18 10.5 C 75 %
189 09-03-2020 07:29:18 10.5 C 75 %
190 09-03-2020 07:39:17 10.5 C 75 %
191 09-03-2020 07:49:17 10.5 C 75 %
192 09-03-2020 07:59:17 10.5 C 75 %
193 09-03-2020 08:09:17 10.5 C 75 %
194 09-03-2020 08:19:17 10.5 C 74 %
195 09-03-2020 08:29:17 10.5 C 74 %
196 09-03-2020 08:39:18 10.5 C 74 %
197 09-03-2020 08:49:17 10.5 C 74 %
198 09-03-2020 08:59:17 10.5 C 74 %
199 09-03-2020 09:09:17 10.5 C 74 %
200 09-03-2020 09:19:17 10.4 C 74 %
Sensor: Nr:Datum:Temp:Feuchte:
G-T/H 201 09-03-2020 09:29:17 10.4 C 74 %
202 09-03-2020 09:39:17 10.5 C 74 %
203 09-03-2020 09:49:17 10.5 C 74 %
204 09-03-2020 09:59:17 10.4 C 74 %
205 09-03-2020 10:09:17 10.4 C 74 %
206 09-03-2020 10:19:17 10.4 C 74 %
207 09-03-2020 10:29:17 10.4 C 74 %
208 09-03-2020 10:39:17 10.4 C 74 %
209 09-03-2020 10:49:17 10.4 C 74 %
210 09-03-2020 10:59:17 10.4 C 74 %
211 09-03-2020 11:09:17 10.4 C 74 %
212 09-03-2020 11:19:17 10.4 C 74 %
213 09-03-2020 11:29:17 10.4 C 74 %
214 09-03-2020 11:39:17 10.4 C 74 %
215 09-03-2020 11:49:17 10.4 C 74 %
216 09-03-2020 11:59:17 10.4 C 74 %
217 09-03-2020 12:09:18 10.4 C 74 %
218 09-03-2020 12:19:18 10.4 C 74 %
219 09-03-2020 12:29:18 10.4 C 74 %
220 09-03-2020 12:39:18 10.4 C 74 %
221 09-03-2020 12:49:17 10.4 C 74 %
222 09-03-2020 12:59:17 10.4 C 74 %
223 09-03-2020 13:09:17 10.4 C 74 %
224 09-03-2020 13:19:17 10.4 C 74 %
225 09-03-2020 13:29:17 10.5 C 74 %
Sensor: Nr:Datum:Temp:Feuchte:
G-T/H 226 09-03-2020 13:39:17 10.5 C 74 %
227 09-03-2020 13:49:17 10.5 C 74 %
228 09-03-2020 13:59:17 10.5 C 74 %
229 09-03-2020 14:09:17 10.5 C 74 %
230 09-03-2020 14:19:17 10.5 C 74 %
231 09-03-2020 14:29:17 10.5 C 74 %
232 09-03-2020 14:39:17 10.5 C 74 %
233 09-03-2020 14:49:17 10.5 C 74 %
234 09-03-2020 14:59:17 10.5 C 74 %
235 09-03-2020 15:09:18 10.5 C 74 %
236 09-03-2020 15:19:18 10.5 C 74 %
237 09-03-2020 15:29:18 10.5 C 74 %
238 09-03-2020 15:39:18 10.5 C 73 %
239 09-03-2020 15:49:17 10.5 C 73 %
240 09-03-2020 15:59:17 10.5 C 73 %
241 09-03-2020 16:09:18 10.5 C 72 %
242 09-03-2020 16:19:17 10.5 C 72 %
243 09-03-2020 16:29:17 10.5 C 72 %
244 09-03-2020 16:39:17 10.5 C 72 %
245 09-03-2020 16:49:17 10.5 C 72 %
246 09-03-2020 16:59:18 10.5 C 72 %
247 09-03-2020 17:09:18 10.5 C 72 %
248 09-03-2020 17:19:17 10.6 C 72 %
249 09-03-2020 17:29:17 10.6 C 72 %
250 09-03-2020 17:39:18 10.6 C 72 %
Sensor: Nr:Datum:Temp:Feuchte:
G-T/H 251 09-03-2020 17:49:17 10.6 C 72 %
252 09-03-2020 17:59:18 10.6 C 72 %
253 09-03-2020 18:09:18 10.6 C 72 %
254 09-03-2020 18:19:17 10.6 C 72 %
255 09-03-2020 18:29:17 10.6 C 72 %
256 09-03-2020 18:39:17 10.6 C 73 %
257 09-03-2020 18:49:17 10.6 C 73 %
258 09-03-2020 18:59:17 10.6 C 73 %
259 09-03-2020 19:09:18 10.5 C 73 %
260 09-03-2020 19:19:17 10.6 C 73 %
261 09-03-2020 19:29:17 10.6 C 73 %
262 09-03-2020 19:39:17 10.6 C 73 %
263 09-03-2020 19:49:18 10.6 C 73 %
264 09-03-2020 19:59:18 10.6 C 73 %
265 09-03-2020 20:09:17 10.6 C 73 %
266 09-03-2020 20:19:17 10.6 C 73 %
267 09-03-2020 20:29:17 10.6 C 73 %
268 09-03-2020 20:39:18 10.6 C 73 %
269 09-03-2020 20:49:18 10.6 C 73 %
270 09-03-2020 20:59:18 10.6 C 73 %
271 09-03-2020 21:09:17 10.6 C 73 %
272 09-03-2020 21:19:17 10.6 C 73 %
273 09-03-2020 21:29:17 10.5 C 73 %
274 09-03-2020 21:39:17 10.5 C 73 %
275 09-03-2020 21:49:18 10.5 C 73 %
Sensor: Nr:Datum:Temp:Feuchte:
G-T/H 276 09-03-2020 21:59:18 10.5 C 73 %
277 09-03-2020 22:09:18 10.5 C 73 %
278 09-03-2020 22:19:17 10.5 C 73 %
279 09-03-2020 22:29:17 10.5 C 73 %
280 09-03-2020 22:39:17 10.5 C 73 %
281 09-03-2020 22:49:17 10.4 C 73 %
282 09-03-2020 22:59:17 10.4 C 73 %
283 09-03-2020 23:09:18 10.4 C 73 %
284 09-03-2020 23:19:17 10.4 C 73 %
285 09-03-2020 23:29:17 10.4 C 73 %
286 09-03-2020 23:39:17 10.4 C 73 %
287 09-03-2020 23:49:17 10.4 C 73 %
288 09-03-2020 23:59:17 10.4 C 73 %
289 10-03-2020 00:09:17 10.4 C 73 %
290 10-03-2020 00:19:18 10.4 C 72 %
291 10-03-2020 00:29:18 10.4 C 72 %
292 10-03-2020 00:39:18 10.3 C 72 %
293 10-03-2020 00:49:18 10.3 C 72 %
294 10-03-2020 00:59:18 10.3 C 72 %
295 10-03-2020 01:09:18 10.3 C 72 %
296 10-03-2020 01:19:17 10.3 C 72 %
297 10-03-2020 01:29:18 10.3 C 72 %
298 10-03-2020 01:39:18 10.3 C 72 %
299 10-03-2020 01:49:17 10.2 C 72 %
300 10-03-2020 01:59:17 10.2 C 72 %
Sensor: Nr:Datum:Temp:Feuchte:
G-T/H 301 10-03-2020 02:09:18 10.2 C 72 %
302 10-03-2020 02:19:17 10.2 C 72 %
303 10-03-2020 02:29:18 10.2 C 72 %
304 10-03-2020 02:39:18 10.2 C 71 %
305 10-03-2020 02:49:17 10.2 C 71 %
306 10-03-2020 02:59:17 10.2 C 71 %
307 10-03-2020 03:09:18 10.2 C 71 %
308 10-03-2020 03:19:18 10.2 C 71 %
309 10-03-2020 03:29:18 10.1 C 71 %
310 10-03-2020 03:39:18 10.1 C 71 %
311 10-03-2020 03:49:17 10.1 C 71 %
312 10-03-2020 03:59:17 10.1 C 71 %
313 10-03-2020 04:09:17 10.1 C 71 %
314 10-03-2020 04:19:17 10.1 C 71 %
315 10-03-2020 04:29:17 10.1 C 71 %
316 10-03-2020 04:39:17 10.1 C 71 %
317 10-03-2020 04:49:17 10.1 C 72 %
318 10-03-2020 04:59:17 10.1 C 72 %
319 10-03-2020 05:09:17 10.1 C 72 %
320 10-03-2020 05:19:17 10.1 C 72 %
321 10-03-2020 05:29:18 10.1 C 72 %
322 10-03-2020 05:39:18 10.1 C 72 %
323 10-03-2020 05:49:18 10.1 C 72 %
324 10-03-2020 05:59:18 10.1 C 72 %
325 10-03-2020 06:09:17 10.1 C 72 %
Sensor: Nr:Datum:Temp:Feuchte:
G-T/H 326 10-03-2020 06:19:17 10.1 C 72 %
327 10-03-2020 06:29:17 10.1 C 72 %
328 10-03-2020 06:39:18 10.1 C 72 %
329 10-03-2020 06:49:17 10.1 C 72 %
330 10-03-2020 06:59:17 10.1 C 72 %
331 10-03-2020 07:09:18 10.1 C 72 %
332 10-03-2020 07:19:18 10.1 C 72 %
333 10-03-2020 07:29:18 10.1 C 72 %
334 10-03-2020 07:39:18 10.1 C 72 %
335 10-03-2020 07:49:18 10 C 72 %
336 10-03-2020 07:59:18 10 C 72 %
337 10-03-2020 08:09:18 10 C 72 %
338 10-03-2020 08:19:18 10 C 73 %
339 10-03-2020 08:29:18 10 C 73 %
340 10-03-2020 08:39:18 10 C 73 %
341 10-03-2020 08:49:18 10 C 73 %
342 10-03-2020 08:59:18 10 C 73 %
343 10-03-2020 09:09:17 10 C 73 %
344 10-03-2020 09:19:17 10 C 73 %
345 10-03-2020 09:29:17 10 C 73 %
346 10-03-2020 09:39:17 10 C 73 %
347 10-03-2020 09:49:17 10 C 73 %
348 10-03-2020 09:59:17 10 C 73 %
349 10-03-2020 10:09:18 10 C 73 %
350 10-03-2020 10:19:18 10 C 73 %
Sensor: Nr:Datum:Temp:Feuchte:
G-T/H 351 10-03-2020 10:29:18 10 C 73 %
352 10-03-2020 10:39:18 10 C 73 %
353 10-03-2020 10:49:18 10 C 73 %
354 10-03-2020 10:59:18 10 C 73 %
355 10-03-2020 11:09:18 10 C 73 %
356 10-03-2020 11:19:18 10 C 73 %
357 10-03-2020 11:29:18 10 C 73 %
358 10-03-2020 11:39:18 10 C 73 %
359 10-03-2020 11:49:17 10 C 73 %
360 10-03-2020 11:59:17 10 C 73 %
361 10-03-2020 12:09:17 10 C 73 %
362 10-03-2020 12:19:17 10 C 73 %
363 10-03-2020 12:29:18 10 C 73 %
364 10-03-2020 12:39:18 10.1 C 73 %
365 10-03-2020 12:49:17 10 C 73 %
366 10-03-2020 12:59:17 10.1 C 73 %
367 10-03-2020 13:09:18 10 C 73 %
368 10-03-2020 13:19:17 10.1 C 74 %
369 10-03-2020 13:29:18 10.1 C 74 %
370 10-03-2020 13:39:18 10.1 C 74 %
371 10-03-2020 13:49:17 10.1 C 74 %
372 10-03-2020 13:59:18 10.1 C 74 %
373 10-03-2020 14:09:18 10.1 C 74 %
374 10-03-2020 14:19:18 10.1 C 74 %
375 10-03-2020 14:29:18 10.1 C 74 %
Sensor: Nr:Datum:Temp:Feuchte:
G-T/H 376 10-03-2020 14:39:18 10.1 C 74 %
377 10-03-2020 14:49:17 10.1 C 74 %
378 10-03-2020 14:59:17 10.2 C 74 %
379 10-03-2020 15:09:18 10.2 C 74 %
380 10-03-2020 15:19:18 10.2 C 74 %
381 10-03-2020 15:29:18 10.2 C 74 %
382 10-03-2020 15:39:18 10.2 C 74 %
383 10-03-2020 15:49:17 10.2 C 74 %
384 10-03-2020 15:59:18 10.3 C 74 %
385 10-03-2020 16:09:18 10.3 C 74 %
386 10-03-2020 16:19:18 10.3 C 74 %
387 10-03-2020 16:29:18 10.3 C 74 %
388 10-03-2020 16:39:18 10.4 C 74 %
389 10-03-2020 16:49:17 10.4 C 74 %
390 10-03-2020 16:59:18 10.4 C 74 %
391 10-03-2020 17:09:18 10.4 C 74 %
392 10-03-2020 17:19:17 10.4 C 74 %
393 10-03-2020 17:29:18 10.4 C 75 %
394 10-03-2020 17:39:18 10.4 C 75 %
395 10-03-2020 17:49:17 10.5 C 75 %
396 10-03-2020 17:59:18 10.5 C 75 %
397 10-03-2020 18:09:18 10.5 C 75 %
398 10-03-2020 18:19:17 10.5 C 75 %
399 10-03-2020 18:29:18 10.5 C 75 %
400 10-03-2020 18:39:18 10.5 C 75 %
Sensor: Nr:Datum:Temp:Feuchte:
G-T/H 401 10-03-2020 18:49:17 10.5 C 75 %
402 10-03-2020 18:59:17 10.5 C 75 %
403 10-03-2020 19:09:18 10.5 C 75 %
404 10-03-2020 19:19:17 10.6 C 75 %
405 10-03-2020 19:29:17 10.6 C 75 %
406 10-03-2020 19:39:17 10.6 C 75 %
407 10-03-2020 19:49:17 10.6 C 75 %
408 10-03-2020 19:59:17 10.6 C 75 %
409 10-03-2020 20:09:17 10.6 C 75 %
410 10-03-2020 20:19:17 10.6 C 75 %
411 10-03-2020 20:29:18 10.6 C 75 %
412 10-03-2020 20:39:18 10.7 C 75 %
413 10-03-2020 20:49:17 10.7 C 75 %
414 10-03-2020 20:59:17 10.7 C 75 %
415 10-03-2020 21:09:18 10.7 C 75 %
416 10-03-2020 21:19:17 10.7 C 75 %
417 10-03-2020 21:29:18 10.8 C 75 %
418 10-03-2020 21:39:18 10.8 C 75 %
419 10-03-2020 21:49:17 10.8 C 75 %
420 10-03-2020 21:59:18 10.8 C 75 %
421 10-03-2020 22:09:18 10.8 C 75 %
422 10-03-2020 22:19:18 10.8 C 76 %
423 10-03-2020 22:29:18 10.8 C 76 %
424 10-03-2020 22:39:18 10.8 C 76 %
425 10-03-2020 22:49:17 10.8 C 76 %
Sensor: Nr:Datum:Temp:Feuchte:
G-T/H 426 10-03-2020 22:59:17 10.8 C 76 %
427 10-03-2020 23:09:18 10.9 C 76 %
428 10-03-2020 23:19:18 10.8 C 76 %
429 10-03-2020 23:29:18 10.9 C 76 %
430 10-03-2020 23:39:18 10.9 C 76 %
431 10-03-2020 23:49:17 10.9 C 76 %
432 10-03-2020 23:59:17 10.9 C 76 %
433 11-03-2020 00:09:17 10.9 C 76 %
434 11-03-2020 00:19:17 11 C 75 %
435 11-03-2020 00:29:17 11 C 75 %
436 11-03-2020 00:39:18 11 C 75 %
437 11-03-2020 00:49:17 11 C 75 %
438 11-03-2020 00:59:17 11 C 75 %
439 11-03-2020 01:09:17 11 C 75 %
440 11-03-2020 01:19:17 11 C 75 %
441 11-03-2020 01:29:17 11 C 75 %
442 11-03-2020 01:39:17 11 C 75 %
443 11-03-2020 01:49:17 11 C 75 %
444 11-03-2020 01:59:17 11.1 C 75 %
445 11-03-2020 02:09:17 11.1 C 75 %
446 11-03-2020 02:19:17 11.1 C 75 %
447 11-03-2020 02:29:17 11.1 C 75 %
448 11-03-2020 02:39:17 11.1 C 75 %
449 11-03-2020 02:49:17 11.1 C 75 %
450 11-03-2020 02:59:17 11.1 C 75 %
Sensor: Nr:Datum:Temp:Feuchte:
G-T/H 451 11-03-2020 03:09:17 11.1 C 75 %
452 11-03-2020 03:19:18 11.1 C 75 %
453 11-03-2020 03:29:18 11.1 C 75 %
454 11-03-2020 03:39:18 11.1 C 75 %
455 11-03-2020 03:49:17 11.2 C 75 %
456 11-03-2020 03:59:18 11.2 C 76 %
457 11-03-2020 04:09:18 11.2 C 76 %
458 11-03-2020 04:19:18 11.2 C 76 %
459 11-03-2020 04:29:18 11.2 C 76 %
460 11-03-2020 04:39:17 11.2 C 76 %
461 11-03-2020 04:49:17 11.2 C 76 %
462 11-03-2020 04:59:17 11.3 C 76 %
463 11-03-2020 05:09:17 11.2 C 76 %
464 11-03-2020 05:19:17 11.2 C 76 %
465 11-03-2020 05:29:17 11.3 C 76 %
466 11-03-2020 05:39:17 11.2 C 76 %
467 11-03-2020 05:49:18 11.3 C 76 %
468 11-03-2020 05:59:18 11.3 C 76 %
469 11-03-2020 06:09:18 11.3 C 76 %
470 11-03-2020 06:19:17 11.3 C 76 %
471 11-03-2020 06:29:17 11.3 C 76 %
472 11-03-2020 06:39:18 11.4 C 76 %
473 11-03-2020 06:49:17 11.4 C 76 %
474 11-03-2020 06:59:17 11.3 C 76 %
475 11-03-2020 07:09:17 11.4 C 76 %
Sensor: Nr:Datum:Temp:Feuchte:
G-T/H 476 11-03-2020 07:19:17 11.4 C 76 %
477 11-03-2020 07:29:17 11.4 C 76 %
478 11-03-2020 07:39:17 11.4 C 76 %
479 11-03-2020 07:49:17 11.4 C 76 %
480 11-03-2020 07:59:18 11.4 C 76 %
481 11-03-2020 08:09:18 11.4 C 76 %
482 11-03-2020 08:19:18 11.4 C 76 %
483 11-03-2020 08:29:18 11.5 C 76 %
484 11-03-2020 08:39:18 11.5 C 76 %
485 11-03-2020 08:49:18 11.5 C 76 %
486 11-03-2020 08:59:18 11.5 C 76 %
487 11-03-2020 09:09:18 11.5 C 76 %
488 11-03-2020 09:19:18 11.5 C 76 %
489 11-03-2020 09:29:18 11.5 C 76 %
490 11-03-2020 09:39:18 11.5 C 76 %
491 11-03-2020 09:49:18 11.5 C 76 %
492 11-03-2020 09:59:18 11.5 C 76 %
493 11-03-2020 10:09:18 11.6 C 76 %
494 11-03-2020 10:19:17 11.6 C 76 %
495 11-03-2020 10:29:17 11.5 C 76 %
496 11-03-2020 10:39:18 11.6 C 76 %
497 11-03-2020 10:49:18 11.6 C 76 %
498 11-03-2020 10:59:18 11.7 C 76 %
499 11-03-2020 11:09:17 11.7 C 76 %
500 11-03-2020 11:19:17 11.7 C 76 %
Sensor: Nr:Datum:Temp:Feuchte:
G-T/H 501 11-03-2020 11:29:17 11.6 C 76 %
502 11-03-2020 11:39:17 11.7 C 76 %
503 11-03-2020 11:49:17 11.7 C 76 %
504 11-03-2020 11:59:17 11.7 C 76 %
505 11-03-2020 12:09:18 11.7 C 76 %
506 11-03-2020 12:19:18 11.7 C 76 %
507 11-03-2020 12:29:18 11.8 C 76 %
508 11-03-2020 12:39:18 11.8 C 76 %
509 11-03-2020 12:49:18 11.8 C 76 %
510 11-03-2020 12:59:18 11.8 C 76 %
511 11-03-2020 13:09:17 11.8 C 76 %
512 11-03-2020 13:19:17 11.8 C 76 %
513 11-03-2020 13:29:17 11.8 C 77 %
514 11-03-2020 13:39:17 11.9 C 77 %
515 11-03-2020 13:49:17 11.9 C 77 %
516 11-03-2020 13:59:17 11.9 C 77 %
517 11-03-2020 14:09:17 11.9 C 77 %
518 11-03-2020 14:19:17 11.9 C 77 %
519 11-03-2020 14:29:17 12 C 76 %
520 11-03-2020 14:39:17 12 C 76 %
521 11-03-2020 14:49:17 12 C 76 %
522 11-03-2020 14:59:17 12 C 76 %
523 11-03-2020 15:09:17 12 C 76 %
524 11-03-2020 15:19:17 12.1 C 76 %
525 11-03-2020 15:29:18 12 C 76 %
Sensor: Nr:Datum:Temp:Feuchte:
G-T/H 526 11-03-2020 15:39:18 12 C 76 %
527 11-03-2020 15:49:17 12.1 C 76 %
528 11-03-2020 15:59:17 12.1 C 76 %
529 11-03-2020 16:09:18 12.1 C 76 %
530 11-03-2020 16:19:18 12.1 C 76 %
531 11-03-2020 16:29:18 12.1 C 76 %
532 11-03-2020 16:39:17 12.1 C 76 %
533 11-03-2020 16:49:18 12.2 C 76 %
534 11-03-2020 16:59:18 12.1 C 76 %
535 11-03-2020 17:09:18 12.2 C 76 %
536 11-03-2020 17:19:18 12.1 C 76 %
537 11-03-2020 17:29:18 12.2 C 76 %
538 11-03-2020 17:39:17 12.2 C 76 %
539 11-03-2020 17:49:18 12.2 C 76 %
540 11-03-2020 17:59:18 12.2 C 76 %
541 11-03-2020 18:09:18 12.2 C 76 %
542 11-03-2020 18:19:17 12.2 C 76 %
543 11-03-2020 18:29:17 12.2 C 76 %
544 11-03-2020 18:39:17 12.2 C 76 %
545 11-03-2020 18:49:17 12.2 C 76 %
546 11-03-2020 18:59:17 12.2 C 76 %
547 11-03-2020 19:09:17 12.2 C 76 %
548 11-03-2020 19:19:17 12.2 C 76 %
549 11-03-2020 19:29:17 12.2 C 76 %
550 11-03-2020 19:39:18 12.2 C 76 %
Sensor: Nr:Datum:Temp:Feuchte:
G-T/H 551 11-03-2020 19:49:17 12.2 C 76 %
552 11-03-2020 19:59:17 12.3 C 76 %
553 11-03-2020 20:09:17 12.3 C 76 %
554 11-03-2020 20:19:17 12.3 C 76 %
555 11-03-2020 20:29:18 12.3 C 76 %
556 11-03-2020 20:39:18 12.3 C 76 %
557 11-03-2020 20:49:17 12.3 C 76 %
558 11-03-2020 20:59:17 12.3 C 76 %
559 11-03-2020 21:09:18 12.3 C 76 %
560 11-03-2020 21:19:17 12.3 C 76 %
561 11-03-2020 21:29:17 12.3 C 76 %
562 11-03-2020 21:39:18 12.3 C 76 %
563 11-03-2020 21:49:17 12.3 C 76 %
564 11-03-2020 21:59:17 12.3 C 76 %
565 11-03-2020 22:09:18 12.3 C 76 %
566 11-03-2020 22:19:18 12.4 C 76 %
567 11-03-2020 22:29:18 12.3 C 76 %
568 11-03-2020 22:39:17 12.3 C 76 %
569 11-03-2020 22:49:18 12.4 C 76 %
570 11-03-2020 22:59:18 12.3 C 76 %
571 11-03-2020 23:09:18 12.4 C 76 %
572 11-03-2020 23:19:18 12.3 C 76 %
573 11-03-2020 23:29:18 12.3 C 76 %
574 11-03-2020 23:39:17 12.3 C 76 %
575 11-03-2020 23:49:17 12.3 C 76 %
Sensor: Nr:Datum:Temp:Feuchte:
G-T/H 576 11-03-2020 23:59:17 12.4 C 76 %
577 12-03-2020 00:09:17 12.3 C 76 %
578 12-03-2020 00:19:17 12.4 C 76 %
579 12-03-2020 00:29:17 12.4 C 76 %
580 12-03-2020 00:39:18 12.4 C 76 %
581 12-03-2020 00:49:17 12.3 C 76 %
582 12-03-2020 00:59:17 12.4 C 76 %
583 12-03-2020 01:09:18 12.4 C 76 %
584 12-03-2020 01:19:17 12.4 C 76 %
585 12-03-2020 01:29:17 12.4 C 76 %
586 12-03-2020 01:39:18 12.4 C 76 %
587 12-03-2020 01:49:17 12.4 C 76 %
588 12-03-2020 01:59:17 12.4 C 76 %
589 12-03-2020 02:09:18 12.4 C 76 %
590 12-03-2020 02:19:17 12.4 C 76 %
591 12-03-2020 02:29:18 12.4 C 76 %
592 12-03-2020 02:39:18 12.4 C 76 %
593 12-03-2020 02:49:18 12.4 C 76 %
594 12-03-2020 02:59:18 12.4 C 76 %
595 12-03-2020 03:09:18 12.4 C 76 %
596 12-03-2020 03:19:18 12.4 C 76 %
597 12-03-2020 03:29:18 12.4 C 76 %
598 12-03-2020 03:39:17 12.4 C 76 %
599 12-03-2020 03:49:17 12.4 C 76 %
600 12-03-2020 03:59:17 12.4 C 76 %
Sensor: Nr:Datum:Temp:Feuchte:
G-T/H 601 12-03-2020 04:09:17 12.4 C 76 %
602 12-03-2020 04:19:17 12.4 C 76 %
603 12-03-2020 04:29:17 12.4 C 76 %
604 12-03-2020 04:39:17 12.4 C 76 %
605 12-03-2020 04:49:17 12.4 C 76 %
606 12-03-2020 04:59:17 12.4 C 76 %
607 12-03-2020 05:09:17 12.4 C 76 %
608 12-03-2020 05:19:17 12.4 C 76 %
609 12-03-2020 05:29:17 12.4 C 76 %
610 12-03-2020 05:39:18 12.4 C 76 %
611 12-03-2020 05:49:17 12.4 C 76 %
612 12-03-2020 05:59:17 12.4 C 76 %
613 12-03-2020 06:09:18 12.4 C 76 %
614 12-03-2020 06:19:18 12.4 C 76 %
615 12-03-2020 06:29:18 12.4 C 76 %
616 12-03-2020 06:39:18 12.4 C 76 %
617 12-03-2020 06:49:17 12.4 C 76 %
618 12-03-2020 06:59:17 12.4 C 76 %
619 12-03-2020 07:09:18 12.4 C 76 %
620 12-03-2020 07:19:18 12.4 C 76 %
621 12-03-2020 07:29:18 12.4 C 76 %
622 12-03-2020 07:39:18 12.4 C 76 %
623 12-03-2020 07:49:17 12.4 C 76 %
624 12-03-2020 07:59:17 12.4 C 76 %
625 12-03-2020 08:09:18 12.4 C 76 %
Sensor: Nr:Datum:Temp:Feuchte:
G-T/H 626 12-03-2020 08:19:18 12.4 C 76 %
627 12-03-2020 08:29:18 12.4 C 76 %
628 12-03-2020 08:39:18 12.4 C 76 %
629 12-03-2020 08:49:17 12.4 C 76 %
630 12-03-2020 08:59:17 12.4 C 76 %
631 12-03-2020 09:09:18 12.4 C 76 %
632 12-03-2020 09:19:17 12.4 C 76 %
633 12-03-2020 09:29:17 12.4 C 76 %
634 12-03-2020 09:39:17 12.4 C 76 %
635 12-03-2020 09:49:18 12.4 C 76 %
636 12-03-2020 09:59:18 12.4 C 76 %
637 12-03-2020 10:09:18 12.4 C 76 %
638 12-03-2020 10:19:17 12.4 C 76 %
639 12-03-2020 10:29:17 12.4 C 76 %
640 12-03-2020 10:39:17 12.4 C 76 %
641 12-03-2020 10:49:17 12.4 C 75 %
642 12-03-2020 10:59:17 12.4 C 75 %
643 12-03-2020 11:09:18 12.4 C 75 %
644 12-03-2020 11:19:17 12.4 C 75 %
645 12-03-2020 11:29:17 12.4 C 75 %
646 12-03-2020 11:39:17 12.4 C 74 %
647 12-03-2020 11:49:18 12.4 C 74 %
648 12-03-2020 11:59:18 12.4 C 73 %
649 12-03-2020 12:09:18 12.3 C 72 %
650 12-03-2020 12:19:18 12.4 C 71 %
Sensor: Nr:Datum:Temp:Feuchte:
G-T/H 651 12-03-2020 12:29:18 12.4 C 70 %
652 12-03-2020 12:39:17 12.4 C 69 %
653 12-03-2020 12:49:17 12.4 C 69 %
654 12-03-2020 12:59:18 12.3 C 68 %
655 12-03-2020 13:09:18 12.3 C 68 %
656 12-03-2020 13:19:17 12.3 C 67 %
657 12-03-2020 13:29:17 12.3 C 67 %
658 12-03-2020 13:39:17 12.3 C 67 %
659 12-03-2020 13:49:17 12.3 C 67 %
660 12-03-2020 13:59:17 12.3 C 66 %
661 12-03-2020 14:09:17 12.3 C 66 %
662 12-03-2020 14:19:17 12.3 C 66 %
663 12-03-2020 14:29:18 12.3 C 66 %
664 12-03-2020 14:39:18 12.3 C 65 %
665 12-03-2020 14:49:17 12.3 C 65 %
666 12-03-2020 14:59:17 12.3 C 65 %
667 12-03-2020 15:09:17 12.3 C 65 %
668 12-03-2020 15:19:17 12.3 C 65 %
669 12-03-2020 15:29:18 12.3 C 65 %
670 12-03-2020 15:39:18 12.3 C 66 %
671 12-03-2020 15:49:17 12.3 C 67 %
672 12-03-2020 15:59:18 12.3 C 67 %
673 12-03-2020 16:09:18 12.3 C 68 %
674 12-03-2020 16:19:18 12.3 C 68 %
675 12-03-2020 16:29:18 12.3 C 67 %
Sensor: Nr:Datum:Temp:Feuchte:
G-T/H 676 12-03-2020 16:39:18 12.3 C 67 %
677 12-03-2020 16:49:17 12.3 C 66 %
678 12-03-2020 16:59:17 12.3 C 66 %
679 12-03-2020 17:09:17 12.2 C 65 %
680 12-03-2020 17:19:17 12.3 C 65 %
681 12-03-2020 17:29:17 12.3 C 64 %
682 12-03-2020 17:39:18 12.3 C 64 %
683 12-03-2020 17:49:17 12.3 C 64 %
684 12-03-2020 17:59:18 12.3 C 64 %
685 12-03-2020 18:09:18 12.3 C 64 %
686 12-03-2020 18:19:18 12.2 C 64 %
687 12-03-2020 18:29:18 12.2 C 64 %
688 12-03-2020 18:39:17 12.2 C 65 %
689 12-03-2020 18:49:17 12.2 C 66 %
690 12-03-2020 18:59:17 12.2 C 66 %
691 12-03-2020 19:09:17 12.2 C 67 %
692 12-03-2020 19:19:17 12.2 C 67 %
693 12-03-2020 19:29:17 12.2 C 67 %
694 12-03-2020 19:39:17 12.2 C 68 %
695 12-03-2020 19:49:17 12.2 C 68 %
696 12-03-2020 19:59:17 12.1 C 67 %
697 12-03-2020 20:09:17 12.1 C 67 %
698 12-03-2020 20:19:17 12.1 C 67 %
699 12-03-2020 20:29:17 12.1 C 67 %
700 12-03-2020 20:39:17 12.1 C 67 %
Sensor: Nr:Datum:Temp:Feuchte:
G-T/H 701 12-03-2020 20:49:17 12.1 C 66 %
702 12-03-2020 20:59:17 12.1 C 66 %
703 12-03-2020 21:09:17 12.1 C 66 %
704 12-03-2020 21:19:17 12 C 66 %
705 12-03-2020 21:29:17 12 C 66 %
706 12-03-2020 21:39:18 12 C 67 %
707 12-03-2020 21:49:17 12 C 67 %
708 12-03-2020 21:59:17 12 C 67 %
709 12-03-2020 22:09:18 12.1 C 68 %
710 12-03-2020 22:19:18 12.1 C 68 %
711 12-03-2020 22:29:18 12 C 68 %
712 12-03-2020 22:39:18 12 C 68 %
713 12-03-2020 22:49:17 12 C 69 %
714 12-03-2020 22:59:17 12 C 69 %
715 12-03-2020 23:09:17 12 C 69 %
716 12-03-2020 23:19:17 12 C 69 %
717 12-03-2020 23:29:18 12 C 69 %
718 12-03-2020 23:39:18 11.9 C 69 %
719 12-03-2020 23:49:17 11.9 C 69 %
720 12-03-2020 23:59:17 11.9 C 68 %
721 13-03-2020 00:09:17 11.9 C 68 %
722 13-03-2020 00:19:17 11.8 C 68 %
723 13-03-2020 00:29:17 11.8 C 67 %
724 13-03-2020 00:39:17 11.8 C 67 %
725 13-03-2020 00:49:17 11.8 C 67 %
Sensor: Nr:Datum:Temp:Feuchte:
G-T/H 726 13-03-2020 00:59:17 11.8 C 67 %
727 13-03-2020 01:09:17 11.7 C 67 %
728 13-03-2020 01:19:17 11.7 C 66 %
729 13-03-2020 01:29:17 11.7 C 66 %
730 13-03-2020 01:39:17 11.7 C 66 %
731 13-03-2020 01:49:17 11.7 C 66 %
732 13-03-2020 01:59:17 11.7 C 66 %
733 13-03-2020 02:09:17 11.6 C 66 %
734 13-03-2020 02:19:17 11.6 C 66 %
735 13-03-2020 02:29:17 11.6 C 66 %
736 13-03-2020 02:39:18 11.5 C 66 %
737 13-03-2020 02:49:17 11.5 C 65 %
738 13-03-2020 02:59:17 11.5 C 65 %
739 13-03-2020 03:09:17 11.5 C 65 %
740 13-03-2020 03:19:17 11.5 C 65 %
741 13-03-2020 03:29:17 11.4 C 65 %
742 13-03-2020 03:39:18 11.4 C 65 %
743 13-03-2020 03:49:17 11.4 C 65 %
744 13-03-2020 03:59:17 11.4 C 65 %
745 13-03-2020 04:09:17 11.4 C 65 %
746 13-03-2020 04:19:17 11.4 C 65 %
747 13-03-2020 04:29:17 11.3 C 65 %
748 13-03-2020 04:39:17 11.3 C 65 %
749 13-03-2020 04:49:17 11.3 C 65 %
750 13-03-2020 04:59:17 11.3 C 65 %
Sensor: Nr:Datum:Temp:Feuchte:
G-T/H 751 13-03-2020 05:09:17 11.2 C 65 %
752 13-03-2020 05:19:17 11.2 C 65 %
753 13-03-2020 05:29:17 11.2 C 65 %
754 13-03-2020 05:39:17 11.2 C 65 %
755 13-03-2020 05:49:18 11.1 C 65 %
756 13-03-2020 05:59:18 11.1 C 65 %
757 13-03-2020 06:09:18 11.1 C 65 %
758 13-03-2020 06:19:17 11.1 C 65 %
759 13-03-2020 06:29:17 11.1 C 65 %
760 13-03-2020 06:39:17 11.1 C 65 %
761 13-03-2020 06:49:17 11 C 65 %
762 13-03-2020 06:59:17 11 C 65 %
763 13-03-2020 07:09:17 11 C 65 %
764 13-03-2020 07:19:17 11 C 65 %
765 13-03-2020 07:29:17 11 C 65 %
766 13-03-2020 07:39:17 11 C 65 %
767 13-03-2020 07:49:18 10.9 C 66 %
768 13-03-2020 07:59:18 10.9 C 66 %
769 13-03-2020 08:09:17 10.9 C 66 %
770 13-03-2020 08:19:17 11 C 66 %
771 13-03-2020 08:29:17 11 C 66 %
772 13-03-2020 08:39:18 10.9 C 67 %
773 13-03-2020 08:49:17 10.9 C 67 %
774 13-03-2020 08:59:17 10.9 C 67 %
775 13-03-2020 09:09:17 10.9 C 68 %
Sensor: Nr:Datum:Temp:Feuchte:
G-T/H 776 13-03-2020 09:19:17 10.9 C 68 %
777 13-03-2020 09:29:17 10.9 C 68 %
778 13-03-2020 09:39:18 10.9 C 68 %
779 13-03-2020 09:49:17 10.9 C 68 %
780 13-03-2020 09:59:17 10.9 C 68 %
781 13-03-2020 10:09:18 10.9 C 68 %
782 13-03-2020 10:19:17 10.8 C 69 %
783 13-03-2020 10:29:17 10.9 C 69 %
784 13-03-2020 10:39:18 10.8 C 69 %
785 13-03-2020 10:49:17 10.9 C 69 %
786 13-03-2020 10:59:17 10.8 C 69 %
787 13-03-2020 11:09:17 10.8 C 69 %
788 13-03-2020 11:19:17 10.8 C 69 %
789 13-03-2020 11:29:17 10.8 C 69 %
790 13-03-2020 11:39:17 10.9 C 69 %
791 13-03-2020 11:49:18 10.8 C 69 %
792 13-03-2020 11:59:18 10.9 C 69 %
793 13-03-2020 12:09:18 10.9 C 69 %
794 13-03-2020 12:19:18 10.9 C 69 %
795 13-03-2020 12:29:18 10.8 C 69 %
796 13-03-2020 12:39:18 10.9 C 70 %
797 13-03-2020 12:49:18 10.9 C 70 %
798 13-03-2020 12:59:18 10.8 C 70 %
799 13-03-2020 13:09:18 10.9 C 70 %
800 13-03-2020 13:19:18 10.9 C 70 %
Sensor: Nr:Datum:Temp:Feuchte:
G-T/H 801 13-03-2020 13:29:18 10.9 C 70 %
802 13-03-2020 13:39:18 10.9 C 70 %
803 13-03-2020 13:49:17 10.9 C 70 %
804 13-03-2020 13:59:17 10.9 C 70 %
805 13-03-2020 14:09:18 10.9 C 70 %
806 13-03-2020 14:19:18 10.9 C 70 %
807 13-03-2020 14:29:18 10.9 C 70 %
808 13-03-2020 14:39:18 10.9 C 70 %
809 13-03-2020 14:49:18 10.9 C 70 %
810 13-03-2020 14:59:18 10.9 C 70 %
811 13-03-2020 15:09:18 10.9 C 70 %
812 13-03-2020 15:19:17 10.9 C 70 %
813 13-03-2020 15:29:17 11 C 70 %
814 13-03-2020 15:39:18 10.9 C 70 %
815 13-03-2020 15:49:18 11 C 70 %
816 13-03-2020 15:59:18 11 C 70 %
817 13-03-2020 16:09:18 11 C 70 %
818 13-03-2020 16:19:17 11 C 70 %
819 13-03-2020 16:29:17 11 C 70 %
820 13-03-2020 16:39:17 11 C 69 %
821 13-03-2020 16:49:17 11 C 69 %
822 13-03-2020 16:59:17 11 C 69 %
823 13-03-2020 17:09:17 11 C 69 %
824 13-03-2020 17:19:18 11 C 69 %
825 13-03-2020 17:29:18 11 C 69 %
Sensor: Nr:Datum:Temp:Feuchte:
G-T/H 826 13-03-2020 17:39:17 11 C 69 %
827 13-03-2020 17:49:18 11 C 70 %
828 13-03-2020 17:59:18 11 C 70 %
829 13-03-2020 18:09:18 11 C 70 %
830 13-03-2020 18:19:17 11 C 70 %
831 13-03-2020 18:29:17 11 C 70 %
832 13-03-2020 18:39:17 11 C 70 %
833 13-03-2020 18:49:17 11 C 70 %
834 13-03-2020 18:59:17 11 C 70 %
835 13-03-2020 19:09:17 11 C 70 %
836 13-03-2020 19:19:17 11 C 70 %
837 13-03-2020 19:29:17 11 C 70 %
838 13-03-2020 19:39:18 11 C 70 %
839 13-03-2020 19:49:17 11 C 70 %
840 13-03-2020 19:59:18 11 C 70 %
841 13-03-2020 20:09:18 11 C 70 %
842 13-03-2020 20:19:17 11 C 70 %
843 13-03-2020 20:29:17 11 C 70 %
844 13-03-2020 20:39:17 11 C 70 %
845 13-03-2020 20:49:17 11 C 70 %
846 13-03-2020 20:59:17 11 C 70 %
847 13-03-2020 21:09:18 11 C 70 %
848 13-03-2020 21:19:18 11 C 70 %
849 13-03-2020 21:29:18 11 C 70 %
850 13-03-2020 21:39:18 11 C 70 %
Sensor: Nr:Datum:Temp:Feuchte:
G-T/H 851 13-03-2020 21:49:17 11 C 70 %
852 13-03-2020 21:59:17 10.9 C 71 %
853 13-03-2020 22:09:18 11 C 70 %
854 13-03-2020 22:19:17 11 C 70 %
855 13-03-2020 22:29:18 11 C 70 %
856 13-03-2020 22:39:18 10.9 C 71 %
857 13-03-2020 22:49:17 10.9 C 71 %
858 13-03-2020 22:59:17 10.9 C 71 %
859 13-03-2020 23:09:18 10.9 C 71 %
860 13-03-2020 23:19:17 10.9 C 71 %
861 13-03-2020 23:29:17 10.9 C 71 %
862 13-03-2020 23:39:17 10.9 C 71 %
863 13-03-2020 23:49:17 10.9 C 71 %
864 13-03-2020 23:59:17 10.9 C 71 %
865 14-03-2020 00:09:17 10.9 C 71 %
866 14-03-2020 00:19:18 10.9 C 71 %
867 14-03-2020 00:29:18 10.9 C 71 %
868 14-03-2020 00:39:18 10.8 C 71 %
869 14-03-2020 00:49:17 10.9 C 71 %
870 14-03-2020 00:59:17 10.8 C 71 %
871 14-03-2020 01:09:18 10.8 C 71 %
872 14-03-2020 01:19:17 10.8 C 71 %
873 14-03-2020 01:29:18 10.8 C 71 %
874 14-03-2020 01:39:18 10.8 C 71 %
875 14-03-2020 01:49:17 10.8 C 71 %
Sensor: Nr:Datum:Temp:Feuchte:
G-T/H 876 14-03-2020 01:59:18 10.7 C 71 %
877 14-03-2020 02:09:18 10.7 C 71 %
878 14-03-2020 02:19:18 10.8 C 71 %
879 14-03-2020 02:29:18 10.7 C 71 %
880 14-03-2020 02:39:18 10.7 C 71 %
881 14-03-2020 02:49:18 10.7 C 71 %
882 14-03-2020 02:59:18 10.7 C 71 %
883 14-03-2020 03:09:18 10.7 C 71 %
884 14-03-2020 03:19:17 10.7 C 71 %
885 14-03-2020 03:29:17 10.7 C 71 %
886 14-03-2020 03:39:17 10.7 C 71 %
887 14-03-2020 03:49:18 10.6 C 70 %
888 14-03-2020 03:59:18 10.6 C 70 %
889 14-03-2020 04:09:17 10.6 C 70 %
890 14-03-2020 04:19:17 10.6 C 70 %
891 14-03-2020 04:29:17 10.5 C 70 %
892 14-03-2020 04:39:17 10.5 C 70 %
893 14-03-2020 04:49:17 10.5 C 70 %
894 14-03-2020 04:59:17 10.4 C 69 %
895 14-03-2020 05:09:17 10.4 C 69 %
896 14-03-2020 05:19:17 10.4 C 69 %
897 14-03-2020 05:29:17 10.4 C 69 %
898 14-03-2020 05:39:18 10.3 C 69 %
899 14-03-2020 05:49:17 10.3 C 69 %
900 14-03-2020 05:59:17 10.3 C 68 %
Sensor: Nr:Datum:Temp:Feuchte:
G-T/H 901 14-03-2020 06:09:18 10.2 C 68 %
902 14-03-2020 06:19:18 10.2 C 68 %
903 14-03-2020 06:29:18 10.2 C 68 %
904 14-03-2020 06:39:18 10.2 C 68 %
905 14-03-2020 06:49:17 10.2 C 68 %
906 14-03-2020 06:59:17 10.2 C 68 %
907 14-03-2020 07:09:17 10.1 C 68 %
908 14-03-2020 07:19:17 10.1 C 68 %
909 14-03-2020 07:29:17 10.1 C 68 %
910 14-03-2020 07:39:18 10.1 C 68 %
911 14-03-2020 07:49:17 10.1 C 67 %
912 14-03-2020 07:59:17 10.1 C 67 %
913 14-03-2020 08:09:17 10 C 67 %
914 14-03-2020 08:19:17 10 C 67 %
915 14-03-2020 08:29:17 10 C 67 %
916 14-03-2020 08:39:18 10 C 67 %
917 14-03-2020 08:49:17 10 C 68 %
918 14-03-2020 08:59:17 10 C 68 %
919 14-03-2020 09:09:17 10 C 68 %
920 14-03-2020 09:19:17 10 C 68 %
921 14-03-2020 09:29:17 10 C 68 %
922 14-03-2020 09:39:18 10 C 68 %
923 14-03-2020 09:49:17 10 C 68 %
924 14-03-2020 09:59:17 10 C 69 %
925 14-03-2020 10:09:18 9.9 C 70 %
Sensor: Nr:Datum:Temp:Feuchte:
G-T/H 926 14-03-2020 10:19:18 10 C 69 %
927 14-03-2020 10:29:18 9.9 C 70 %
928 14-03-2020 10:39:18 10 C 69 %
929 14-03-2020 10:49:17 10 C 69 %
930 14-03-2020 10:59:17 10 C 69 %
931 14-03-2020 11:09:18 9.9 C 71 %
932 14-03-2020 11:19:18 10 C 70 %
933 14-03-2020 11:29:18 9.9 C 71 %
934 14-03-2020 11:39:18 10 C 70 %
935 14-03-2020 11:49:17 10 C 70 %
936 14-03-2020 11:59:17 10.1 C 70 %
937 14-03-2020 12:09:18 10.1 C 70 %
938 14-03-2020 12:19:17 10.1 C 70 %
939 14-03-2020 12:29:18 10.1 C 70 %
940 14-03-2020 12:39:18 10.1 C 70 %
941 14-03-2020 12:49:17 10.1 C 70 %
942 14-03-2020 12:59:17 10.1 C 70 %
943 14-03-2020 13:09:18 10.1 C 70 %
944 14-03-2020 13:19:17 10 C 70 %
945 14-03-2020 13:29:17 10.1 C 70 %
946 14-03-2020 13:39:17 10.1 C 70 %
947 14-03-2020 13:49:17 10.1 C 70 %
948 14-03-2020 13:59:17 10.1 C 70 %
949 14-03-2020 14:09:18 10.1 C 70 %
950 14-03-2020 14:19:17 10.2 C 71 %
Sensor: Nr:Datum:Temp:Feuchte:
G-T/H 951 14-03-2020 14:29:17 10.1 C 71 %
952 14-03-2020 14:39:17 10.2 C 71 %
953 14-03-2020 14:49:18 10.2 C 71 %
954 14-03-2020 14:59:18 10.2 C 71 %
955 14-03-2020 15:09:18 10.2 C 71 %
956 14-03-2020 15:19:17 10.2 C 71 %
957 14-03-2020 15:29:17 10.2 C 71 %
958 14-03-2020 15:39:18 10.2 C 71 %
959 14-03-2020 15:49:17 10.2 C 71 %
960 14-03-2020 15:59:17 10.2 C 71 %
961 14-03-2020 16:09:18 10.3 C 71 %
962 14-03-2020 16:19:17 10.3 C 71 %
963 14-03-2020 16:29:17 10.3 C 71 %
964 14-03-2020 16:39:18 10.3 C 71 %
965 14-03-2020 16:49:18 10.3 C 71 %
966 14-03-2020 16:59:18 10.3 C 71 %
967 14-03-2020 17:09:18 10.3 C 71 %
968 14-03-2020 17:19:17 10.3 C 71 %
969 14-03-2020 17:29:17 10.4 C 71 %
970 14-03-2020 17:39:17 10.4 C 71 %
971 14-03-2020 17:49:17 10.4 C 71 %
972 14-03-2020 17:59:17 10.4 C 71 %
973 14-03-2020 18:09:17 10.4 C 71 %
974 14-03-2020 18:19:17 10.4 C 71 %
975 14-03-2020 18:29:17 10.4 C 71 %
Sensor: Nr:Datum:Temp:Feuchte:
G-T/H 976 14-03-2020 18:39:17 10.4 C 71 %
977 14-03-2020 18:49:17 10.4 C 71 %
978 14-03-2020 18:59:17 10.4 C 71 %
979 14-03-2020 19:09:17 10.4 C 71 %
980 14-03-2020 19:19:17 10.4 C 71 %
981 14-03-2020 19:29:17 10.4 C 71 %
982 14-03-2020 19:39:17 10.4 C 71 %
983 14-03-2020 19:49:17 10.4 C 71 %
984 14-03-2020 19:59:17 10.4 C 71 %
985 14-03-2020 20:09:18 10.4 C 71 %
986 14-03-2020 20:19:18 10.4 C 71 %
987 14-03-2020 20:29:18 10.4 C 71 %
988 14-03-2020 20:39:18 10.4 C 71 %
989 14-03-2020 20:49:17 10.4 C 71 %
990 14-03-2020 20:59:18 10.4 C 71 %
991 14-03-2020 21:09:18 10.4 C 71 %
992 14-03-2020 21:19:18 10.4 C 71 %
993 14-03-2020 21:29:18 10.4 C 71 %
994 14-03-2020 21:39:17 10.4 C 71 %
995 14-03-2020 21:49:18 10.4 C 71 %
996 14-03-2020 21:59:18 10.4 C 71 %
997 14-03-2020 22:09:18 10.4 C 71 %
998 14-03-2020 22:19:17 10.4 C 71 %
999 14-03-2020 22:29:17 10.4 C 71 %
1000 14-03-2020 22:39:18 10.4 C 71 %
Sensor: Nr:Datum:Temp:Feuchte:
G-T/H 1001 14-03-2020 22:49:18 10.4 C 71 %
1002 14-03-2020 22:59:18 10.4 C 71 %
1003 14-03-2020 23:09:17 10.4 C 71 %
1004 14-03-2020 23:19:17 10.4 C 71 %
1005 14-03-2020 23:29:17 10.4 C 71 %
1006 14-03-2020 23:39:17 10.4 C 71 %
1007 14-03-2020 23:49:18 10.4 C 71 %
1008 14-03-2020 23:59:18 10.4 C 71 %
1009 15-03-2020 00:09:18 10.4 C 71 %
1010 15-03-2020 00:19:17 10.4 C 71 %
1011 15-03-2020 00:29:17 10.4 C 71 %
1012 15-03-2020 00:39:18 10.4 C 71 %
1013 15-03-2020 00:49:18 10.4 C 71 %
1014 15-03-2020 00:59:18 10.4 C 71 %
1015 15-03-2020 01:09:17 10.4 C 71 %
1016 15-03-2020 01:19:18 10.4 C 71 %
1017 15-03-2020 01:29:18 10.4 C 71 %
1018 15-03-2020 01:39:17 10.3 C 71 %
1019 15-03-2020 01:49:17 10.3 C 71 %
1020 15-03-2020 01:59:17 10.3 C 71 %
1021 15-03-2020 02:09:17 10.3 C 71 %
1022 15-03-2020 02:19:17 10.3 C 71 %
1023 15-03-2020 02:29:17 10.4 C 71 %
1024 15-03-2020 02:39:18 10.3 C 71 %
1025 15-03-2020 02:49:17 10.3 C 71 %
Sensor: Nr:Datum:Temp:Feuchte:
G-T/H 1026 15-03-2020 02:59:17 10.3 C 71 %
1027 15-03-2020 03:09:17 10.3 C 71 %
1028 15-03-2020 03:19:17 10.3 C 71 %
1029 15-03-2020 03:29:17 10.3 C 71 %
1030 15-03-2020 03:39:18 10.2 C 71 %
1031 15-03-2020 03:49:17 10.2 C 71 %
1032 15-03-2020 03:59:17 10.2 C 71 %
1033 15-03-2020 04:09:18 10.2 C 71 %
1034 15-03-2020 04:19:18 10.2 C 71 %
1035 15-03-2020 04:29:18 10.2 C 71 %
1036 15-03-2020 04:39:18 10.2 C 70 %
1037 15-03-2020 04:49:17 10.1 C 70 %
1038 15-03-2020 04:59:18 10.1 C 70 %
1039 15-03-2020 05:09:18 10.1 C 70 %
1040 15-03-2020 05:19:17 10.1 C 70 %
1041 15-03-2020 05:29:18 10.1 C 70 %
1042 15-03-2020 05:39:18 10.1 C 69 %
1043 15-03-2020 05:49:17 10.1 C 69 %
1044 15-03-2020 05:59:17 10.1 C 69 %
1045 15-03-2020 06:09:18 10 C 69 %
1046 15-03-2020 06:19:17 10 C 69 %
1047 15-03-2020 06:29:17 10 C 69 %
1048 15-03-2020 06:39:18 10 C 69 %
1049 15-03-2020 06:49:18 10 C 69 %
1050 15-03-2020 06:59:18 10 C 69 %
Sensor: Nr:Datum:Temp:Feuchte:
G-T/H 1051 15-03-2020 07:09:18 10 C 69 %
1052 15-03-2020 07:19:18 10 C 69 %
1053 15-03-2020 07:29:18 10 C 69 %
1054 15-03-2020 07:39:18 10 C 69 %
1055 15-03-2020 07:49:18 10 C 69 %
1056 15-03-2020 07:59:18 10 C 69 %
1057 15-03-2020 08:09:18 10 C 70 %
1058 15-03-2020 08:19:18 10 C 70 %
1059 15-03-2020 08:29:18 10 C 70 %
1060 15-03-2020 08:39:18 10 C 70 %
1061 15-03-2020 08:49:17 10 C 70 %
1062 15-03-2020 08:59:17 10 C 70 %
1063 15-03-2020 09:09:18 10 C 70 %
1064 15-03-2020 09:19:18 9.9 C 71 %
1065 15-03-2020 09:29:18 9.9 C 71 %
1066 15-03-2020 09:39:18 10 C 70 %
1067 15-03-2020 09:49:18 9.9 C 71 %
1068 15-03-2020 09:59:18 9.9 C 72 %
1069 15-03-2020 10:09:18 10 C 71 %
1070 15-03-2020 10:19:18 9.9 C 72 %
1071 15-03-2020 10:29:18 10 C 71 %
1072 15-03-2020 10:39:18 9.9 C 72 %
1073 15-03-2020 10:49:17 10 C 71 %
1074 15-03-2020 10:59:17 10 C 71 %
1075 15-03-2020 11:09:17 10 C 71 %
Sensor: Nr:Datum:Temp:Feuchte:
G-T/H 1076 15-03-2020 11:19:17 10 C 71 %
1077 15-03-2020 11:29:17 10 C 71 %
1078 15-03-2020 11:39:18 10 C 71 %
1079 15-03-2020 11:49:17 10.3 C 71 %
1080 15-03-2020 11:59:18 10.5 C 69 %
1081 15-03-2020 12:09:18 10.5 C 68 %
1082 15-03-2020 12:19:18 10.7 C 66 %
1083 15-03-2020 12:29:18 10.7 C 65 %
1084 15-03-2020 12:39:18 10.8 C 64 %
1085 15-03-2020 12:49:17 10.9 C 64 %
1086 15-03-2020 12:59:17 11 C 62 %
1087 15-03-2020 13:09:18 11 C 61 %
1088 15-03-2020 13:19:17 11.1 C 61 %
1089 15-03-2020 13:29:17 11.3 C 60 %
1090 15-03-2020 13:39:18 11.3 C 60 %
1091 15-03-2020 13:49:17 11.4 C 59 %
1092 15-03-2020 13:59:17 11.5 C 58 %
1093 15-03-2020 14:09:17 11.5 C 58 %
1094 15-03-2020 14:19:17 11.6 C 57 %
1095 15-03-2020 14:29:17 11.7 C 57 %
1096 15-03-2020 14:39:18 11.7 C 56 %
1097 15-03-2020 14:49:17 11.8 C 56 %
1098 15-03-2020 14:59:17 11.9 C 55 %
1099 15-03-2020 15:09:17 11.9 C 55 %
1100 15-03-2020 15:19:17 12 C 53 %
Sensor: Nr:Datum:Temp:Feuchte:
G-T/H 1101 15-03-2020 15:29:18 12.1 C 53 %
1102 15-03-2020 15:39:18 12.2 C 53 %
1103 15-03-2020 15:49:17 12.2 C 52 %
1104 15-03-2020 15:59:17 12.2 C 52 %
1105 15-03-2020 16:09:17 12.2 C 51 %
1106 15-03-2020 16:19:17 12.3 C 51 %
1107 15-03-2020 16:29:17 12.4 C 51 %
1108 15-03-2020 16:39:17 12.4 C 51 %
1109 15-03-2020 16:49:18 12.3 C 51 %
1110 15-03-2020 16:59:18 12.1 C 52 %
1111 15-03-2020 17:09:18 12.1 C 53 %
1112 15-03-2020 17:19:18 12 C 54 %
1113 15-03-2020 17:29:18 11.9 C 56 %
1114 15-03-2020 17:39:18 11.9 C 56 %
1115 15-03-2020 17:49:18 11.9 C 57 %
1116 15-03-2020 17:59:18 11.8 C 58 %
1117 15-03-2020 18:09:18 11.8 C 58 %
1118 15-03-2020 18:19:18 11.8 C 59 %
1119 15-03-2020 18:29:18 11.7 C 60 %
1120 15-03-2020 18:39:18 11.7 C 60 %
1121 15-03-2020 18:49:17 11.7 C 60 %
1122 15-03-2020 18:59:17 11.7 C 61 %
1123 15-03-2020 19:09:18 11.7 C 61 %
1124 15-03-2020 19:19:18 11.7 C 61 %
1125 15-03-2020 19:29:18 11.6 C 62 %
Sensor: Nr:Datum:Temp:Feuchte:
G-T/H 1126 15-03-2020 19:39:18 11.6 C 62 %
1127 15-03-2020 19:49:17 11.6 C 62 %
1128 15-03-2020 19:59:17 11.6 C 62 %
1129 15-03-2020 20:09:18 11.6 C 63 %
1130 15-03-2020 20:19:17 11.5 C 63 %
1131 15-03-2020 20:29:17 11.6 C 63 %
1132 15-03-2020 20:39:18 11.6 C 63 %
1133 15-03-2020 20:49:18 11.5 C 63 %
1134 15-03-2020 20:59:18 11.5 C 64 %
1135 15-03-2020 21:09:18 11.5 C 64 %
1136 15-03-2020 21:19:17 11.5 C 64 %
1137 15-03-2020 21:29:17 11.5 C 64 %
1138 15-03-2020 21:39:17 11.5 C 64 %
1139 15-03-2020 21:49:17 11.5 C 64 %
1140 15-03-2020 21:59:17 11.5 C 64 %
1141 15-03-2020 22:09:17 11.5 C 64 %
1142 15-03-2020 22:19:17 11.5 C 64 %
1143 15-03-2020 22:29:18 11.5 C 65 %
1144 15-03-2020 22:39:17 11.4 C 65 %
1145 15-03-2020 22:49:17 11.4 C 65 %
1146 15-03-2020 22:59:17 11.4 C 65 %
1147 15-03-2020 23:09:17 11.4 C 65 %
1148 15-03-2020 23:19:17 11.4 C 65 %
1149 15-03-2020 23:29:17 11.4 C 65 %
1150 15-03-2020 23:39:17 11.4 C 65 %
Sensor: Nr:Datum:Temp:Feuchte:
G-T/H 1151 15-03-2020 23:49:17 11.4 C 65 %
1152 15-03-2020 23:59:17 11.3 C 65 %
1153 16-03-2020 00:09:17 11.3 C 65 %
1154 16-03-2020 00:19:17 11.3 C 65 %
1155 16-03-2020 00:29:17 11.3 C 65 %
1156 16-03-2020 00:39:17 11.2 C 64 %
1157 16-03-2020 00:49:17 11.2 C 64 %
1158 16-03-2020 00:59:17 11.2 C 64 %
1159 16-03-2020 01:09:18 11.2 C 64 %
1160 16-03-2020 01:19:17 11.2 C 64 %
1161 16-03-2020 01:29:17 11.1 C 64 %
1162 16-03-2020 01:39:17 11.1 C 64 %
1163 16-03-2020 01:49:18 11.1 C 64 %
1164 16-03-2020 01:59:18 11.1 C 64 %
1165 16-03-2020 02:09:17 11.1 C 63 %
1166 16-03-2020 02:19:17 11.1 C 63 %
1167 16-03-2020 02:29:17 11 C 63 %
1168 16-03-2020 02:39:17 11 C 63 %
1169 16-03-2020 02:49:17 11 C 63 %
1170 16-03-2020 02:59:17 11 C 63 %
1171 16-03-2020 03:09:18 10.9 C 64 %
1172 16-03-2020 03:19:17 10.9 C 64 %
1173 16-03-2020 03:29:17 10.9 C 64 %
1174 16-03-2020 03:39:17 10.9 C 64 %
1175 16-03-2020 03:49:18 10.9 C 64 %
Sensor: Nr:Datum:Temp:Feuchte:
G-T/H 1176 16-03-2020 03:59:18 10.8 C 64 %
1177 16-03-2020 04:09:18 10.8 C 64 %
1178 16-03-2020 04:19:18 10.8 C 64 %
1179 16-03-2020 04:29:18 10.8 C 64 %
1180 16-03-2020 04:39:18 10.7 C 64 %
1181 16-03-2020 04:49:17 10.7 C 64 %
1182 16-03-2020 04:59:18 10.7 C 63 %
1183 16-03-2020 05:09:18 10.7 C 63 %
1184 16-03-2020 05:19:18 10.7 C 63 %
1185 16-03-2020 05:29:18 10.6 C 63 %
1186 16-03-2020 05:39:18 10.6 C 63 %
1187 16-03-2020 05:49:17 10.6 C 63 %
1188 16-03-2020 05:59:17 10.6 C 63 %
1189 16-03-2020 06:09:18 10.5 C 63 %
1190 16-03-2020 06:19:17 10.5 C 63 %
1191 16-03-2020 06:29:17 10.5 C 63 %
1192 16-03-2020 06:39:17 10.5 C 63 %
1193 16-03-2020 06:49:17 10.4 C 63 %
1194 16-03-2020 06:59:17 10.4 C 63 %
1195 16-03-2020 07:09:17 10.4 C 63 %
1196 16-03-2020 07:19:17 10.4 C 63 %
1197 16-03-2020 07:29:17 10.4 C 63 %
1198 16-03-2020 07:39:17 10.3 C 63 %
1199 16-03-2020 07:49:17 10.3 C 63 %
1200 16-03-2020 07:59:17 10.3 C 63 %
Sensor: Nr:Datum:Temp:Feuchte:
G-T/H 1201 16-03-2020 08:09:18 10.3 C 63 %
1202 16-03-2020 08:19:17 10.2 C 63 %
1203 16-03-2020 08:29:18 10.2 C 63 %
1204 16-03-2020 08:39:18 10.2 C 63 %
1205 16-03-2020 08:49:17 10.2 C 64 %
1206 16-03-2020 08:59:17 10.2 C 64 %
1207 16-03-2020 09:09:18 10.2 C 64 %
1208 16-03-2020 09:19:18 10.2 C 64 %
1209 16-03-2020 09:29:18 10.2 C 64 %
1210 16-03-2020 09:39:18 10.2 C 65 %
1211 16-03-2020 09:49:18 10.2 C 65 %
1212 16-03-2020 09:59:18 10.2 C 65 %
1213 16-03-2020 10:09:18 10.2 C 65 %
1214 16-03-2020 10:19:18 10.1 C 65 %
1215 16-03-2020 10:29:18 10.1 C 66 %
1216 16-03-2020 10:39:17 10.2 C 66 %
1217 16-03-2020 10:49:18 10.1 C 66 %
1218 16-03-2020 10:59:18 10.2 C 66 %
1219 16-03-2020 11:09:17 10.1 C 66 %
1220 16-03-2020 11:19:17 10.2 C 66 %
1221 16-03-2020 11:29:17 10.2 C 66 %
1222 16-03-2020 11:39:18 10.2 C 67 %
1223 16-03-2020 11:49:17 10.2 C 67 %
1224 16-03-2020 11:59:17 10.2 C 67 %
1225 16-03-2020 12:09:17 10.2 C 67 %
Sensor: Nr:Datum:Temp:Feuchte:
G-T/H 1226 16-03-2020 12:19:17 10.3 C 67 %
1227 16-03-2020 12:29:17 10.2 C 67 %
1228 16-03-2020 12:39:17 10.3 C 67 %
1229 16-03-2020 12:49:17 10.3 C 67 %
1230 16-03-2020 12:59:17 10.3 C 67 %
1231 16-03-2020 13:09:17 10.3 C 67 %
1232 16-03-2020 13:19:17 10.4 C 67 %
1233 16-03-2020 13:29:17 10.4 C 67 %
1234 16-03-2020 13:39:17 10.4 C 68 %
1235 16-03-2020 13:49:17 10.4 C 68 %
1236 16-03-2020 13:59:17 10.4 C 68 %
1237 16-03-2020 14:09:17 10.4 C 68 %
1238 16-03-2020 14:19:17 10.5 C 68 %
1239 16-03-2020 14:29:17 10.5 C 68 %
1240 16-03-2020 14:39:17 10.5 C 68 %
1241 16-03-2020 14:49:17 10.5 C 68 %
1242 16-03-2020 14:59:17 10.5 C 68 %
1243 16-03-2020 15:09:17 10.6 C 68 %
1244 16-03-2020 15:19:17 10.5 C 68 %
1245 16-03-2020 15:29:17 10.6 C 68 %
1246 16-03-2020 15:39:18 10.7 C 68 %
1247 16-03-2020 15:49:17 10.6 C 68 %
1248 16-03-2020 15:59:17 10.7 C 68 %
1249 16-03-2020 16:09:18 10.7 C 69 %
1250 16-03-2020 16:19:18 10.7 C 69 %
Sensor: Nr:Datum:Temp:Feuchte:
G-T/H 1251 16-03-2020 16:29:18 10.7 C 69 %
1252 16-03-2020 16:39:17 10.8 C 69 %
1253 16-03-2020 16:49:17 10.8 C 69 %
1254 16-03-2020 16:59:17 10.8 C 69 %
1255 16-03-2020 17:09:17 10.8 C 69 %
1256 16-03-2020 17:19:17 10.8 C 69 %
1257 16-03-2020 17:29:18 10.8 C 69 %
1258 16-03-2020 17:39:18 10.9 C 69 %
1259 16-03-2020 17:49:17 10.9 C 69 %
1260 16-03-2020 17:59:18 10.9 C 69 %
1261 16-03-2020 18:09:18 10.9 C 69 %
1262 16-03-2020 18:19:18 10.9 C 69 %
1263 16-03-2020 18:29:18 11 C 69 %
1264 16-03-2020 18:39:18 11 C 69 %
1265 16-03-2020 18:49:18 11 C 69 %
1266 16-03-2020 18:59:18 11 C 69 %
1267 16-03-2020 19:09:18 11 C 69 %
1268 16-03-2020 19:19:18 11 C 69 %
1269 16-03-2020 19:29:18 11 C 69 %
1270 16-03-2020 19:39:18 11 C 69 %
1271 16-03-2020 19:49:17 11 C 69 %
1272 16-03-2020 19:59:18 11 C 69 %
1273 16-03-2020 20:09:18 11.1 C 69 %
1274 16-03-2020 20:19:18 11.1 C 69 %
1275 16-03-2020 20:29:18 11.1 C 69 %
Sensor: Nr:Datum:Temp:Feuchte:
G-T/H 1276 16-03-2020 20:39:18 11.1 C 69 %
1277 16-03-2020 20:49:18 11.1 C 69 %
1278 16-03-2020 20:59:18 11.1 C 69 %
1279 16-03-2020 21:09:18 11.1 C 69 %
1280 16-03-2020 21:19:17 11.1 C 69 %
1281 16-03-2020 21:29:17 11.1 C 69 %
1282 16-03-2020 21:39:17 11.2 C 69 %
1283 16-03-2020 21:49:18 11.1 C 70 %
1284 16-03-2020 21:59:18 11.2 C 70 %
1285 16-03-2020 22:09:18 11.2 C 70 %
1286 16-03-2020 22:19:18 11.2 C 70 %
1287 16-03-2020 22:29:18 11.2 C 70 %
1288 16-03-2020 22:39:18 11.2 C 70 %
1289 16-03-2020 22:49:18 11.2 C 70 %
1290 16-03-2020 22:59:18 11.2 C 70 %
1291 16-03-2020 23:09:18 11.2 C 70 %
1292 16-03-2020 23:19:17 11.2 C 70 %
1293 16-03-2020 23:29:17 11.2 C 70 %
1294 16-03-2020 23:39:17 11.2 C 70 %
1295 16-03-2020 23:49:17 11.2 C 70 %
1296 16-03-2020 23:59:17 11.2 C 70 %
1297 17-03-2020 00:09:17 11.2 C 70 %
1298 17-03-2020 00:19:17 11.3 C 70 %
1299 17-03-2020 00:29:17 11.2 C 70 %
1300 17-03-2020 00:39:18 11.2 C 70 %
Sensor: Nr:Datum:Temp:Feuchte:
G-T/H 1301 17-03-2020 00:49:18 11.3 C 70 %
1302 17-03-2020 00:59:18 11.3 C 70 %
1303 17-03-2020 01:09:18 11.3 C 70 %
1304 17-03-2020 01:19:17 11.3 C 70 %
1305 17-03-2020 01:29:17 11.3 C 70 %
1306 17-03-2020 01:39:17 11.2 C 70 %
1307 17-03-2020 01:49:18 11.2 C 70 %
1308 17-03-2020 01:59:18 11.3 C 70 %
1309 17-03-2020 02:09:18 11.2 C 70 %
1310 17-03-2020 02:19:17 11.2 C 70 %
1311 17-03-2020 02:29:17 11.3 C 70 %
1312 17-03-2020 02:39:17 11.3 C 70 %
1313 17-03-2020 02:49:17 11.3 C 70 %
1314 17-03-2020 02:59:17 11.3 C 70 %
1315 17-03-2020 03:09:18 11.3 C 70 %
1316 17-03-2020 03:19:18 11.3 C 70 %
1317 17-03-2020 03:29:18 11.3 C 70 %
1318 17-03-2020 03:39:17 11.2 C 70 %
1319 17-03-2020 03:49:18 11.2 C 70 %
1320 17-03-2020 03:59:18 11.2 C 70 %
1321 17-03-2020 04:09:18 11.2 C 70 %
1322 17-03-2020 04:19:18 11.2 C 70 %
1323 17-03-2020 04:29:18 11.2 C 70 %
1324 17-03-2020 04:39:17 11.3 C 70 %
1325 17-03-2020 04:49:18 11.2 C 70 %
Sensor: Nr:Datum:Temp:Feuchte:
G-T/H 1326 17-03-2020 04:59:18 11.2 C 70 %
1327 17-03-2020 05:09:17 11.2 C 70 %
1328 17-03-2020 05:19:17 11.2 C 70 %
1329 17-03-2020 05:29:17 11.2 C 70 %
1330 17-03-2020 05:39:17 11.2 C 70 %
1331 17-03-2020 05:49:17 11.2 C 70 %
1332 17-03-2020 05:59:18 11.2 C 70 %
1333 17-03-2020 06:09:18 11.2 C 70 %
1334 17-03-2020 06:19:18 11.2 C 70 %
1335 17-03-2020 06:29:18 11.2 C 71 %
1336 17-03-2020 06:39:18 11.2 C 70 %
1337 17-03-2020 06:49:18 11.2 C 71 %
1338 17-03-2020 06:59:18 11.2 C 71 %
1339 17-03-2020 07:09:17 11.2 C 71 %
1340 17-03-2020 07:19:17 11.2 C 71 %
1341 17-03-2020 07:29:17 11.2 C 71 %
1342 17-03-2020 07:39:17 11.2 C 71 %
1343 17-03-2020 07:49:18 11.2 C 71 %
1344 17-03-2020 07:59:18 11.2 C 71 %
1345 17-03-2020 08:09:18 11.2 C 71 %
1346 17-03-2020 08:19:17 11.2 C 71 %
1347 17-03-2020 08:29:17 11.2 C 71 %
1348 17-03-2020 08:39:17 11.2 C 71 %
1349 17-03-2020 08:49:17 11.2 C 71 %
1350 17-03-2020 08:59:17 11.2 C 71 %
Sensor: Nr:Datum:Temp:Feuchte:
G-T/H 1351 17-03-2020 09:09:17 11.2 C 71 %
1352 17-03-2020 09:19:18 11.2 C 71 %
1353 17-03-2020 09:29:18 11.2 C 71 %
1354 17-03-2020 09:39:18 11.2 C 71 %
1355 17-03-2020 09:49:17 11.2 C 71 %
1356 17-03-2020 09:59:17 11.2 C 71 %
1357 17-03-2020 10:09:17 11.2 C 71 %
1358 17-03-2020 10:19:17 11.3 C 71 %
1359 17-03-2020 10:29:17 11.3 C 71 %
1360 17-03-2020 10:39:17 11.3 C 71 %
1361 17-03-2020 10:49:17 11.3 C 71 %
1362 17-03-2020 10:59:17 11.3 C 71 %
1363 17-03-2020 11:09:17 11.3 C 71 %
1364 17-03-2020 11:19:17 11.3 C 71 %
1365 17-03-2020 11:29:17 11.4 C 71 %
1366 17-03-2020 11:39:17 11.3 C 71 %
1367 17-03-2020 11:49:17 11.3 C 71 %
1368 17-03-2020 11:59:17 11.4 C 71 %
1369 17-03-2020 12:09:17 11.4 C 71 %
1370 17-03-2020 12:19:18 11.4 C 71 %
1371 17-03-2020 12:29:18 11.4 C 71 %
1372 17-03-2020 12:39:18 11.4 C 71 %
1373 17-03-2020 12:49:18 11.5 C 71 %
1374 17-03-2020 12:59:18 11.4 C 71 %
1375 17-03-2020 13:09:17 11.4 C 71 %
Sensor: Nr:Datum:Temp:Feuchte:
G-T/H 1376 17-03-2020 13:19:17 11.5 C 71 %
1377 17-03-2020 13:29:17 11.5 C 71 %
1378 17-03-2020 13:39:17 11.5 C 71 %
1379 17-03-2020 13:49:18 11.5 C 71 %
1380 17-03-2020 13:59:18 11.5 C 71 %
1381 17-03-2020 14:09:17 11.5 C 71 %
1382 17-03-2020 14:19:17 11.5 C 71 %
1383 17-03-2020 14:29:17 11.6 C 71 %
1384 17-03-2020 14:39:18 11.6 C 71 %
1385 17-03-2020 14:49:18 11.6 C 71 %
1386 17-03-2020 14:59:18 11.6 C 71 %
1387 17-03-2020 15:09:17 11.6 C 71 %
1388 17-03-2020 15:19:17 11.6 C 71 %
1389 17-03-2020 15:29:17 11.6 C 71 %
1390 17-03-2020 15:39:18 11.7 C 71 %
1391 17-03-2020 15:49:17 11.6 C 71 %
1392 17-03-2020 15:59:17 11.7 C 71 %
1393 17-03-2020 16:09:18 11.7 C 71 %
1394 17-03-2020 16:19:18 11.7 C 71 %
1395 17-03-2020 16:29:18 11.7 C 71 %
1396 17-03-2020 16:39:17 11.7 C 71 %
1397 17-03-2020 16:49:17 11.7 C 71 %
1398 17-03-2020 16:59:17 11.8 C 71 %
1399 17-03-2020 17:09:17 11.8 C 71 %
1400 17-03-2020 17:19:18 11.7 C 71 %
Sensor: Nr:Datum:Temp:Feuchte:
G-T/H 1401 17-03-2020 17:29:18 11.8 C 71 %
1402 17-03-2020 17:39:18 11.8 C 71 %
1403 17-03-2020 17:49:17 11.8 C 71 %
1404 17-03-2020 17:59:18 11.8 C 71 %
1405 17-03-2020 18:09:18 11.8 C 71 %
1406 17-03-2020 18:19:17 11.8 C 71 %
1407 17-03-2020 18:29:17 11.8 C 71 %
1408 17-03-2020 18:39:18 11.8 C 71 %
1409 17-03-2020 18:49:18 11.8 C 71 %
1410 17-03-2020 18:59:18 11.8 C 71 %
1411 17-03-2020 19:09:18 11.8 C 71 %
1412 17-03-2020 19:19:17 11.8 C 71 %
1413 17-03-2020 19:29:17 11.8 C 71 %
1414 17-03-2020 19:39:17 11.8 C 71 %
1415 17-03-2020 19:49:17 11.8 C 71 %
1416 17-03-2020 19:59:17 11.8 C 71 %
1417 17-03-2020 20:09:17 11.8 C 71 %
1418 17-03-2020 20:19:17 11.8 C 71 %
1419 17-03-2020 20:29:17 11.9 C 71 %
1420 17-03-2020 20:39:18 11.8 C 71 %
1421 17-03-2020 20:49:18 11.9 C 71 %
1422 17-03-2020 20:59:18 11.9 C 71 %
1423 17-03-2020 21:09:18 11.8 C 71 %
1424 17-03-2020 21:19:17 11.8 C 71 %
1425 17-03-2020 21:29:17 11.8 C 71 %
Sensor: Nr:Datum:Temp:Feuchte:
G-T/H 1426 17-03-2020 21:39:17 11.8 C 71 %
1427 17-03-2020 21:49:18 11.8 C 71 %
1428 17-03-2020 21:59:18 11.8 C 71 %
1429 17-03-2020 22:09:18 11.8 C 71 %
1430 17-03-2020 22:19:18 11.8 C 71 %
1431 17-03-2020 22:29:18 11.8 C 71 %
1432 17-03-2020 22:39:17 11.8 C 71 %
1433 17-03-2020 22:49:17 11.8 C 71 %
1434 17-03-2020 22:59:17 11.8 C 71 %
1435 17-03-2020 23:09:17 11.8 C 71 %
1436 17-03-2020 23:19:17 11.8 C 71 %
1437 17-03-2020 23:29:17 11.8 C 71 %
1438 17-03-2020 23:39:18 11.8 C 71 %
1439 17-03-2020 23:49:18 11.8 C 71 %
1440 17-03-2020 23:59:18 11.8 C 71 %
1441 18-03-2020 00:09:17 11.7 C 71 %
1442 18-03-2020 00:19:17 11.7 C 71 %
1443 18-03-2020 00:29:17 11.7 C 71 %
1444 18-03-2020 00:39:17 11.8 C 71 %
1445 18-03-2020 00:49:17 11.8 C 71 %
1446 18-03-2020 00:59:17 11.7 C 71 %
1447 18-03-2020 01:09:17 11.8 C 71 %
1448 18-03-2020 01:19:17 11.7 C 71 %
1449 18-03-2020 01:29:17 11.7 C 71 %
1450 18-03-2020 01:39:17 11.7 C 71 %
Sensor: Nr:Datum:Temp:Feuchte:
G-T/H 1451 18-03-2020 01:49:17 11.7 C 71 %
1452 18-03-2020 01:59:17 11.7 C 70 %
1453 18-03-2020 02:09:17 11.7 C 70 %
1454 18-03-2020 02:19:17 11.6 C 70 %
1455 18-03-2020 02:29:17 11.6 C 70 %
1456 18-03-2020 02:39:17 11.7 C 70 %
1457 18-03-2020 02:49:18 11.6 C 70 %
1458 18-03-2020 02:59:18 11.6 C 70 %
1459 18-03-2020 03:09:18 11.6 C 70 %
1460 18-03-2020 03:19:17 11.6 C 70 %
1461 18-03-2020 03:29:17 11.6 C 70 %
1462 18-03-2020 03:39:17 11.6 C 70 %
1463 18-03-2020 03:49:17 11.5 C 70 %
1464 18-03-2020 03:59:17 11.5 C 70 %
1465 18-03-2020 04:09:17 11.5 C 70 %
1466 18-03-2020 04:19:18 11.5 C 70 %
1467 18-03-2020 04:29:18 11.5 C 70 %
1468 18-03-2020 04:39:18 11.5 C 69 %
1469 18-03-2020 04:49:18 11.4 C 69 %
1470 18-03-2020 04:59:18 11.4 C 69 %
1471 18-03-2020 05:09:18 11.4 C 69 %
1472 18-03-2020 05:19:18 11.4 C 69 %
1473 18-03-2020 05:29:18 11.4 C 69 %
1474 18-03-2020 05:39:18 11.3 C 69 %
1475 18-03-2020 05:49:18 11.3 C 68 %
Sensor: Nr:Datum:Temp:Feuchte:
G-T/H 1476 18-03-2020 05:59:18 11.3 C 68 %
1477 18-03-2020 06:09:18 11.3 C 68 %
1478 18-03-2020 06:19:17 11.2 C 68 %
1479 18-03-2020 06:29:18 11.2 C 68 %
1480 18-03-2020 06:39:18 11.2 C 68 %
1481 18-03-2020 06:49:17 11.2 C 68 %
1482 18-03-2020 06:59:18 11.2 C 68 %
1483 18-03-2020 07:09:18 11.2 C 68 %
1484 18-03-2020 07:19:17 11.1 C 68 %
1485 18-03-2020 07:29:17 11.1 C 68 %
1486 18-03-2020 07:39:17 11.1 C 68 %
1487 18-03-2020 07:49:18 11.1 C 68 %
1488 18-03-2020 07:59:18 11.1 C 68 %
1489 18-03-2020 08:09:18 11.1 C 68 %
1490 18-03-2020 08:19:18 11.1 C 68 %
1491 18-03-2020 08:29:18 11 C 68 %
1492 18-03-2020 08:39:17 11 C 68 %
1493 18-03-2020 08:49:18 11 C 68 %
1494 18-03-2020 08:59:18 11 C 69 %
1495 18-03-2020 09:09:17 11 C 69 %
1496 18-03-2020 09:19:17 11 C 69 %
1497 18-03-2020 09:29:17 11 C 69 %
1498 18-03-2020 09:39:17 11 C 69 %
1499 18-03-2020 09:49:18 11 C 69 %
1500 18-03-2020 09:59:18 11 C 69 %
Sensor: Nr:Datum:Temp:Feuchte:
G-T/H 1501 18-03-2020 10:09:18 11 C 69 %
1502 18-03-2020 10:19:18 11 C 69 %
1503 18-03-2020 10:29:18 11 C 69 %
1504 18-03-2020 10:39:18 11 C 70 %
1505 18-03-2020 10:49:18 11 C 70 %
1506 18-03-2020 10:59:18 11 C 70 %
1507 18-03-2020 11:09:18 11 C 70 %
1508 18-03-2020 11:19:18 11 C 70 %
1509 18-03-2020 11:29:18 11 C 70 %
1510 18-03-2020 11:39:18 11 C 70 %
1511 18-03-2020 11:49:17 11 C 70 %
1512 18-03-2020 11:59:17 11 C 70 %
1513 18-03-2020 12:09:18 11 C 70 %
1514 18-03-2020 12:19:17 11 C 70 %
1515 18-03-2020 12:29:18 11.1 C 70 %
1516 18-03-2020 12:39:18 11.1 C 70 %
1517 18-03-2020 12:49:17 11.1 C 70 %
1518 18-03-2020 12:59:17 11.1 C 70 %
1519 18-03-2020 13:09:17 11.1 C 70 %
1520 18-03-2020 13:19:17 11.1 C 70 %
1521 18-03-2020 13:29:17 11.1 C 71 %
1522 18-03-2020 13:39:18 11.2 C 71 %
1523 18-03-2020 13:49:17 11.2 C 71 %
1524 18-03-2020 13:59:17 11.2 C 71 %
1525 18-03-2020 14:09:17 11.2 C 71 %
Sensor: Nr:Datum:Temp:Feuchte:
G-T/H 1526 18-03-2020 14:19:17 11.2 C 71 %
1527 18-03-2020 14:29:17 11.2 C 71 %
1528 18-03-2020 14:39:18 11.3 C 71 %
1529 18-03-2020 14:49:17 11.3 C 71 %
1530 18-03-2020 14:59:17 11.3 C 71 %
1531 18-03-2020 15:09:17 11.3 C 71 %
1532 18-03-2020 15:19:18 11.3 C 71 %
1533 18-03-2020 15:29:18 11.4 C 71 %
1534 18-03-2020 15:39:18 11.4 C 71 %
1535 18-03-2020 15:49:17 11.4 C 71 %
1536 18-03-2020 15:59:17 11.4 C 71 %
1537 18-03-2020 16:09:17 11.4 C 71 %
1538 18-03-2020 16:19:17 11.4 C 71 %
1539 18-03-2020 16:29:17 11.5 C 71 %
1540 18-03-2020 16:39:17 11.5 C 71 %
1541 18-03-2020 16:49:18 11.5 C 71 %
1542 18-03-2020 16:59:18 11.5 C 71 %
1543 18-03-2020 17:09:17 11.5 C 71 %
1544 18-03-2020 17:19:17 11.5 C 71 %
1545 18-03-2020 17:29:17 11.6 C 71 %
1546 18-03-2020 17:39:18 11.6 C 71 %
1547 18-03-2020 17:49:17 11.6 C 71 %
1548 18-03-2020 17:59:17 11.7 C 71 %
1549 18-03-2020 18:09:17 11.6 C 71 %
1550 18-03-2020 18:19:17 11.7 C 72 %
Sensor: Nr:Datum:Temp:Feuchte:
G-T/H 1551 18-03-2020 18:29:17 11.6 C 72 %
1552 18-03-2020 18:39:17 11.7 C 72 %
1553 18-03-2020 18:49:17 11.7 C 71 %
1554 18-03-2020 18:59:17 11.7 C 71 %
1555 18-03-2020 19:09:17 11.7 C 71 %
1556 18-03-2020 19:19:18 11.7 C 71 %
1557 18-03-2020 19:29:18 11.7 C 71 %
1558 18-03-2020 19:39:18 11.7 C 72 %
1559 18-03-2020 19:49:18 11.7 C 72 %
1560 18-03-2020 19:59:18 11.7 C 72 %
1561 18-03-2020 20:09:18 11.7 C 72 %
1562 18-03-2020 20:19:17 11.8 C 72 %
1563 18-03-2020 20:29:17 11.7 C 72 %
1564 18-03-2020 20:39:18 11.7 C 72 %
1565 18-03-2020 20:49:17 11.7 C 72 %
1566 18-03-2020 20:59:17 11.8 C 72 %
1567 18-03-2020 21:09:18 11.8 C 72 %
1568 18-03-2020 21:19:17 11.8 C 72 %
1569 18-03-2020 21:29:17 11.8 C 72 %
1570 18-03-2020 21:39:17 11.8 C 72 %
1571 18-03-2020 21:49:17 11.8 C 72 %
1572 18-03-2020 21:59:17 11.8 C 72 %
1573 18-03-2020 22:09:17 11.8 C 72 %
1574 18-03-2020 22:19:17 11.8 C 72 %
1575 18-03-2020 22:29:17 11.8 C 72 %
Sensor: Nr:Datum:Temp:Feuchte:
G-T/H 1576 18-03-2020 22:39:17 11.8 C 72 %
1577 18-03-2020 22:49:17 11.8 C 72 %
1578 18-03-2020 22:59:17 11.8 C 72 %
1579 18-03-2020 23:09:18 11.8 C 72 %
1580 18-03-2020 23:19:17 11.8 C 72 %
1581 18-03-2020 23:29:17 11.8 C 72 %
1582 18-03-2020 23:39:18 11.8 C 72 %
1583 18-03-2020 23:49:18 11.8 C 72 %
1584 18-03-2020 23:59:18 11.8 C 72 %
1585 19-03-2020 00:09:17 11.8 C 72 %
1586 19-03-2020 00:19:18 11.8 C 72 %
1587 19-03-2020 00:29:18 11.8 C 72 %
1588 19-03-2020 00:39:18 11.9 C 72 %
1589 19-03-2020 00:49:17 11.9 C 72 %
1590 19-03-2020 00:59:17 11.8 C 72 %
1591 19-03-2020 01:09:18 11.8 C 72 %
1592 19-03-2020 01:19:17 11.8 C 72 %
1593 19-03-2020 01:29:17 11.8 C 72 %
1594 19-03-2020 01:39:17 11.8 C 72 %
1595 19-03-2020 01:49:17 11.8 C 72 %
1596 19-03-2020 01:59:17 11.8 C 72 %
1597 19-03-2020 02:09:18 11.8 C 72 %
1598 19-03-2020 02:19:17 11.8 C 72 %
1599 19-03-2020 02:29:17 11.8 C 72 %
1600 19-03-2020 02:39:17 11.8 C 72 %
Sensor: Nr:Datum:Temp:Feuchte:
G-T/H 1601 19-03-2020 02:49:18 11.8 C 72 %
1602 19-03-2020 02:59:18 11.8 C 72 %
1603 19-03-2020 03:09:18 11.8 C 72 %
1604 19-03-2020 03:19:18 11.8 C 72 %
1605 19-03-2020 03:29:18 11.8 C 72 %
1606 19-03-2020 03:39:17 11.8 C 72 %
1607 19-03-2020 03:49:18 11.8 C 72 %
1608 19-03-2020 03:59:18 11.8 C 72 %
1609 19-03-2020 04:09:18 11.8 C 71 %
1610 19-03-2020 04:19:17 11.8 C 71 %
1611 19-03-2020 04:29:17 11.8 C 71 %
1612 19-03-2020 04:39:17 11.8 C 71 %
1613 19-03-2020 04:49:18 11.8 C 71 %
1614 19-03-2020 04:59:18 11.8 C 71 %
1615 19-03-2020 05:09:18 11.8 C 71 %
1616 19-03-2020 05:19:18 11.8 C 71 %
1617 19-03-2020 05:29:18 11.8 C 71 %
1618 19-03-2020 05:39:18 11.8 C 71 %
1619 19-03-2020 05:49:17 11.8 C 71 %
1620 19-03-2020 05:59:18 11.8 C 71 %
1621 19-03-2020 06:09:18 11.8 C 71 %
1622 19-03-2020 06:19:17 11.8 C 71 %
1623 19-03-2020 06:29:17 11.8 C 71 %
1624 19-03-2020 06:39:17 11.8 C 71 %
1625 19-03-2020 06:49:17 11.8 C 71 %
Sensor: Nr:Datum:Temp:Feuchte:
G-T/H 1626 19-03-2020 06:59:17 11.8 C 71 %
1627 19-03-2020 07:09:17 11.8 C 71 %
1628 19-03-2020 07:19:17 11.8 C 71 %
1629 19-03-2020 07:29:17 11.8 C 71 %
1630 19-03-2020 07:39:18 11.8 C 71 %
1631 19-03-2020 07:49:18 11.8 C 71 %
1632 19-03-2020 07:59:18 11.8 C 71 %
1633 19-03-2020 08:09:18 11.8 C 71 %
1634 19-03-2020 08:19:17 11.8 C 71 %
1635 19-03-2020 08:29:17 11.8 C 71 %
1636 19-03-2020 08:39:17 11.8 C 71 %
1637 19-03-2020 08:49:18 11.8 C 71 %
1638 19-03-2020 08:59:18 11.8 C 71 %
1639 19-03-2020 09:09:17 11.8 C 72 %
1640 19-03-2020 09:19:17 11.8 C 72 %
1641 19-03-2020 09:29:17 11.8 C 72 %
1642 19-03-2020 09:39:18 11.8 C 72 %
1643 19-03-2020 09:49:17 11.8 C 72 %
1644 19-03-2020 09:59:17 11.8 C 72 %
1645 19-03-2020 10:09:18 11.8 C 72 %
1646 19-03-2020 10:19:18 11.8 C 72 %
1647 19-03-2020 10:29:18 11.8 C 72 %
1648 19-03-2020 10:39:17 11.8 C 72 %
1649 19-03-2020 10:49:17 11.8 C 72 %
1650 19-03-2020 10:59:17 11.8 C 72 %
Sensor: Nr:Datum:Temp:Feuchte:
G-T/H 1651 19-03-2020 11:09:17 11.8 C 72 %
1652 19-03-2020 11:19:17 11.9 C 72 %
1653 19-03-2020 11:29:17 11.9 C 72 %
1654 19-03-2020 11:39:17 11.9 C 72 %
1655 19-03-2020 11:49:17 11.9 C 72 %
1656 19-03-2020 11:59:17 11.9 C 72 %
1657 19-03-2020 12:09:17 11.9 C 72 %
1658 19-03-2020 12:19:17 11.9 C 72 %
1659 19-03-2020 12:29:17 11.9 C 72 %
1660 19-03-2020 12:39:18 11.9 C 72 %
1661 19-03-2020 12:49:17 11.9 C 72 %
1662 19-03-2020 12:59:17 11.9 C 72 %
1663 19-03-2020 13:09:18 12 C 71 %
1664 19-03-2020 13:19:18 12 C 71 %
1665 19-03-2020 13:29:18 12 C 71 %
1666 19-03-2020 13:39:18 12 C 71 %
1667 19-03-2020 13:49:17 12 C 71 %
1668 19-03-2020 13:59:17 12.1 C 71 %
1669 19-03-2020 14:09:17 12.1 C 71 %
1670 19-03-2020 14:19:17 12.1 C 71 %
1671 19-03-2020 14:29:17 12.2 C 71 %
1672 19-03-2020 14:39:17 12.6 C 69 %
1673 19-03-2020 14:49:17 12.8 C 67 %
1674 19-03-2020 14:59:17 13 C 64 %
1675 19-03-2020 15:09:18 13.2 C 63 %
Sensor: Nr:Datum:Temp:Feuchte:
G-T/H 1676 19-03-2020 15:19:18 13.2 C 62 %
1677 19-03-2020 15:29:18 13.3 C 61 %
1678 19-03-2020 15:39:18 13.4 C 61 %
1679 19-03-2020 15:49:17 13.4 C 60 %
1680 19-03-2020 15:59:18 13.5 C 60 %
1681 19-03-2020 16:09:18 13.5 C 60 %
1682 19-03-2020 16:20:17 13.6 C 59 %
1683 19-03-2020 16:29:17 13.7 C 58 %
1684 19-03-2020 16:39:17 13.8 C 57 %
1685 19-03-2020 16:49:17 13.8 C 57 %
1686 19-03-2020 16:59:17 13.9 C 56 %
1687 19-03-2020 17:09:18 13.8 C 56 %
1688 19-03-2020 17:19:18 13.8 C 56 %
1689 19-03-2020 17:29:18 13.8 C 56 %
1690 19-03-2020 17:39:18 13.8 C 56 %
1691 19-03-2020 17:49:18 13.8 C 56 %
1692 19-03-2020 17:59:18 13.9 C 57 %
1693 19-03-2020 18:09:18 13.9 C 57 %
1694 19-03-2020 18:20:17 13.9 C 58 %
1695 19-03-2020 18:30:17 13.8 C 58 %
1696 19-03-2020 18:40:17 13.7 C 59 %
1697 19-03-2020 18:50:17 13.6 C 59 %
1698 19-03-2020 18:59:18 13.5 C 60 %
1699 19-03-2020 19:09:18 13.4 C 60 %
1700 19-03-2020 19:20:17 13.2 C 60 %
Sensor: Nr:Datum:Temp:Feuchte:
G-T/H 1701 19-03-2020 19:30:17 13.1 C 60 %
1702 19-03-2020 19:40:17 12.9 C 61 %
1703 19-03-2020 19:50:17 12.8 C 61 %
1704 19-03-2020 19:59:17 12.8 C 61 %
1705 19-03-2020 20:09:17 12.7 C 61 %
1706 19-03-2020 20:29:17 12.7 C 61 %
1707 19-03-2020 20:29:17 12.7 C 62 %
1708 19-03-2020 20:39:17 12.7 C 62 %
1709 19-03-2020 20:49:17 12.7 C 62 %
1710 19-03-2020 20:59:17 12.7 C 62 %
1711 19-03-2020 21:09:18 12.7 C 63 %
1712 19-03-2020 21:20:17 12.8 C 63 %
1713 19-03-2020 21:30:17 12.8 C 63 %
1714 19-03-2020 21:40:17 12.8 C 63 %
1715 19-03-2020 21:50:17 12.8 C 63 %
1716 19-03-2020 21:59:18 12.8 C 64 %
1717 19-03-2020 22:09:18 12.8 C 64 %
1718 19-03-2020 22:19:18 12.8 C 64 %
1719 19-03-2020 22:29:18 12.8 C 64 %
1720 19-03-2020 22:39:18 12.8 C 64 %
1721 19-03-2020 22:49:18 12.8 C 64 %
1722 19-03-2020 22:59:18 12.8 C 65 %
1723 19-03-2020 23:09:18 12.8 C 65 %
1724 19-03-2020 23:20:17 12.8 C 65 %
1725 19-03-2020 23:30:17 12.8 C 65 %
Sensor: Nr:Datum:Temp:Feuchte:
G-T/H 1726 19-03-2020 23:40:17 12.8 C 65 %
1727 19-03-2020 23:50:17 12.8 C 65 %
1728 19-03-2020 23:59:18 12.8 C 65 %
1729 20-03-2020 00:09:18 12.8 C 66 %
1730 20-03-2020 00:19:18 12.8 C 66 %
1731 20-03-2020 00:29:18 12.8 C 66 %
1732 20-03-2020 00:39:18 12.8 C 66 %
1733 20-03-2020 00:59:17 12.8 C 66 %
1734 20-03-2020 01:00:18 12.8 C 66 %
1735 20-03-2020 01:10:18 12.8 C 66 %
1736 20-03-2020 01:20:17 12.8 C 66 %
1737 20-03-2020 01:30:18 12.8 C 66 %
1738 20-03-2020 01:40:18 12.8 C 66 %
1739 20-03-2020 01:50:17 12.8 C 66 %
1740 20-03-2020 02:00:18 12.8 C 66 %
1741 20-03-2020 02:10:18 12.8 C 66 %
1742 20-03-2020 02:20:17 12.8 C 67 %
1743 20-03-2020 02:30:17 12.8 C 67 %
1744 20-03-2020 02:40:17 12.7 C 67 %
1745 20-03-2020 02:50:17 12.8 C 67 %
1746 20-03-2020 03:00:17 12.7 C 67 %
1747 20-03-2020 03:10:17 12.7 C 67 %
1748 20-03-2020 03:20:17 12.7 C 67 %
1749 20-03-2020 03:30:18 12.7 C 67 %
1750 20-03-2020 03:40:18 12.7 C 67 %
Sensor: Nr:Datum:Temp:Feuchte:
G-T/H 1751 20-03-2020 03:50:17 12.7 C 67 %
1752 20-03-2020 04:00:18 12.7 C 67 %
1753 20-03-2020 04:10:18 12.7 C 67 %
1754 20-03-2020 04:20:18 12.7 C 67 %
1755 20-03-2020 04:30:18 12.7 C 67 %
1756 20-03-2020 04:40:18 12.7 C 67 %
1757 20-03-2020 04:50:17 12.6 C 67 %
1758 20-03-2020 05:00:18 12.6 C 67 %
1759 20-03-2020 05:10:18 12.7 C 67 %
1760 20-03-2020 05:20:17 12.6 C 67 %
1761 20-03-2020 05:30:17 12.6 C 67 %
1762 20-03-2020 05:40:17 12.6 C 67 %
1763 20-03-2020 05:50:17 12.5 C 67 %
1764 20-03-2020 06:00:17 12.5 C 67 %
1765 20-03-2020 06:10:17 12.5 C 67 %
1766 20-03-2020 06:20:17 12.5 C 67 %
1767 20-03-2020 06:30:17 12.5 C 67 %
1768 20-03-2020 06:40:17 12.5 C 67 %
1769 20-03-2020 06:50:17 12.5 C 67 %
1770 20-03-2020 07:00:17 12.5 C 67 %
1771 20-03-2020 07:10:17 12.5 C 67 %
1772 20-03-2020 07:20:17 12.4 C 67 %
1773 20-03-2020 07:30:17 12.5 C 67 %
1774 20-03-2020 07:40:17 12.4 C 67 %
1775 20-03-2020 07:50:18 12.4 C 67 %
Sensor: Nr:Datum:Temp:Feuchte:
G-T/H 1776 20-03-2020 08:00:17 12.4 C 67 %
1777 20-03-2020 08:10:17 12.4 C 67 %
1778 20-03-2020 08:20:17 12.4 C 67 %
1779 20-03-2020 08:30:17 12.4 C 67 %
1780 20-03-2020 08:40:17 12.4 C 67 %
1781 20-03-2020 08:50:17 12.4 C 67 %
1782 20-03-2020 09:00:17 12.4 C 67 %
1783 20-03-2020 09:10:17 12.3 C 67 %
1784 20-03-2020 09:20:17 12.4 C 67 %
1785 20-03-2020 09:30:17 12.4 C 67 %
1786 20-03-2020 09:40:17 12.4 C 68 %
1787 20-03-2020 09:50:17 12.4 C 68 %
1788 20-03-2020 10:00:18 12.3 C 68 %
1789 20-03-2020 10:10:18 12.3 C 68 %
1790 20-03-2020 10:20:18 12.3 C 68 %
1791 20-03-2020 10:30:18 12.3 C 68 %
1792 20-03-2020 10:40:18 12.3 C 68 %
1793 20-03-2020 10:50:18 12.3 C 68 %
1794 20-03-2020 11:00:17 12.3 C 68 %
1795 20-03-2020 11:10:18 12.3 C 68 %
1796 20-03-2020 11:20:18 12.3 C 68 %
1797 20-03-2020 11:30:18 12.3 C 68 %
1798 20-03-2020 11:40:18 12.3 C 68 %
1799 20-03-2020 11:50:18 12.3 C 68 %
1800 20-03-2020 12:00:17 12.3 C 68 %
Sensor: Nr:Datum:Temp:Feuchte:
G-T/H 1801 20-03-2020 12:10:17 12.3 C 68 %
1802 20-03-2020 12:20:17 12.3 C 68 %
1803 20-03-2020 12:30:18 12.3 C 68 %
1804 20-03-2020 12:40:18 12.3 C 68 %
1805 20-03-2020 12:50:18 12.3 C 68 %
1806 20-03-2020 13:00:18 12.3 C 68 %
1807 20-03-2020 13:10:18 12.4 C 68 %
1808 20-03-2020 13:20:18 12.4 C 69 %
1809 20-03-2020 13:30:18 12.4 C 69 %
1810 20-03-2020 13:40:18 12.4 C 69 %
1811 20-03-2020 13:50:17 12.4 C 69 %
1812 20-03-2020 14:00:17 12.4 C 69 %
1813 20-03-2020 14:10:17 12.4 C 69 %
1814 20-03-2020 14:20:17 12.4 C 69 %
1815 20-03-2020 14:30:18 12.4 C 69 %
1816 20-03-2020 14:40:18 12.4 C 69 %
1817 20-03-2020 14:50:18 12.4 C 69 %
1818 20-03-2020 15:00:17 12.4 C 69 %
1819 20-03-2020 15:10:17 12.4 C 69 %
1820 20-03-2020 15:20:17 12.5 C 69 %
1821 20-03-2020 15:30:18 12.5 C 69 %
1822 20-03-2020 15:40:18 12.5 C 69 %
1823 20-03-2020 15:50:18 12.4 C 69 %
1824 20-03-2020 16:00:17 12.5 C 69 %
1825 20-03-2020 16:10:17 12.5 C 69 %
Sensor: Nr:Datum:Temp:Feuchte:
G-T/H 1826 20-03-2020 16:20:17 12.5 C 69 %
1827 20-03-2020 16:30:18 12.5 C 69 %
1828 20-03-2020 16:40:18 12.5 C 69 %
1829 20-03-2020 16:50:18 12.5 C 69 %
1830 20-03-2020 17:00:18 12.6 C 69 %
1831 20-03-2020 17:10:18 12.7 C 69 %
1832 20-03-2020 17:20:18 12.8 C 69 %
1833 20-03-2020 17:30:18 12.8 C 68 %
1834 20-03-2020 17:40:18 12.7 C 68 %
1835 20-03-2020 17:50:17 12.7 C 68 %
1836 20-03-2020 18:00:17 12.6 C 68 %
1837 20-03-2020 18:10:17 12.7 C 68 %
1838 20-03-2020 18:20:17 12.6 C 68 %
1839 20-03-2020 18:30:17 12.6 C 68 %
1840 20-03-2020 18:40:17 12.6 C 68 %
1841 20-03-2020 18:50:18 12.6 C 68 %
1842 20-03-2020 19:00:17 12.6 C 68 %
1843 20-03-2020 19:10:17 12.6 C 68 %
1844 20-03-2020 19:20:17 12.6 C 68 %
1845 20-03-2020 19:30:17 12.6 C 68 %
1846 20-03-2020 19:40:17 12.6 C 68 %
1847 20-03-2020 19:50:17 12.6 C 68 %
1848 20-03-2020 20:00:17 12.6 C 68 %
1849 20-03-2020 20:10:17 12.6 C 68 %
1850 20-03-2020 20:20:17 12.6 C 68 %
Sensor: Nr:Datum:Temp:Feuchte:
G-T/H 1851 20-03-2020 20:30:17 12.6 C 68 %
1852 20-03-2020 20:40:17 12.6 C 68 %
1853 20-03-2020 20:50:18 12.6 C 68 %
1854 20-03-2020 21:00:18 12.6 C 68 %
1855 20-03-2020 21:10:18 12.6 C 68 %
1856 20-03-2020 21:20:17 12.6 C 68 %
1857 20-03-2020 21:30:17 12.6 C 68 %
1858 20-03-2020 21:40:17 12.5 C 68 %
1859 20-03-2020 21:50:17 12.5 C 68 %
1860 20-03-2020 22:00:17 12.5 C 67 %
1861 20-03-2020 22:10:17 12.5 C 67 %
1862 20-03-2020 22:20:18 12.5 C 67 %
1863 20-03-2020 22:30:17 12.5 C 67 %
1864 20-03-2020 22:40:18 12.5 C 67 %
1865 20-03-2020 22:50:17 12.5 C 67 %
1866 20-03-2020 23:00:18 12.5 C 67 %
1867 20-03-2020 23:10:18 12.5 C 67 %
1868 20-03-2020 23:20:17 12.5 C 67 %
1869 20-03-2020 23:30:18 12.5 C 67 %
1870 20-03-2020 23:40:18 12.5 C 67 %
1871 20-03-2020 23:50:18 12.4 C 66 %
1872 21-03-2020 00:00:17 12.5 C 66 %
1873 21-03-2020 00:10:17 12.4 C 66 %
1874 21-03-2020 00:20:17 12.5 C 66 %
1875 21-03-2020 00:30:17 12.4 C 66 %
Sensor: Nr:Datum:Temp:Feuchte:
G-T/H 1876 21-03-2020 00:40:17 12.4 C 66 %
1877 21-03-2020 00:50:17 12.4 C 66 %
1878 21-03-2020 01:00:17 12.4 C 66 %
1879 21-03-2020 01:10:17 12.4 C 66 %
1880 21-03-2020 01:20:17 12.4 C 66 %
1881 21-03-2020 01:30:18 12.4 C 66 %
1882 21-03-2020 01:40:18 12.4 C 66 %
1883 21-03-2020 01:50:17 12.4 C 66 %
1884 21-03-2020 02:00:18 12.3 C 66 %
1885 21-03-2020 02:10:18 12.3 C 66 %
1886 21-03-2020 02:20:17 12.3 C 66 %
1887 21-03-2020 02:30:18 12.3 C 66 %
1888 21-03-2020 02:40:18 12.3 C 66 %
1889 21-03-2020 02:50:18 12.3 C 66 %
1890 21-03-2020 03:00:17 12.3 C 66 %
1891 21-03-2020 03:10:17 12.3 C 66 %
1892 21-03-2020 03:20:17 12.2 C 66 %
1893 21-03-2020 03:30:18 12.2 C 66 %
1894 21-03-2020 03:40:18 12.2 C 66 %
1895 21-03-2020 03:50:17 12.2 C 66 %
1896 21-03-2020 04:00:18 12.2 C 66 %
1897 21-03-2020 04:10:18 12.2 C 66 %
1898 21-03-2020 04:20:17 12.2 C 66 %
1899 21-03-2020 04:30:18 12.1 C 66 %
1900 21-03-2020 04:40:18 12.1 C 66 %
Sensor: Nr:Datum:Temp:Feuchte:
G-T/H 1901 21-03-2020 04:50:18 12.1 C 66 %
1902 21-03-2020 05:00:18 12.1 C 65 %
1903 21-03-2020 05:10:18 12 C 65 %
1904 21-03-2020 05:20:18 12 C 65 %
1905 21-03-2020 05:30:18 12 C 65 %
1906 21-03-2020 05:40:18 12 C 65 %
1907 21-03-2020 05:50:17 11.9 C 66 %
1908 21-03-2020 06:00:18 11.9 C 66 %
1909 21-03-2020 06:10:18 12 C 65 %
1910 21-03-2020 06:20:17 11.9 C 66 %
1911 21-03-2020 06:30:18 11.9 C 66 %
1912 21-03-2020 06:40:18 11.9 C 67 %
1913 21-03-2020 06:50:17 11.9 C 67 %
1914 21-03-2020 07:00:17 11.9 C 67 %
1915 21-03-2020 07:10:18 11.9 C 67 %
1916 21-03-2020 07:20:18 11.8 C 67 %
1917 21-03-2020 07:30:18 11.8 C 66 %
1918 21-03-2020 07:40:18 11.8 C 66 %
1919 21-03-2020 07:50:17 11.8 C 66 %
1920 21-03-2020 08:00:18 11.7 C 66 %
1921 21-03-2020 08:10:18 11.7 C 66 %
1922 21-03-2020 08:20:17 11.7 C 67 %
1923 21-03-2020 08:30:17 11.7 C 67 %
1924 21-03-2020 08:40:17 11.7 C 67 %
1925 21-03-2020 08:50:18 11.7 C 67 %
Sensor: Nr:Datum:Temp:Feuchte:
G-T/H 1926 21-03-2020 09:00:18 11.7 C 67 %
1927 21-03-2020 09:10:18 11.7 C 67 %
1928 21-03-2020 09:20:18 11.7 C 67 %
1929 21-03-2020 09:30:18 11.7 C 67 %
1930 21-03-2020 09:40:18 11.6 C 67 %
1931 21-03-2020 09:50:17 11.6 C 67 %
1932 21-03-2020 10:00:17 11.6 C 67 %
1933 21-03-2020 10:10:18 11.6 C 67 %
1934 21-03-2020 10:20:18 11.6 C 67 %
1935 21-03-2020 10:30:18 11.5 C 67 %
1936 21-03-2020 10:40:18 11.5 C 67 %
1937 21-03-2020 10:50:17 11.5 C 67 %
1938 21-03-2020 11:00:17 11.6 C 67 %
1939 21-03-2020 11:10:18 11.5 C 67 %
1940 21-03-2020 11:20:18 11.5 C 67 %
1941 21-03-2020 11:30:18 11.5 C 67 %
1942 21-03-2020 11:40:18 11.5 C 67 %
1943 21-03-2020 11:50:18 11.5 C 67 %
1944 21-03-2020 12:00:18 11.6 C 67 %
1945 21-03-2020 12:10:18 11.5 C 67 %
1946 21-03-2020 12:20:17 11.5 C 66 %
1947 21-03-2020 12:30:17 11.5 C 66 %
1948 21-03-2020 12:40:17 11.5 C 66 %
1949 21-03-2020 12:50:17 11.4 C 65 %
1950 21-03-2020 13:00:17 11.4 C 65 %
Sensor: Nr:Datum:Temp:Feuchte:
G-T/H 1951 21-03-2020 13:10:17 11.4 C 65 %
1952 21-03-2020 13:20:18 11.4 C 64 %
1953 21-03-2020 13:30:18 11.4 C 64 %
1954 21-03-2020 13:40:18 11.4 C 64 %
1955 21-03-2020 13:50:17 11.3 C 63 %
1956 21-03-2020 14:00:18 11.3 C 63 %
1957 21-03-2020 14:10:18 11.3 C 63 %
1958 21-03-2020 14:20:18 11.3 C 63 %
1959 21-03-2020 14:30:18 11.3 C 62 %
1960 21-03-2020 14:40:18 11.3 C 62 %
1961 21-03-2020 14:50:17 11.3 C 62 %
1962 21-03-2020 15:00:18 11.3 C 62 %
1963 21-03-2020 15:10:18 11.3 C 62 %
1964 21-03-2020 15:20:17 11.2 C 61 %
1965 21-03-2020 15:30:17 11.3 C 61 %
1966 21-03-2020 15:40:17 11.3 C 61 %
1967 21-03-2020 15:50:17 11.2 C 61 %
1968 21-03-2020 16:00:18 11.2 C 60 %
1969 21-03-2020 16:10:18 11.2 C 60 %
1970 21-03-2020 16:20:17 11.2 C 60 %
1971 21-03-2020 16:30:17 11.2 C 60 %
1972 21-03-2020 16:40:17 11.2 C 60 %
1973 21-03-2020 16:50:17 11.2 C 61 %
1974 21-03-2020 17:00:17 11.2 C 61 %
1975 21-03-2020 17:10:17 11.2 C 61 %
Sensor: Nr:Datum:Temp:Feuchte:
G-T/H 1976 21-03-2020 17:20:17 11.2 C 61 %
1977 21-03-2020 17:30:18 11.2 C 61 %
1978 21-03-2020 17:40:18 11.2 C 60 %
1979 21-03-2020 17:50:17 11.2 C 60 %
1980 21-03-2020 18:00:17 11.2 C 60 %
1981 21-03-2020 18:10:17 11.2 C 60 %
1982 21-03-2020 18:20:17 11.1 C 60 %
1983 21-03-2020 18:30:17 11.1 C 60 %
1984 21-03-2020 18:40:17 11.1 C 60 %
1985 21-03-2020 18:50:17 11.1 C 61 %
1986 21-03-2020 19:00:17 11.2 C 61 %
1987 21-03-2020 19:10:17 11.1 C 61 %
1988 21-03-2020 19:20:17 11.1 C 61 %
1989 21-03-2020 19:30:18 11.1 C 61 %
1990 21-03-2020 19:40:18 11.1 C 61 %
1991 21-03-2020 19:50:17 11.1 C 61 %
1992 21-03-2020 20:00:18 11.1 C 61 %
1993 21-03-2020 20:10:18 11 C 60 %
1994 21-03-2020 20:20:18 11.1 C 60 %
1995 21-03-2020 20:30:18 11 C 60 %
1996 21-03-2020 20:40:18 11 C 60 %
1997 21-03-2020 20:50:17 11 C 60 %
1998 21-03-2020 21:00:18 11 C 60 %
1999 21-03-2020 21:10:18 11 C 60 %
2000 21-03-2020 21:20:18 11 C 60 %
Sensor: Nr:Datum:Temp:Feuchte:
G-T/H 2001 21-03-2020 21:30:18 11 C 61 %
2002 21-03-2020 21:40:18 11 C 61 %
2003 21-03-2020 21:50:17 11 C 61 %
2004 21-03-2020 22:00:17 10.9 C 62 %
2005 21-03-2020 22:10:17 10.9 C 61 %
2006 21-03-2020 22:20:17 10.8 C 61 %
2007 21-03-2020 22:30:18 10.8 C 61 %
2008 21-03-2020 22:40:18 10.8 C 61 %
2009 21-03-2020 22:50:18 10.8 C 61 %
2010 21-03-2020 23:00:18 10.8 C 61 %
2011 21-03-2020 23:10:18 10.8 C 60 %
2012 21-03-2020 23:20:18 10.8 C 61 %
2013 21-03-2020 23:30:18 10.7 C 60 %
2014 21-03-2020 23:40:18 10.7 C 60 %
2015 21-03-2020 23:50:17 10.7 C 60 %

Legende:
   Min
   Max


Maximal/Minimal-Werte vom 08.03.2020 - 21.03.2020

Sensor Min Max Avg
Temp
(Aussen-T/F)
0.3 °C
14-03-2020  06:09:18
25.8 °C
19-03-2020  13:19:18
9.56 °C
Feuchte
(Aussen-T/F)
20 %
09-03-2020  14:49:17
50 %
14-03-2020  05:39:18
34.65 %
Temp
(G-T/H)
9.6 °C
08-03-2020  00:08:18
13.9 °C
19-03-2020  16:59:17
11.23 °C
Feuchte
(G-T/H)
51 %
15-03-2020  16:09:17
77 %
11-03-2020  13:29:17
69.94 %

Die Daten stammen von einer Davis Vantage Pro 2 Wetter-Station und werden unter Linux mit der Software wview2wettercgi und aufbereitet. Alle Angaben erfolgen ohne Gewähr für ihre Vollständigkeit oder Richtigkeit.
Kontakt: Rainer Krienke krienke@uni-koblenz.de . Meine Webseiten an der Uni Koblenz oder privat.
Version: $Revision: 0.78 $